<?xml version="1.0" encoding="UTF-8" standalone="no" ?>
<gpx xmlns="http://www.topografix.com/GPX/1/1" xmlns:xsi="http://www.w3.org/2001/XMLSchema-instance" xsi:schemaLocation="http://www.topografix.com/GPX/1/1 http://www.topografix.com/GPX/1/1/gpx.xsd" version="1.1" creator="VisuGPX - https://www.visugpx.com">
  <metadata>
    <name>Touyr du Pion du Roy</name>
    <desc><![CDATA[Boucle en partant du parking situé sur la route Notre Dame des Anges]]></desc>
  </metadata>
  <trk>
    <name><![CDATA[Touyr du Pion du Roy_1]]></name>
    <trkseg>
      <trkpt lat="43.41064" lon="5.49092">
        <ele>514</ele>
        <time>2015-05-08T07:37:27Z</time>
      </trkpt>
      <trkpt lat="43.41047" lon="5.49064">
        <ele>533</ele>
        <time>2015-05-08T07:38:22Z</time>
      </trkpt>
      <trkpt lat="43.4104" lon="5.49056">
        <ele>533</ele>
        <time>2015-05-08T07:38:31Z</time>
      </trkpt>
      <trkpt lat="43.41035" lon="5.49045">
        <ele>536</ele>
        <time>2015-05-08T07:38:40Z</time>
      </trkpt>
      <trkpt lat="43.4103" lon="5.49034">
        <ele>537</ele>
        <time>2015-05-08T07:38:50Z</time>
      </trkpt>
      <trkpt lat="43.41027" lon="5.49019">
        <ele>537</ele>
        <time>2015-05-08T07:39:00Z</time>
      </trkpt>
      <trkpt lat="43.41022" lon="5.49003">
        <ele>537</ele>
        <time>2015-05-08T07:39:10Z</time>
      </trkpt>
      <trkpt lat="43.41018" lon="5.48989">
        <ele>537</ele>
        <time>2015-05-08T07:39:19Z</time>
      </trkpt>
      <trkpt lat="43.41011" lon="5.48975">
        <ele>537</ele>
        <time>2015-05-08T07:39:28Z</time>
      </trkpt>
      <trkpt lat="43.41004" lon="5.48963">
        <ele>537</ele>
        <time>2015-05-08T07:39:39Z</time>
      </trkpt>
      <trkpt lat="43.40997" lon="5.48955">
        <ele>537</ele>
        <time>2015-05-08T07:39:49Z</time>
      </trkpt>
      <trkpt lat="43.40992" lon="5.48943">
        <ele>542</ele>
        <time>2015-05-08T07:39:59Z</time>
      </trkpt>
      <trkpt lat="43.40992" lon="5.48926">
        <ele>546</ele>
        <time>2015-05-08T07:40:09Z</time>
      </trkpt>
      <trkpt lat="43.40991" lon="5.4891">
        <ele>545</ele>
        <time>2015-05-08T07:40:19Z</time>
      </trkpt>
      <trkpt lat="43.40985" lon="5.48893">
        <ele>545</ele>
        <time>2015-05-08T07:40:28Z</time>
      </trkpt>
      <trkpt lat="43.40982" lon="5.48879">
        <ele>545</ele>
        <time>2015-05-08T07:40:39Z</time>
      </trkpt>
      <trkpt lat="43.40978" lon="5.48866">
        <ele>545</ele>
        <time>2015-05-08T07:40:49Z</time>
      </trkpt>
      <trkpt lat="43.40973" lon="5.48854">
        <ele>545</ele>
        <time>2015-05-08T07:41:00Z</time>
      </trkpt>
      <trkpt lat="43.40968" lon="5.48846">
        <ele>545</ele>
        <time>2015-05-08T07:41:09Z</time>
      </trkpt>
      <trkpt lat="43.40965" lon="5.48841">
        <ele>546</ele>
        <time>2015-05-08T07:41:18Z</time>
      </trkpt>
      <trkpt lat="43.40959" lon="5.48829">
        <ele>548</ele>
        <time>2015-05-08T07:41:27Z</time>
      </trkpt>
      <trkpt lat="43.40958" lon="5.48811">
        <ele>549</ele>
        <time>2015-05-08T07:41:36Z</time>
      </trkpt>
      <trkpt lat="43.40957" lon="5.48795">
        <ele>549</ele>
        <time>2015-05-08T07:41:46Z</time>
      </trkpt>
      <trkpt lat="43.40956" lon="5.4878">
        <ele>549</ele>
        <time>2015-05-08T07:41:55Z</time>
      </trkpt>
      <trkpt lat="43.40954" lon="5.48765">
        <ele>550</ele>
        <time>2015-05-08T07:42:04Z</time>
      </trkpt>
      <trkpt lat="43.40952" lon="5.48752">
        <ele>550</ele>
        <time>2015-05-08T07:42:14Z</time>
      </trkpt>
      <trkpt lat="43.40948" lon="5.48741">
        <ele>551</ele>
        <time>2015-05-08T07:42:24Z</time>
      </trkpt>
      <trkpt lat="43.40943" lon="5.48731">
        <ele>551</ele>
        <time>2015-05-08T07:42:33Z</time>
      </trkpt>
      <trkpt lat="43.40937" lon="5.48721">
        <ele>552</ele>
        <time>2015-05-08T07:42:43Z</time>
      </trkpt>
      <trkpt lat="43.40933" lon="5.48711">
        <ele>553</ele>
        <time>2015-05-08T07:42:53Z</time>
      </trkpt>
      <trkpt lat="43.40932" lon="5.48696">
        <ele>556</ele>
        <time>2015-05-08T07:43:03Z</time>
      </trkpt>
      <trkpt lat="43.40931" lon="5.48681">
        <ele>558</ele>
        <time>2015-05-08T07:43:12Z</time>
      </trkpt>
      <trkpt lat="43.40927" lon="5.48666">
        <ele>559</ele>
        <time>2015-05-08T07:43:21Z</time>
      </trkpt>
      <trkpt lat="43.40923" lon="5.48652">
        <ele>559</ele>
        <time>2015-05-08T07:43:30Z</time>
      </trkpt>
      <trkpt lat="43.40919" lon="5.48638">
        <ele>560</ele>
        <time>2015-05-08T07:43:40Z</time>
      </trkpt>
      <trkpt lat="43.40915" lon="5.48627">
        <ele>561</ele>
        <time>2015-05-08T07:43:49Z</time>
      </trkpt>
      <trkpt lat="43.4091" lon="5.48615">
        <ele>561</ele>
        <time>2015-05-08T07:43:59Z</time>
      </trkpt>
      <trkpt lat="43.40907" lon="5.48601">
        <ele>562</ele>
        <time>2015-05-08T07:44:08Z</time>
      </trkpt>
      <trkpt lat="43.40905" lon="5.48587">
        <ele>564</ele>
        <time>2015-05-08T07:44:18Z</time>
      </trkpt>
      <trkpt lat="43.40903" lon="5.4857">
        <ele>564</ele>
        <time>2015-05-08T07:44:27Z</time>
      </trkpt>
      <trkpt lat="43.40899" lon="5.48554">
        <ele>564</ele>
        <time>2015-05-08T07:44:37Z</time>
      </trkpt>
      <trkpt lat="43.40892" lon="5.48544">
        <ele>565</ele>
        <time>2015-05-08T07:44:47Z</time>
      </trkpt>
      <trkpt lat="43.40884" lon="5.48535">
        <ele>565</ele>
        <time>2015-05-08T07:44:58Z</time>
      </trkpt>
      <trkpt lat="43.40878" lon="5.48524">
        <ele>567</ele>
        <time>2015-05-08T07:45:07Z</time>
      </trkpt>
      <trkpt lat="43.40873" lon="5.48511">
        <ele>567</ele>
        <time>2015-05-08T07:45:16Z</time>
      </trkpt>
      <trkpt lat="43.40869" lon="5.48498">
        <ele>567</ele>
        <time>2015-05-08T07:45:26Z</time>
      </trkpt>
      <trkpt lat="43.40865" lon="5.48485">
        <ele>567</ele>
        <time>2015-05-08T07:45:36Z</time>
      </trkpt>
      <trkpt lat="43.40861" lon="5.48468">
        <ele>567</ele>
        <time>2015-05-08T07:45:46Z</time>
      </trkpt>
      <trkpt lat="43.40857" lon="5.48456">
        <ele>568</ele>
        <time>2015-05-08T07:45:57Z</time>
      </trkpt>
      <trkpt lat="43.40853" lon="5.48443">
        <ele>570</ele>
        <time>2015-05-08T07:46:07Z</time>
      </trkpt>
      <trkpt lat="43.40849" lon="5.48428">
        <ele>572</ele>
        <time>2015-05-08T07:46:17Z</time>
      </trkpt>
      <trkpt lat="43.40846" lon="5.48414">
        <ele>575</ele>
        <time>2015-05-08T07:46:27Z</time>
      </trkpt>
      <trkpt lat="43.40843" lon="5.48403">
        <ele>577</ele>
        <time>2015-05-08T07:46:37Z</time>
      </trkpt>
      <trkpt lat="43.40841" lon="5.4839">
        <ele>578</ele>
        <time>2015-05-08T07:46:47Z</time>
      </trkpt>
      <trkpt lat="43.40839" lon="5.48378">
        <ele>580</ele>
        <time>2015-05-08T07:46:56Z</time>
      </trkpt>
      <trkpt lat="43.40836" lon="5.48364">
        <ele>582</ele>
        <time>2015-05-08T07:47:05Z</time>
      </trkpt>
      <trkpt lat="43.40826" lon="5.48361">
        <ele>583</ele>
        <time>2015-05-08T07:47:15Z</time>
      </trkpt>
      <trkpt lat="43.40822" lon="5.48372">
        <ele>583</ele>
        <time>2015-05-08T07:47:25Z</time>
      </trkpt>
      <trkpt lat="43.40823" lon="5.48378">
        <ele>583</ele>
        <time>2015-05-08T07:47:35Z</time>
      </trkpt>
      <trkpt lat="43.4082" lon="5.48391">
        <ele>583</ele>
        <time>2015-05-08T07:47:46Z</time>
      </trkpt>
      <trkpt lat="43.40815" lon="5.48405">
        <ele>583</ele>
        <time>2015-05-08T07:47:55Z</time>
      </trkpt>
      <trkpt lat="43.40809" lon="5.48417">
        <ele>583</ele>
        <time>2015-05-08T07:48:06Z</time>
      </trkpt>
      <trkpt lat="43.40802" lon="5.48429">
        <ele>583</ele>
        <time>2015-05-08T07:48:15Z</time>
      </trkpt>
      <trkpt lat="43.40794" lon="5.48441">
        <ele>583</ele>
        <time>2015-05-08T07:48:25Z</time>
      </trkpt>
      <trkpt lat="43.40789" lon="5.48456">
        <ele>583</ele>
        <time>2015-05-08T07:48:34Z</time>
      </trkpt>
      <trkpt lat="43.40783" lon="5.48471">
        <ele>583</ele>
        <time>2015-05-08T07:48:43Z</time>
      </trkpt>
      <trkpt lat="43.40777" lon="5.48485">
        <ele>584</ele>
        <time>2015-05-08T07:48:53Z</time>
      </trkpt>
      <trkpt lat="43.4077" lon="5.48495">
        <ele>584</ele>
        <time>2015-05-08T07:49:02Z</time>
      </trkpt>
      <trkpt lat="43.40763" lon="5.4851">
        <ele>584</ele>
        <time>2015-05-08T07:49:12Z</time>
      </trkpt>
      <trkpt lat="43.4076" lon="5.48527">
        <ele>584</ele>
        <time>2015-05-08T07:49:21Z</time>
      </trkpt>
      <trkpt lat="43.40756" lon="5.48542">
        <ele>584</ele>
        <time>2015-05-08T07:49:30Z</time>
      </trkpt>
      <trkpt lat="43.40753" lon="5.48558">
        <ele>584</ele>
        <time>2015-05-08T07:49:39Z</time>
      </trkpt>
      <trkpt lat="43.40752" lon="5.48572">
        <ele>584</ele>
        <time>2015-05-08T07:49:49Z</time>
      </trkpt>
      <trkpt lat="43.40749" lon="5.48587">
        <ele>584</ele>
        <time>2015-05-08T07:49:58Z</time>
      </trkpt>
      <trkpt lat="43.40745" lon="5.48602">
        <ele>583</ele>
        <time>2015-05-08T07:50:07Z</time>
      </trkpt>
      <trkpt lat="43.40741" lon="5.48617">
        <ele>583</ele>
        <time>2015-05-08T07:50:16Z</time>
      </trkpt>
      <trkpt lat="43.40733" lon="5.48631">
        <ele>582</ele>
        <time>2015-05-08T07:50:27Z</time>
      </trkpt>
      <trkpt lat="43.40726" lon="5.48645">
        <ele>581</ele>
        <time>2015-05-08T07:50:36Z</time>
      </trkpt>
      <trkpt lat="43.40721" lon="5.48659">
        <ele>581</ele>
        <time>2015-05-08T07:50:45Z</time>
      </trkpt>
      <trkpt lat="43.40713" lon="5.48672">
        <ele>579</ele>
        <time>2015-05-08T07:50:56Z</time>
      </trkpt>
      <trkpt lat="43.40705" lon="5.48683">
        <ele>579</ele>
        <time>2015-05-08T07:51:05Z</time>
      </trkpt>
      <trkpt lat="43.40697" lon="5.48698">
        <ele>578</ele>
        <time>2015-05-08T07:51:15Z</time>
      </trkpt>
      <trkpt lat="43.4069" lon="5.4871">
        <ele>578</ele>
        <time>2015-05-08T07:51:24Z</time>
      </trkpt>
      <trkpt lat="43.40675" lon="5.48712">
        <ele>578</ele>
        <time>2015-05-08T07:51:33Z</time>
      </trkpt>
      <trkpt lat="43.40668" lon="5.487">
        <ele>578</ele>
        <time>2015-05-08T07:51:42Z</time>
      </trkpt>
      <trkpt lat="43.40663" lon="5.48685">
        <ele>578</ele>
        <time>2015-05-08T07:51:52Z</time>
      </trkpt>
      <trkpt lat="43.40663" lon="5.48669">
        <ele>576</ele>
        <time>2015-05-08T07:52:01Z</time>
      </trkpt>
      <trkpt lat="43.40665" lon="5.48656">
        <ele>575</ele>
        <time>2015-05-08T07:52:11Z</time>
      </trkpt>
      <trkpt lat="43.40667" lon="5.48644">
        <ele>573</ele>
        <time>2015-05-08T07:52:20Z</time>
      </trkpt>
      <trkpt lat="43.40666" lon="5.48631">
        <ele>568</ele>
        <time>2015-05-08T07:52:29Z</time>
      </trkpt>
      <trkpt lat="43.40663" lon="5.48619">
        <ele>566</ele>
        <time>2015-05-08T07:52:39Z</time>
      </trkpt>
      <trkpt lat="43.40661" lon="5.48604">
        <ele>564</ele>
        <time>2015-05-08T07:52:48Z</time>
      </trkpt>
      <trkpt lat="43.40655" lon="5.48594">
        <ele>563</ele>
        <time>2015-05-08T07:52:57Z</time>
      </trkpt>
      <trkpt lat="43.40647" lon="5.48587">
        <ele>563</ele>
        <time>2015-05-08T07:53:08Z</time>
      </trkpt>
      <trkpt lat="43.40645" lon="5.48582">
        <ele>563</ele>
        <time>2015-05-08T07:53:19Z</time>
      </trkpt>
      <trkpt lat="43.40642" lon="5.48581">
        <ele>563</ele>
        <time>2015-05-08T07:53:34Z</time>
      </trkpt>
      <trkpt lat="43.40631" lon="5.48578">
        <ele>563</ele>
        <time>2015-05-08T07:53:43Z</time>
      </trkpt>
      <trkpt lat="43.40621" lon="5.48575">
        <ele>563</ele>
        <time>2015-05-08T07:53:53Z</time>
      </trkpt>
      <trkpt lat="43.40612" lon="5.4857">
        <ele>563</ele>
        <time>2015-05-08T07:54:04Z</time>
      </trkpt>
      <trkpt lat="43.40605" lon="5.48564">
        <ele>563</ele>
        <time>2015-05-08T07:54:14Z</time>
      </trkpt>
      <trkpt lat="43.40603" lon="5.4855">
        <ele>562</ele>
        <time>2015-05-08T07:54:24Z</time>
      </trkpt>
      <trkpt lat="43.40598" lon="5.48545">
        <ele>562</ele>
        <time>2015-05-08T07:54:40Z</time>
      </trkpt>
      <trkpt lat="43.40597" lon="5.48543">
        <ele>562</ele>
        <time>2015-05-08T07:54:55Z</time>
      </trkpt>
      <trkpt lat="43.40598" lon="5.48537">
        <ele>562</ele>
        <time>2015-05-08T07:55:04Z</time>
      </trkpt>
      <trkpt lat="43.40595" lon="5.48527">
        <ele>561</ele>
        <time>2015-05-08T07:55:14Z</time>
      </trkpt>
      <trkpt lat="43.40589" lon="5.48516">
        <ele>558</ele>
        <time>2015-05-08T07:55:23Z</time>
      </trkpt>
      <trkpt lat="43.40584" lon="5.48503">
        <ele>557</ele>
        <time>2015-05-08T07:55:32Z</time>
      </trkpt>
      <trkpt lat="43.40578" lon="5.48487">
        <ele>556</ele>
        <time>2015-05-08T07:55:42Z</time>
      </trkpt>
      <trkpt lat="43.40572" lon="5.48471">
        <ele>553</ele>
        <time>2015-05-08T07:55:51Z</time>
      </trkpt>
      <trkpt lat="43.40567" lon="5.48458">
        <ele>553</ele>
        <time>2015-05-08T07:56:00Z</time>
      </trkpt>
      <trkpt lat="43.40564" lon="5.48442">
        <ele>551</ele>
        <time>2015-05-08T07:56:09Z</time>
      </trkpt>
      <trkpt lat="43.40564" lon="5.48426">
        <ele>548</ele>
        <time>2015-05-08T07:56:19Z</time>
      </trkpt>
      <trkpt lat="43.40559" lon="5.48408">
        <ele>547</ele>
        <time>2015-05-08T07:56:28Z</time>
      </trkpt>
      <trkpt lat="43.40551" lon="5.48397">
        <ele>547</ele>
        <time>2015-05-08T07:56:38Z</time>
      </trkpt>
      <trkpt lat="43.40543" lon="5.48389">
        <ele>548</ele>
        <time>2015-05-08T07:56:49Z</time>
      </trkpt>
      <trkpt lat="43.40536" lon="5.48378">
        <ele>550</ele>
        <time>2015-05-08T07:56:58Z</time>
      </trkpt>
      <trkpt lat="43.40533" lon="5.48369">
        <ele>550</ele>
        <time>2015-05-08T07:57:08Z</time>
      </trkpt>
      <trkpt lat="43.40529" lon="5.48363">
        <ele>551</ele>
        <time>2015-05-08T07:57:19Z</time>
      </trkpt>
      <trkpt lat="43.40522" lon="5.48353">
        <ele>551</ele>
        <time>2015-05-08T07:57:29Z</time>
      </trkpt>
      <trkpt lat="43.40514" lon="5.48342">
        <ele>551</ele>
        <time>2015-05-08T07:57:38Z</time>
      </trkpt>
      <trkpt lat="43.40508" lon="5.4833">
        <ele>551</ele>
        <time>2015-05-08T07:57:47Z</time>
      </trkpt>
      <trkpt lat="43.40499" lon="5.48321">
        <ele>552</ele>
        <time>2015-05-08T07:57:58Z</time>
      </trkpt>
      <trkpt lat="43.40491" lon="5.48318">
        <ele>553</ele>
        <time>2015-05-08T07:58:07Z</time>
      </trkpt>
      <trkpt lat="43.40491" lon="5.48312">
        <ele>553</ele>
        <time>2015-05-08T07:58:16Z</time>
      </trkpt>
      <trkpt lat="43.4049" lon="5.4831">
        <ele>553</ele>
        <time>2015-05-08T07:58:26Z</time>
      </trkpt>
      <trkpt lat="43.40493" lon="5.48307">
        <ele>553</ele>
        <time>2015-05-08T07:58:35Z</time>
      </trkpt>
      <trkpt lat="43.40493" lon="5.48309">
        <ele>551</ele>
        <time>2015-05-08T07:59:08Z</time>
      </trkpt>
      <trkpt lat="43.40492" lon="5.48307">
        <ele>551</ele>
        <time>2015-05-08T07:59:22Z</time>
      </trkpt>
      <trkpt lat="43.40492" lon="5.48306">
        <ele>551</ele>
        <time>2015-05-08T07:59:41Z</time>
      </trkpt>
      <trkpt lat="43.40492" lon="5.48303">
        <ele>551</ele>
        <time>2015-05-08T07:59:53Z</time>
      </trkpt>
      <trkpt lat="43.40491" lon="5.48304">
        <ele>549</ele>
        <time>2015-05-08T08:00:10Z</time>
      </trkpt>
      <trkpt lat="43.40491" lon="5.48303">
        <ele>545</ele>
        <time>2015-05-08T08:00:20Z</time>
      </trkpt>
      <trkpt lat="43.40486" lon="5.48297">
        <ele>545</ele>
        <time>2015-05-08T08:00:30Z</time>
      </trkpt>
      <trkpt lat="43.4048" lon="5.48298">
        <ele>545</ele>
        <time>2015-05-08T08:00:40Z</time>
      </trkpt>
      <trkpt lat="43.40475" lon="5.48307">
        <ele>538</ele>
        <time>2015-05-08T08:00:51Z</time>
      </trkpt>
      <trkpt lat="43.40469" lon="5.48313">
        <ele>533</ele>
        <time>2015-05-08T08:01:00Z</time>
      </trkpt>
      <trkpt lat="43.40462" lon="5.48318">
        <ele>527</ele>
        <time>2015-05-08T08:01:11Z</time>
      </trkpt>
      <trkpt lat="43.40455" lon="5.48323">
        <ele>522</ele>
        <time>2015-05-08T08:01:20Z</time>
      </trkpt>
      <trkpt lat="43.4045" lon="5.4833">
        <ele>519</ele>
        <time>2015-05-08T08:01:29Z</time>
      </trkpt>
      <trkpt lat="43.40441" lon="5.48339">
        <ele>518</ele>
        <time>2015-05-08T08:01:40Z</time>
      </trkpt>
      <trkpt lat="43.40434" lon="5.48348">
        <ele>514</ele>
        <time>2015-05-08T08:01:49Z</time>
      </trkpt>
      <trkpt lat="43.40427" lon="5.48355">
        <ele>510</ele>
        <time>2015-05-08T08:01:59Z</time>
      </trkpt>
      <trkpt lat="43.40421" lon="5.48362">
        <ele>509</ele>
        <time>2015-05-08T08:02:08Z</time>
      </trkpt>
      <trkpt lat="43.40408" lon="5.48364">
        <ele>508</ele>
        <time>2015-05-08T08:02:17Z</time>
      </trkpt>
      <trkpt lat="43.40396" lon="5.48362">
        <ele>507</ele>
        <time>2015-05-08T08:02:27Z</time>
      </trkpt>
      <trkpt lat="43.40385" lon="5.48358">
        <ele>505</ele>
        <time>2015-05-08T08:02:36Z</time>
      </trkpt>
      <trkpt lat="43.40374" lon="5.48358">
        <ele>505</ele>
        <time>2015-05-08T08:02:48Z</time>
      </trkpt>
      <trkpt lat="43.40369" lon="5.48359">
        <ele>505</ele>
        <time>2015-05-08T08:02:57Z</time>
      </trkpt>
      <trkpt lat="43.40365" lon="5.48362">
        <ele>506</ele>
        <time>2015-05-08T08:03:10Z</time>
      </trkpt>
      <trkpt lat="43.40364" lon="5.4836">
        <ele>506</ele>
        <time>2015-05-08T08:03:20Z</time>
      </trkpt>
      <trkpt lat="43.40367" lon="5.48353">
        <ele>508</ele>
        <time>2015-05-08T08:03:29Z</time>
      </trkpt>
      <trkpt lat="43.40367" lon="5.48354">
        <ele>511</ele>
        <time>2015-05-08T08:03:44Z</time>
      </trkpt>
      <trkpt lat="43.40366" lon="5.48348">
        <ele>511</ele>
        <time>2015-05-08T08:03:54Z</time>
      </trkpt>
      <trkpt lat="43.40363" lon="5.4834">
        <ele>509</ele>
        <time>2015-05-08T08:04:05Z</time>
      </trkpt>
      <trkpt lat="43.40361" lon="5.48336">
        <ele>508</ele>
        <time>2015-05-08T08:04:15Z</time>
      </trkpt>
      <trkpt lat="43.40357" lon="5.48329">
        <ele>508</ele>
        <time>2015-05-08T08:04:25Z</time>
      </trkpt>
      <trkpt lat="43.40353" lon="5.48325">
        <ele>507</ele>
        <time>2015-05-08T08:04:34Z</time>
      </trkpt>
      <trkpt lat="43.40349" lon="5.48325">
        <ele>507</ele>
        <time>2015-05-08T08:04:43Z</time>
      </trkpt>
      <trkpt lat="43.40347" lon="5.4833">
        <ele>503</ele>
        <time>2015-05-08T08:04:54Z</time>
      </trkpt>
      <trkpt lat="43.40339" lon="5.48324">
        <ele>502</ele>
        <time>2015-05-08T08:05:11Z</time>
      </trkpt>
      <trkpt lat="43.40338" lon="5.48326">
        <ele>502</ele>
        <time>2015-05-08T08:05:20Z</time>
      </trkpt>
      <trkpt lat="43.4034" lon="5.48329">
        <ele>500</ele>
        <time>2015-05-08T08:05:30Z</time>
      </trkpt>
      <trkpt lat="43.40341" lon="5.48332">
        <ele>496</ele>
        <time>2015-05-08T08:05:39Z</time>
      </trkpt>
      <trkpt lat="43.40343" lon="5.48335">
        <ele>495</ele>
        <time>2015-05-08T08:05:55Z</time>
      </trkpt>
      <trkpt lat="43.40342" lon="5.48338">
        <ele>496</ele>
        <time>2015-05-08T08:06:06Z</time>
      </trkpt>
      <trkpt lat="43.40341" lon="5.48335">
        <ele>498</ele>
        <time>2015-05-08T08:06:16Z</time>
      </trkpt>
      <trkpt lat="43.40336" lon="5.48332">
        <ele>500</ele>
        <time>2015-05-08T08:06:26Z</time>
      </trkpt>
      <trkpt lat="43.40333" lon="5.48325">
        <ele>502</ele>
        <time>2015-05-08T08:06:36Z</time>
      </trkpt>
      <trkpt lat="43.40328" lon="5.4833">
        <ele>501</ele>
        <time>2015-05-08T08:06:46Z</time>
      </trkpt>
      <trkpt lat="43.40332" lon="5.48323">
        <ele>501</ele>
        <time>2015-05-08T08:06:57Z</time>
      </trkpt>
      <trkpt lat="43.40331" lon="5.4833">
        <ele>501</ele>
        <time>2015-05-08T08:07:07Z</time>
      </trkpt>
      <trkpt lat="43.40326" lon="5.48335">
        <ele>504</ele>
        <time>2015-05-08T08:07:21Z</time>
      </trkpt>
      <trkpt lat="43.40322" lon="5.48332">
        <ele>501</ele>
        <time>2015-05-08T08:07:32Z</time>
      </trkpt>
      <trkpt lat="43.40313" lon="5.48328">
        <ele>493</ele>
        <time>2015-05-08T08:07:52Z</time>
      </trkpt>
      <trkpt lat="43.40319" lon="5.48325">
        <ele>493</ele>
        <time>2015-05-08T08:08:03Z</time>
      </trkpt>
      <trkpt lat="43.40316" lon="5.48328">
        <ele>493</ele>
        <time>2015-05-08T08:08:13Z</time>
      </trkpt>
      <trkpt lat="43.40319" lon="5.4833">
        <ele>485</ele>
        <time>2015-05-08T08:08:25Z</time>
      </trkpt>
      <trkpt lat="43.4032" lon="5.48337">
        <ele>480</ele>
        <time>2015-05-08T08:08:34Z</time>
      </trkpt>
      <trkpt lat="43.40329" lon="5.4834">
        <ele>480</ele>
        <time>2015-05-08T08:08:43Z</time>
      </trkpt>
      <trkpt lat="43.40339" lon="5.48331">
        <ele>486</ele>
        <time>2015-05-08T08:08:52Z</time>
      </trkpt>
      <trkpt lat="43.40339" lon="5.48328">
        <ele>497</ele>
        <time>2015-05-08T08:09:01Z</time>
      </trkpt>
      <trkpt lat="43.40337" lon="5.48325">
        <ele>502</ele>
        <time>2015-05-08T08:09:11Z</time>
      </trkpt>
      <trkpt lat="43.40336" lon="5.48321">
        <ele>502</ele>
        <time>2015-05-08T08:09:22Z</time>
      </trkpt>
      <trkpt lat="43.4034" lon="5.48318">
        <ele>502</ele>
        <time>2015-05-08T08:09:31Z</time>
      </trkpt>
      <trkpt lat="43.40344" lon="5.48318">
        <ele>502</ele>
        <time>2015-05-08T08:09:40Z</time>
      </trkpt>
      <trkpt lat="43.40349" lon="5.4832">
        <ele>502</ele>
        <time>2015-05-08T08:09:57Z</time>
      </trkpt>
      <trkpt lat="43.40351" lon="5.48317">
        <ele>502</ele>
        <time>2015-05-08T08:10:06Z</time>
      </trkpt>
      <trkpt lat="43.40356" lon="5.48321">
        <ele>502</ele>
        <time>2015-05-08T08:10:15Z</time>
      </trkpt>
      <trkpt lat="43.40363" lon="5.48325">
        <ele>502</ele>
        <time>2015-05-08T08:10:28Z</time>
      </trkpt>
      <trkpt lat="43.40368" lon="5.4833">
        <ele>503</ele>
        <time>2015-05-08T08:10:39Z</time>
      </trkpt>
      <trkpt lat="43.4037" lon="5.48337">
        <ele>505</ele>
        <time>2015-05-08T08:10:50Z</time>
      </trkpt>
      <trkpt lat="43.40371" lon="5.48342">
        <ele>506</ele>
        <time>2015-05-08T08:10:59Z</time>
      </trkpt>
      <trkpt lat="43.40371" lon="5.48349">
        <ele>508</ele>
        <time>2015-05-08T08:11:08Z</time>
      </trkpt>
      <trkpt lat="43.40368" lon="5.48355">
        <ele>508</ele>
        <time>2015-05-08T08:11:21Z</time>
      </trkpt>
      <trkpt lat="43.40366" lon="5.48355">
        <ele>509</ele>
        <time>2015-05-08T08:11:37Z</time>
      </trkpt>
      <trkpt lat="43.40365" lon="5.48358">
        <ele>511</ele>
        <time>2015-05-08T08:11:50Z</time>
      </trkpt>
      <trkpt lat="43.40366" lon="5.48361">
        <ele>511</ele>
        <time>2015-05-08T08:12:04Z</time>
      </trkpt>
      <trkpt lat="43.40364" lon="5.48368">
        <ele>511</ele>
        <time>2015-05-08T08:12:14Z</time>
      </trkpt>
      <trkpt lat="43.40361" lon="5.48379">
        <ele>511</ele>
        <time>2015-05-08T08:12:23Z</time>
      </trkpt>
      <trkpt lat="43.40359" lon="5.48393">
        <ele>511</ele>
        <time>2015-05-08T08:12:33Z</time>
      </trkpt>
      <trkpt lat="43.40356" lon="5.48404">
        <ele>511</ele>
        <time>2015-05-08T08:12:43Z</time>
      </trkpt>
      <trkpt lat="43.40353" lon="5.48416">
        <ele>511</ele>
        <time>2015-05-08T08:12:53Z</time>
      </trkpt>
      <trkpt lat="43.40349" lon="5.48426">
        <ele>511</ele>
        <time>2015-05-08T08:13:02Z</time>
      </trkpt>
      <trkpt lat="43.40347" lon="5.48438">
        <ele>511</ele>
        <time>2015-05-08T08:13:11Z</time>
      </trkpt>
      <trkpt lat="43.40348" lon="5.48445">
        <ele>511</ele>
        <time>2015-05-08T08:13:21Z</time>
      </trkpt>
      <trkpt lat="43.40347" lon="5.48452">
        <ele>510</ele>
        <time>2015-05-08T08:13:31Z</time>
      </trkpt>
      <trkpt lat="43.40351" lon="5.48458">
        <ele>508</ele>
        <time>2015-05-08T08:13:41Z</time>
      </trkpt>
      <trkpt lat="43.40353" lon="5.48466">
        <ele>508</ele>
        <time>2015-05-08T08:13:50Z</time>
      </trkpt>
      <trkpt lat="43.40356" lon="5.48476">
        <ele>508</ele>
        <time>2015-05-08T08:14:01Z</time>
      </trkpt>
      <trkpt lat="43.40358" lon="5.48486">
        <ele>508</ele>
        <time>2015-05-08T08:14:10Z</time>
      </trkpt>
      <trkpt lat="43.40361" lon="5.48495">
        <ele>508</ele>
        <time>2015-05-08T08:14:20Z</time>
      </trkpt>
      <trkpt lat="43.40362" lon="5.48506">
        <ele>508</ele>
        <time>2015-05-08T08:14:30Z</time>
      </trkpt>
      <trkpt lat="43.40364" lon="5.48518">
        <ele>508</ele>
        <time>2015-05-08T08:14:40Z</time>
      </trkpt>
      <trkpt lat="43.40366" lon="5.48527">
        <ele>508</ele>
        <time>2015-05-08T08:14:51Z</time>
      </trkpt>
      <trkpt lat="43.40368" lon="5.48536">
        <ele>511</ele>
        <time>2015-05-08T08:15:01Z</time>
      </trkpt>
      <trkpt lat="43.4037" lon="5.48546">
        <ele>512</ele>
        <time>2015-05-08T08:15:12Z</time>
      </trkpt>
      <trkpt lat="43.40371" lon="5.48549">
        <ele>512</ele>
        <time>2015-05-08T08:15:26Z</time>
      </trkpt>
      <trkpt lat="43.40373" lon="5.48553">
        <ele>514</ele>
        <time>2015-05-08T08:15:37Z</time>
      </trkpt>
      <trkpt lat="43.40374" lon="5.48558">
        <ele>514</ele>
        <time>2015-05-08T08:15:47Z</time>
      </trkpt>
      <trkpt lat="43.40372" lon="5.4856">
        <ele>518</ele>
        <time>2015-05-08T08:15:58Z</time>
      </trkpt>
      <trkpt lat="43.40371" lon="5.48562">
        <ele>519</ele>
        <time>2015-05-08T08:16:08Z</time>
      </trkpt>
      <trkpt lat="43.40369" lon="5.4856">
        <ele>519</ele>
        <time>2015-05-08T08:16:20Z</time>
      </trkpt>
      <trkpt lat="43.40366" lon="5.48554">
        <ele>521</ele>
        <time>2015-05-08T08:16:31Z</time>
      </trkpt>
      <trkpt lat="43.40362" lon="5.48547">
        <ele>521</ele>
        <time>2015-05-08T08:16:41Z</time>
      </trkpt>
      <trkpt lat="43.40359" lon="5.48541">
        <ele>528</ele>
        <time>2015-05-08T08:17:02Z</time>
      </trkpt>
      <trkpt lat="43.40356" lon="5.4854">
        <ele>528</ele>
        <time>2015-05-08T08:17:14Z</time>
      </trkpt>
      <trkpt lat="43.40348" lon="5.48536">
        <ele>528</ele>
        <time>2015-05-08T08:17:23Z</time>
      </trkpt>
      <trkpt lat="43.40338" lon="5.48527">
        <ele>528</ele>
        <time>2015-05-08T08:17:33Z</time>
      </trkpt>
      <trkpt lat="43.4033" lon="5.48524">
        <ele>528</ele>
        <time>2015-05-08T08:17:43Z</time>
      </trkpt>
      <trkpt lat="43.40324" lon="5.48527">
        <ele>528</ele>
        <time>2015-05-08T08:17:52Z</time>
      </trkpt>
      <trkpt lat="43.40319" lon="5.48526">
        <ele>524</ele>
        <time>2015-05-08T08:18:01Z</time>
      </trkpt>
      <trkpt lat="43.40313" lon="5.48525">
        <ele>521</ele>
        <time>2015-05-08T08:18:13Z</time>
      </trkpt>
      <trkpt lat="43.40311" lon="5.48523">
        <ele>518</ele>
        <time>2015-05-08T08:18:28Z</time>
      </trkpt>
      <trkpt lat="43.4031" lon="5.48528">
        <ele>515</ele>
        <time>2015-05-08T08:18:40Z</time>
      </trkpt>
      <trkpt lat="43.4031" lon="5.4854">
        <ele>515</ele>
        <time>2015-05-08T08:18:50Z</time>
      </trkpt>
      <trkpt lat="43.40308" lon="5.48541">
        <ele>515</ele>
        <time>2015-05-08T08:19:06Z</time>
      </trkpt>
      <trkpt lat="43.40305" lon="5.48532">
        <ele>515</ele>
        <time>2015-05-08T08:19:17Z</time>
      </trkpt>
      <trkpt lat="43.40306" lon="5.48521">
        <ele>519</ele>
        <time>2015-05-08T08:19:36Z</time>
      </trkpt>
      <trkpt lat="43.40305" lon="5.48514">
        <ele>519</ele>
        <time>2015-05-08T08:19:46Z</time>
      </trkpt>
      <trkpt lat="43.40303" lon="5.48511">
        <ele>520</ele>
        <time>2015-05-08T08:19:59Z</time>
      </trkpt>
      <trkpt lat="43.40301" lon="5.48507">
        <ele>520</ele>
        <time>2015-05-08T08:20:08Z</time>
      </trkpt>
      <trkpt lat="43.403" lon="5.48502">
        <ele>518</ele>
        <time>2015-05-08T08:20:22Z</time>
      </trkpt>
      <trkpt lat="43.40301" lon="5.48499">
        <ele>508</ele>
        <time>2015-05-08T08:20:42Z</time>
      </trkpt>
      <trkpt lat="43.40299" lon="5.48494">
        <ele>507</ele>
        <time>2015-05-08T08:20:53Z</time>
      </trkpt>
      <trkpt lat="43.40297" lon="5.48495">
        <ele>507</ele>
        <time>2015-05-08T08:21:02Z</time>
      </trkpt>
      <trkpt lat="43.40295" lon="5.4849">
        <ele>507</ele>
        <time>2015-05-08T08:21:27Z</time>
      </trkpt>
      <trkpt lat="43.40294" lon="5.4849">
        <ele>506</ele>
        <time>2015-05-08T08:21:36Z</time>
      </trkpt>
      <trkpt lat="43.40294" lon="5.48482">
        <ele>506</ele>
        <time>2015-05-08T08:21:46Z</time>
      </trkpt>
      <trkpt lat="43.40292" lon="5.48477">
        <ele>506</ele>
        <time>2015-05-08T08:21:56Z</time>
      </trkpt>
      <trkpt lat="43.4029" lon="5.48472">
        <ele>507</ele>
        <time>2015-05-08T08:22:06Z</time>
      </trkpt>
      <trkpt lat="43.4029" lon="5.48471">
        <ele>508</ele>
        <time>2015-05-08T08:22:15Z</time>
      </trkpt>
      <trkpt lat="43.40284" lon="5.48464">
        <ele>508</ele>
        <time>2015-05-08T08:22:26Z</time>
      </trkpt>
      <trkpt lat="43.4028" lon="5.4846">
        <ele>508</ele>
        <time>2015-05-08T08:22:38Z</time>
      </trkpt>
      <trkpt lat="43.40283" lon="5.48457">
        <ele>507</ele>
        <time>2015-05-08T08:22:48Z</time>
      </trkpt>
      <trkpt lat="43.40275" lon="5.48457">
        <ele>505</ele>
        <time>2015-05-08T08:22:59Z</time>
      </trkpt>
      <trkpt lat="43.40271" lon="5.48454">
        <ele>499</ele>
        <time>2015-05-08T08:23:12Z</time>
      </trkpt>
      <trkpt lat="43.40268" lon="5.48451">
        <ele>494</ele>
        <time>2015-05-08T08:23:24Z</time>
      </trkpt>
      <trkpt lat="43.4027" lon="5.4844">
        <ele>493</ele>
        <time>2015-05-08T08:23:35Z</time>
      </trkpt>
      <trkpt lat="43.40284" lon="5.48422">
        <ele>493</ele>
        <time>2015-05-08T08:23:45Z</time>
      </trkpt>
      <trkpt lat="43.40265" lon="5.48415">
        <ele>493</ele>
        <time>2015-05-08T08:23:54Z</time>
      </trkpt>
      <trkpt lat="43.40252" lon="5.48413">
        <ele>490</ele>
        <time>2015-05-08T08:24:03Z</time>
      </trkpt>
      <trkpt lat="43.4025" lon="5.48406">
        <ele>488</ele>
        <time>2015-05-08T08:24:13Z</time>
      </trkpt>
      <trkpt lat="43.40243" lon="5.48398">
        <ele>488</ele>
        <time>2015-05-08T08:24:22Z</time>
      </trkpt>
      <trkpt lat="43.40243" lon="5.48386">
        <ele>488</ele>
        <time>2015-05-08T08:24:32Z</time>
      </trkpt>
      <trkpt lat="43.40256" lon="5.48381">
        <ele>492</ele>
        <time>2015-05-08T08:24:42Z</time>
      </trkpt>
      <trkpt lat="43.40255" lon="5.48366">
        <ele>499</ele>
        <time>2015-05-08T08:24:51Z</time>
      </trkpt>
      <trkpt lat="43.40242" lon="5.48358">
        <ele>502</ele>
        <time>2015-05-08T08:25:00Z</time>
      </trkpt>
      <trkpt lat="43.40229" lon="5.48352">
        <ele>492</ele>
        <time>2015-05-08T08:25:10Z</time>
      </trkpt>
      <trkpt lat="43.40227" lon="5.48346">
        <ele>481</ele>
        <time>2015-05-08T08:25:21Z</time>
      </trkpt>
      <trkpt lat="43.4022" lon="5.48343">
        <ele>476</ele>
        <time>2015-05-08T08:25:31Z</time>
      </trkpt>
      <trkpt lat="43.40216" lon="5.48339">
        <ele>471</ele>
        <time>2015-05-08T08:25:40Z</time>
      </trkpt>
      <trkpt lat="43.40215" lon="5.4834">
        <ele>470</ele>
        <time>2015-05-08T08:25:50Z</time>
      </trkpt>
      <trkpt lat="43.40209" lon="5.48344">
        <ele>468</ele>
        <time>2015-05-08T08:26:01Z</time>
      </trkpt>
      <trkpt lat="43.40207" lon="5.48353">
        <ele>467</ele>
        <time>2015-05-08T08:26:10Z</time>
      </trkpt>
      <trkpt lat="43.40206" lon="5.48359">
        <ele>467</ele>
        <time>2015-05-08T08:26:20Z</time>
      </trkpt>
      <trkpt lat="43.40204" lon="5.48362">
        <ele>467</ele>
        <time>2015-05-08T08:26:30Z</time>
      </trkpt>
      <trkpt lat="43.40204" lon="5.48364">
        <ele>463</ele>
        <time>2015-05-08T08:26:42Z</time>
      </trkpt>
      <trkpt lat="43.402" lon="5.48368">
        <ele>463</ele>
        <time>2015-05-08T08:26:53Z</time>
      </trkpt>
      <trkpt lat="43.40197" lon="5.48369">
        <ele>463</ele>
        <time>2015-05-08T08:27:07Z</time>
      </trkpt>
      <trkpt lat="43.40199" lon="5.48373">
        <ele>461</ele>
        <time>2015-05-08T08:27:25Z</time>
      </trkpt>
      <trkpt lat="43.40197" lon="5.48375">
        <ele>461</ele>
        <time>2015-05-08T08:27:34Z</time>
      </trkpt>
      <trkpt lat="43.40194" lon="5.48377">
        <ele>461</ele>
        <time>2015-05-08T08:27:44Z</time>
      </trkpt>
      <trkpt lat="43.40188" lon="5.48378">
        <ele>461</ele>
        <time>2015-05-08T08:27:55Z</time>
      </trkpt>
      <trkpt lat="43.40182" lon="5.48381">
        <ele>461</ele>
        <time>2015-05-08T08:28:04Z</time>
      </trkpt>
      <trkpt lat="43.40175" lon="5.48381">
        <ele>461</ele>
        <time>2015-05-08T08:28:13Z</time>
      </trkpt>
      <trkpt lat="43.40171" lon="5.48384">
        <ele>458</ele>
        <time>2015-05-08T08:28:22Z</time>
      </trkpt>
      <trkpt lat="43.40167" lon="5.48381">
        <ele>454</ele>
        <time>2015-05-08T08:28:33Z</time>
      </trkpt>
      <trkpt lat="43.40159" lon="5.48376">
        <ele>454</ele>
        <time>2015-05-08T08:28:44Z</time>
      </trkpt>
      <trkpt lat="43.40155" lon="5.4837">
        <ele>454</ele>
        <time>2015-05-08T08:28:54Z</time>
      </trkpt>
      <trkpt lat="43.40153" lon="5.48367">
        <ele>454</ele>
        <time>2015-05-08T08:29:08Z</time>
      </trkpt>
      <trkpt lat="43.4015" lon="5.48365">
        <ele>450</ele>
        <time>2015-05-08T08:29:18Z</time>
      </trkpt>
      <trkpt lat="43.40146" lon="5.48364">
        <ele>450</ele>
        <time>2015-05-08T08:29:30Z</time>
      </trkpt>
      <trkpt lat="43.40146" lon="5.48364">
        <ele>448</ele>
        <time>2015-05-08T08:29:40Z</time>
      </trkpt>
      <trkpt lat="43.40147" lon="5.48366">
        <ele>446</ele>
        <time>2015-05-08T08:29:50Z</time>
      </trkpt>
      <trkpt lat="43.40144" lon="5.48365">
        <ele>442</ele>
        <time>2015-05-08T08:29:59Z</time>
      </trkpt>
      <trkpt lat="43.4014" lon="5.4836">
        <ele>435</ele>
        <time>2015-05-08T08:30:09Z</time>
      </trkpt>
      <trkpt lat="43.40135" lon="5.48354">
        <ele>433</ele>
        <time>2015-05-08T08:30:19Z</time>
      </trkpt>
      <trkpt lat="43.40134" lon="5.48349">
        <ele>433</ele>
        <time>2015-05-08T08:30:32Z</time>
      </trkpt>
      <trkpt lat="43.40133" lon="5.48346">
        <ele>433</ele>
        <time>2015-05-08T08:30:41Z</time>
      </trkpt>
      <trkpt lat="43.40131" lon="5.48348">
        <ele>432</ele>
        <time>2015-05-08T08:30:55Z</time>
      </trkpt>
      <trkpt lat="43.40129" lon="5.48348">
        <ele>433</ele>
        <time>2015-05-08T08:31:08Z</time>
      </trkpt>
      <trkpt lat="43.40129" lon="5.48349">
        <ele>438</ele>
        <time>2015-05-08T08:31:19Z</time>
      </trkpt>
      <trkpt lat="43.40134" lon="5.48344">
        <ele>426</ele>
        <time>2015-05-08T08:31:36Z</time>
      </trkpt>
      <trkpt lat="43.4013" lon="5.48349">
        <ele>433</ele>
        <time>2015-05-08T08:31:50Z</time>
      </trkpt>
      <trkpt lat="43.40131" lon="5.4835">
        <ele>445</ele>
        <time>2015-05-08T08:32:03Z</time>
      </trkpt>
      <trkpt lat="43.40131" lon="5.48347">
        <ele>432</ele>
        <time>2015-05-08T08:32:13Z</time>
      </trkpt>
      <trkpt lat="43.4013" lon="5.48337">
        <ele>420</ele>
        <time>2015-05-08T08:32:23Z</time>
      </trkpt>
      <trkpt lat="43.40129" lon="5.48331">
        <ele>415</ele>
        <time>2015-05-08T08:32:35Z</time>
      </trkpt>
      <trkpt lat="43.40124" lon="5.48323">
        <ele>414</ele>
        <time>2015-05-08T08:32:44Z</time>
      </trkpt>
      <trkpt lat="43.40118" lon="5.48318">
        <ele>409</ele>
        <time>2015-05-08T08:32:55Z</time>
      </trkpt>
      <trkpt lat="43.40113" lon="5.48314">
        <ele>406</ele>
        <time>2015-05-08T08:33:04Z</time>
      </trkpt>
      <trkpt lat="43.40108" lon="5.48305">
        <ele>400</ele>
        <time>2015-05-08T08:33:16Z</time>
      </trkpt>
      <trkpt lat="43.40106" lon="5.483">
        <ele>399</ele>
        <time>2015-05-08T08:33:26Z</time>
      </trkpt>
      <trkpt lat="43.40102" lon="5.48293">
        <ele>393</ele>
        <time>2015-05-08T08:33:35Z</time>
      </trkpt>
      <trkpt lat="43.40097" lon="5.48281">
        <ele>393</ele>
        <time>2015-05-08T08:33:44Z</time>
      </trkpt>
      <trkpt lat="43.40091" lon="5.48278">
        <ele>392</ele>
        <time>2015-05-08T08:33:55Z</time>
      </trkpt>
      <trkpt lat="43.40085" lon="5.48273">
        <ele>400</ele>
        <time>2015-05-08T08:34:04Z</time>
      </trkpt>
      <trkpt lat="43.40078" lon="5.48263">
        <ele>401</ele>
        <time>2015-05-08T08:34:14Z</time>
      </trkpt>
      <trkpt lat="43.40079" lon="5.48263">
        <ele>401</ele>
        <time>2015-05-08T08:34:25Z</time>
      </trkpt>
      <trkpt lat="43.40075" lon="5.48253">
        <ele>396</ele>
        <time>2015-05-08T08:34:37Z</time>
      </trkpt>
      <trkpt lat="43.40067" lon="5.48247">
        <ele>396</ele>
        <time>2015-05-08T08:34:47Z</time>
      </trkpt>
      <trkpt lat="43.40059" lon="5.48239">
        <ele>396</ele>
        <time>2015-05-08T08:34:58Z</time>
      </trkpt>
      <trkpt lat="43.40049" lon="5.48237">
        <ele>399</ele>
        <time>2015-05-08T08:35:09Z</time>
      </trkpt>
      <trkpt lat="43.40039" lon="5.48236">
        <ele>408</ele>
        <time>2015-05-08T08:35:18Z</time>
      </trkpt>
      <trkpt lat="43.4003" lon="5.48231">
        <ele>410</ele>
        <time>2015-05-08T08:35:28Z</time>
      </trkpt>
      <trkpt lat="43.40019" lon="5.48232">
        <ele>410</ele>
        <time>2015-05-08T08:35:39Z</time>
      </trkpt>
      <trkpt lat="43.40014" lon="5.48237">
        <ele>410</ele>
        <time>2015-05-08T08:35:48Z</time>
      </trkpt>
      <trkpt lat="43.40007" lon="5.48244">
        <ele>408</ele>
        <time>2015-05-08T08:35:57Z</time>
      </trkpt>
      <trkpt lat="43.4" lon="5.48252">
        <ele>406</ele>
        <time>2015-05-08T08:36:06Z</time>
      </trkpt>
      <trkpt lat="43.39992" lon="5.48266">
        <ele>406</ele>
        <time>2015-05-08T08:36:15Z</time>
      </trkpt>
      <trkpt lat="43.39983" lon="5.48278">
        <ele>403</ele>
        <time>2015-05-08T08:36:24Z</time>
      </trkpt>
      <trkpt lat="43.39981" lon="5.48284">
        <ele>398</ele>
        <time>2015-05-08T08:36:33Z</time>
      </trkpt>
      <trkpt lat="43.39974" lon="5.48301">
        <ele>393</ele>
        <time>2015-05-08T08:36:44Z</time>
      </trkpt>
      <trkpt lat="43.39966" lon="5.48316">
        <ele>390</ele>
        <time>2015-05-08T08:36:53Z</time>
      </trkpt>
      <trkpt lat="43.39961" lon="5.48327">
        <ele>390</ele>
        <time>2015-05-08T08:37:04Z</time>
      </trkpt>
      <trkpt lat="43.39954" lon="5.48339">
        <ele>391</ele>
        <time>2015-05-08T08:37:13Z</time>
      </trkpt>
      <trkpt lat="43.39947" lon="5.4835">
        <ele>395</ele>
        <time>2015-05-08T08:37:23Z</time>
      </trkpt>
      <trkpt lat="43.3994" lon="5.48357">
        <ele>393</ele>
        <time>2015-05-08T08:37:32Z</time>
      </trkpt>
      <trkpt lat="43.39934" lon="5.4837">
        <ele>393</ele>
        <time>2015-05-08T08:37:42Z</time>
      </trkpt>
      <trkpt lat="43.39925" lon="5.48382">
        <ele>396</ele>
        <time>2015-05-08T08:37:53Z</time>
      </trkpt>
      <trkpt lat="43.39916" lon="5.48394">
        <ele>402</ele>
        <time>2015-05-08T08:38:02Z</time>
      </trkpt>
      <trkpt lat="43.39913" lon="5.48401">
        <ele>402</ele>
        <time>2015-05-08T08:38:11Z</time>
      </trkpt>
      <trkpt lat="43.39903" lon="5.4841">
        <ele>399</ele>
        <time>2015-05-08T08:38:21Z</time>
      </trkpt>
      <trkpt lat="43.39893" lon="5.48409">
        <ele>399</ele>
        <time>2015-05-08T08:38:30Z</time>
      </trkpt>
      <trkpt lat="43.39885" lon="5.48399">
        <ele>397</ele>
        <time>2015-05-08T08:38:40Z</time>
      </trkpt>
      <trkpt lat="43.39875" lon="5.48391">
        <ele>392</ele>
        <time>2015-05-08T08:38:50Z</time>
      </trkpt>
      <trkpt lat="43.39864" lon="5.48389">
        <ele>391</ele>
        <time>2015-05-08T08:38:59Z</time>
      </trkpt>
      <trkpt lat="43.39856" lon="5.48381">
        <ele>391</ele>
        <time>2015-05-08T08:39:09Z</time>
      </trkpt>
      <trkpt lat="43.3985" lon="5.48378">
        <ele>391</ele>
        <time>2015-05-08T08:39:18Z</time>
      </trkpt>
      <trkpt lat="43.39839" lon="5.4837">
        <ele>397</ele>
        <time>2015-05-08T08:39:28Z</time>
      </trkpt>
      <trkpt lat="43.39829" lon="5.48364">
        <ele>393</ele>
        <time>2015-05-08T08:39:38Z</time>
      </trkpt>
      <trkpt lat="43.39814" lon="5.48358">
        <ele>378</ele>
        <time>2015-05-08T08:39:47Z</time>
      </trkpt>
      <trkpt lat="43.39808" lon="5.48348">
        <ele>370</ele>
        <time>2015-05-08T08:39:56Z</time>
      </trkpt>
      <trkpt lat="43.39797" lon="5.48343">
        <ele>369</ele>
        <time>2015-05-08T08:40:06Z</time>
      </trkpt>
      <trkpt lat="43.39789" lon="5.48341">
        <ele>369</ele>
        <time>2015-05-08T08:40:15Z</time>
      </trkpt>
      <trkpt lat="43.39772" lon="5.48332">
        <ele>369</ele>
        <time>2015-05-08T08:40:25Z</time>
      </trkpt>
      <trkpt lat="43.39761" lon="5.48328">
        <ele>369</ele>
        <time>2015-05-08T08:40:34Z</time>
      </trkpt>
      <trkpt lat="43.39752" lon="5.48332">
        <ele>374</ele>
        <time>2015-05-08T08:40:44Z</time>
      </trkpt>
      <trkpt lat="43.39738" lon="5.48336">
        <ele>375</ele>
        <time>2015-05-08T08:40:53Z</time>
      </trkpt>
      <trkpt lat="43.39729" lon="5.48344">
        <ele>379</ele>
        <time>2015-05-08T08:41:02Z</time>
      </trkpt>
      <trkpt lat="43.39719" lon="5.4835">
        <ele>387</ele>
        <time>2015-05-08T08:41:12Z</time>
      </trkpt>
      <trkpt lat="43.39709" lon="5.48355">
        <ele>387</ele>
        <time>2015-05-08T08:41:21Z</time>
      </trkpt>
      <trkpt lat="43.397" lon="5.48365">
        <ele>380</ele>
        <time>2015-05-08T08:41:32Z</time>
      </trkpt>
      <trkpt lat="43.39695" lon="5.48367">
        <ele>372</ele>
        <time>2015-05-08T08:41:41Z</time>
      </trkpt>
      <trkpt lat="43.39686" lon="5.48374">
        <ele>374</ele>
        <time>2015-05-08T08:41:51Z</time>
      </trkpt>
      <trkpt lat="43.39679" lon="5.48379">
        <ele>384</ele>
        <time>2015-05-08T08:42:01Z</time>
      </trkpt>
      <trkpt lat="43.39667" lon="5.48383">
        <ele>393</ele>
        <time>2015-05-08T08:42:10Z</time>
      </trkpt>
      <trkpt lat="43.39654" lon="5.48379">
        <ele>398</ele>
        <time>2015-05-08T08:42:19Z</time>
      </trkpt>
      <trkpt lat="43.39645" lon="5.48374">
        <ele>385</ele>
        <time>2015-05-08T08:42:29Z</time>
      </trkpt>
      <trkpt lat="43.39639" lon="5.48372">
        <ele>377</ele>
        <time>2015-05-08T08:42:39Z</time>
      </trkpt>
      <trkpt lat="43.39635" lon="5.4837">
        <ele>370</ele>
        <time>2015-05-08T08:42:48Z</time>
      </trkpt>
      <trkpt lat="43.39635" lon="5.48371">
        <ele>364</ele>
        <time>2015-05-08T08:42:57Z</time>
      </trkpt>
      <trkpt lat="43.39629" lon="5.48372">
        <ele>367</ele>
        <time>2015-05-08T08:43:08Z</time>
      </trkpt>
      <trkpt lat="43.39624" lon="5.4837">
        <ele>367</ele>
        <time>2015-05-08T08:43:18Z</time>
      </trkpt>
      <trkpt lat="43.39615" lon="5.48372">
        <ele>376</ele>
        <time>2015-05-08T08:43:27Z</time>
      </trkpt>
      <trkpt lat="43.39606" lon="5.48374">
        <ele>385</ele>
        <time>2015-05-08T08:43:37Z</time>
      </trkpt>
      <trkpt lat="43.39598" lon="5.48382">
        <ele>390</ele>
        <time>2015-05-08T08:43:47Z</time>
      </trkpt>
      <trkpt lat="43.39589" lon="5.48386">
        <ele>390</ele>
        <time>2015-05-08T08:43:56Z</time>
      </trkpt>
      <trkpt lat="43.39578" lon="5.48396">
        <ele>388</ele>
        <time>2015-05-08T08:44:07Z</time>
      </trkpt>
      <trkpt lat="43.39568" lon="5.48406">
        <ele>388</ele>
        <time>2015-05-08T08:44:18Z</time>
      </trkpt>
      <trkpt lat="43.3956" lon="5.48417">
        <ele>393</ele>
        <time>2015-05-08T08:44:28Z</time>
      </trkpt>
      <trkpt lat="43.39552" lon="5.4842">
        <ele>394</ele>
        <time>2015-05-08T08:44:37Z</time>
      </trkpt>
      <trkpt lat="43.39541" lon="5.48419">
        <ele>387</ele>
        <time>2015-05-08T08:44:46Z</time>
      </trkpt>
      <trkpt lat="43.3953" lon="5.48421">
        <ele>380</ele>
        <time>2015-05-08T08:44:56Z</time>
      </trkpt>
      <trkpt lat="43.39517" lon="5.48421">
        <ele>374</ele>
        <time>2015-05-08T08:45:05Z</time>
      </trkpt>
      <trkpt lat="43.39508" lon="5.48425">
        <ele>371</ele>
        <time>2015-05-08T08:45:15Z</time>
      </trkpt>
      <trkpt lat="43.39498" lon="5.4843">
        <ele>371</ele>
        <time>2015-05-08T08:45:25Z</time>
      </trkpt>
      <trkpt lat="43.3949" lon="5.48438">
        <ele>370</ele>
        <time>2015-05-08T08:45:35Z</time>
      </trkpt>
      <trkpt lat="43.39479" lon="5.48437">
        <ele>362</ele>
        <time>2015-05-08T08:45:45Z</time>
      </trkpt>
      <trkpt lat="43.39476" lon="5.48435">
        <ele>358</ele>
        <time>2015-05-08T08:45:58Z</time>
      </trkpt>
      <trkpt lat="43.39474" lon="5.48435">
        <ele>358</ele>
        <time>2015-05-08T08:46:10Z</time>
      </trkpt>
      <trkpt lat="43.39465" lon="5.48438">
        <ele>358</ele>
        <time>2015-05-08T08:46:21Z</time>
      </trkpt>
      <trkpt lat="43.39459" lon="5.48441">
        <ele>358</ele>
        <time>2015-05-08T08:46:31Z</time>
      </trkpt>
      <trkpt lat="43.39453" lon="5.48443">
        <ele>358</ele>
        <time>2015-05-08T08:46:41Z</time>
      </trkpt>
      <trkpt lat="43.39445" lon="5.48448">
        <ele>358</ele>
        <time>2015-05-08T08:46:51Z</time>
      </trkpt>
      <trkpt lat="43.39441" lon="5.48458">
        <ele>361</ele>
        <time>2015-05-08T08:47:01Z</time>
      </trkpt>
      <trkpt lat="43.39433" lon="5.48471">
        <ele>361</ele>
        <time>2015-05-08T08:47:11Z</time>
      </trkpt>
      <trkpt lat="43.39432" lon="5.48482">
        <ele>359</ele>
        <time>2015-05-08T08:47:22Z</time>
      </trkpt>
      <trkpt lat="43.39425" lon="5.48488">
        <ele>359</ele>
        <time>2015-05-08T08:47:33Z</time>
      </trkpt>
      <trkpt lat="43.39418" lon="5.48493">
        <ele>360</ele>
        <time>2015-05-08T08:47:43Z</time>
      </trkpt>
      <trkpt lat="43.3941" lon="5.48496">
        <ele>361</ele>
        <time>2015-05-08T08:47:52Z</time>
      </trkpt>
      <trkpt lat="43.39396" lon="5.48493">
        <ele>361</ele>
        <time>2015-05-08T08:48:02Z</time>
      </trkpt>
      <trkpt lat="43.39386" lon="5.48493">
        <ele>363</ele>
        <time>2015-05-08T08:48:11Z</time>
      </trkpt>
      <trkpt lat="43.39376" lon="5.4849">
        <ele>365</ele>
        <time>2015-05-08T08:48:21Z</time>
      </trkpt>
      <trkpt lat="43.39363" lon="5.48489">
        <ele>366</ele>
        <time>2015-05-08T08:48:30Z</time>
      </trkpt>
      <trkpt lat="43.39353" lon="5.48487">
        <ele>366</ele>
        <time>2015-05-08T08:48:40Z</time>
      </trkpt>
      <trkpt lat="43.3934" lon="5.48481">
        <ele>372</ele>
        <time>2015-05-08T08:48:50Z</time>
      </trkpt>
      <trkpt lat="43.39331" lon="5.48478">
        <ele>372</ele>
        <time>2015-05-08T08:49:00Z</time>
      </trkpt>
      <trkpt lat="43.39321" lon="5.48478">
        <ele>375</ele>
        <time>2015-05-08T08:49:09Z</time>
      </trkpt>
      <trkpt lat="43.39311" lon="5.48477">
        <ele>362</ele>
        <time>2015-05-08T08:49:19Z</time>
      </trkpt>
      <trkpt lat="43.39302" lon="5.48475">
        <ele>353</ele>
        <time>2015-05-08T08:49:28Z</time>
      </trkpt>
      <trkpt lat="43.39292" lon="5.4847">
        <ele>348</ele>
        <time>2015-05-08T08:49:37Z</time>
      </trkpt>
      <trkpt lat="43.39281" lon="5.48476">
        <ele>348</ele>
        <time>2015-05-08T08:49:46Z</time>
      </trkpt>
      <trkpt lat="43.3927" lon="5.4848">
        <ele>350</ele>
        <time>2015-05-08T08:49:56Z</time>
      </trkpt>
      <trkpt lat="43.39263" lon="5.4849">
        <ele>356</ele>
        <time>2015-05-08T08:50:06Z</time>
      </trkpt>
      <trkpt lat="43.39255" lon="5.48502">
        <ele>362</ele>
        <time>2015-05-08T08:50:16Z</time>
      </trkpt>
      <trkpt lat="43.39248" lon="5.48509">
        <ele>367</ele>
        <time>2015-05-08T08:50:29Z</time>
      </trkpt>
      <trkpt lat="43.39241" lon="5.48513">
        <ele>367</ele>
        <time>2015-05-08T08:50:41Z</time>
      </trkpt>
      <trkpt lat="43.39231" lon="5.48517">
        <ele>368</ele>
        <time>2015-05-08T08:50:50Z</time>
      </trkpt>
      <trkpt lat="43.39223" lon="5.48518">
        <ele>360</ele>
        <time>2015-05-08T08:51:01Z</time>
      </trkpt>
      <trkpt lat="43.39213" lon="5.48517">
        <ele>359</ele>
        <time>2015-05-08T08:51:10Z</time>
      </trkpt>
      <trkpt lat="43.39201" lon="5.48512">
        <ele>359</ele>
        <time>2015-05-08T08:51:20Z</time>
      </trkpt>
      <trkpt lat="43.39191" lon="5.48501">
        <ele>351</ele>
        <time>2015-05-08T08:51:29Z</time>
      </trkpt>
      <trkpt lat="43.3918" lon="5.48491">
        <ele>343</ele>
        <time>2015-05-08T08:51:40Z</time>
      </trkpt>
      <trkpt lat="43.3917" lon="5.48483">
        <ele>342</ele>
        <time>2015-05-08T08:51:50Z</time>
      </trkpt>
      <trkpt lat="43.39161" lon="5.48477">
        <ele>337</ele>
        <time>2015-05-08T08:52:00Z</time>
      </trkpt>
      <trkpt lat="43.39152" lon="5.48475">
        <ele>341</ele>
        <time>2015-05-08T08:52:09Z</time>
      </trkpt>
      <trkpt lat="43.39138" lon="5.4848">
        <ele>350</ele>
        <time>2015-05-08T08:52:19Z</time>
      </trkpt>
      <trkpt lat="43.39129" lon="5.48485">
        <ele>351</ele>
        <time>2015-05-08T08:52:28Z</time>
      </trkpt>
      <trkpt lat="43.39116" lon="5.48494">
        <ele>355</ele>
        <time>2015-05-08T08:52:37Z</time>
      </trkpt>
      <trkpt lat="43.39108" lon="5.48501">
        <ele>353</ele>
        <time>2015-05-08T08:52:48Z</time>
      </trkpt>
      <trkpt lat="43.39097" lon="5.48513">
        <ele>349</ele>
        <time>2015-05-08T08:52:58Z</time>
      </trkpt>
      <trkpt lat="43.39089" lon="5.48522">
        <ele>347</ele>
        <time>2015-05-08T08:53:08Z</time>
      </trkpt>
      <trkpt lat="43.39084" lon="5.48524">
        <ele>349</ele>
        <time>2015-05-08T08:53:17Z</time>
      </trkpt>
      <trkpt lat="43.39077" lon="5.48533">
        <ele>346</ele>
        <time>2015-05-08T08:53:26Z</time>
      </trkpt>
      <trkpt lat="43.39072" lon="5.48542">
        <ele>339</ele>
        <time>2015-05-08T08:53:36Z</time>
      </trkpt>
      <trkpt lat="43.39066" lon="5.48542">
        <ele>331</ele>
        <time>2015-05-08T08:53:46Z</time>
      </trkpt>
      <trkpt lat="43.39061" lon="5.48545">
        <ele>335</ele>
        <time>2015-05-08T08:53:56Z</time>
      </trkpt>
      <trkpt lat="43.39052" lon="5.48542">
        <ele>335</ele>
        <time>2015-05-08T08:54:06Z</time>
      </trkpt>
      <trkpt lat="43.39045" lon="5.48531">
        <ele>333</ele>
        <time>2015-05-08T08:54:16Z</time>
      </trkpt>
      <trkpt lat="43.39039" lon="5.4852">
        <ele>333</ele>
        <time>2015-05-08T08:54:27Z</time>
      </trkpt>
      <trkpt lat="43.39032" lon="5.4851">
        <ele>343</ele>
        <time>2015-05-08T08:54:38Z</time>
      </trkpt>
      <trkpt lat="43.39026" lon="5.48502">
        <ele>345</ele>
        <time>2015-05-08T08:54:47Z</time>
      </trkpt>
      <trkpt lat="43.39016" lon="5.48494">
        <ele>345</ele>
        <time>2015-05-08T08:54:56Z</time>
      </trkpt>
      <trkpt lat="43.3901" lon="5.48486">
        <ele>345</ele>
        <time>2015-05-08T08:55:06Z</time>
      </trkpt>
      <trkpt lat="43.39005" lon="5.48476">
        <ele>347</ele>
        <time>2015-05-08T08:55:16Z</time>
      </trkpt>
      <trkpt lat="43.39" lon="5.48465">
        <ele>354</ele>
        <time>2015-05-08T08:55:25Z</time>
      </trkpt>
      <trkpt lat="43.38996" lon="5.48455">
        <ele>359</ele>
        <time>2015-05-08T08:55:35Z</time>
      </trkpt>
      <trkpt lat="43.38992" lon="5.48448">
        <ele>360</ele>
        <time>2015-05-08T08:55:44Z</time>
      </trkpt>
      <trkpt lat="43.38987" lon="5.48438">
        <ele>362</ele>
        <time>2015-05-08T08:55:54Z</time>
      </trkpt>
      <trkpt lat="43.3898" lon="5.48429">
        <ele>362</ele>
        <time>2015-05-08T08:56:03Z</time>
      </trkpt>
      <trkpt lat="43.38976" lon="5.48416">
        <ele>359</ele>
        <time>2015-05-08T08:56:12Z</time>
      </trkpt>
      <trkpt lat="43.38973" lon="5.48402">
        <ele>357</ele>
        <time>2015-05-08T08:56:22Z</time>
      </trkpt>
      <trkpt lat="43.38969" lon="5.48389">
        <ele>357</ele>
        <time>2015-05-08T08:56:32Z</time>
      </trkpt>
      <trkpt lat="43.38969" lon="5.48374">
        <ele>357</ele>
        <time>2015-05-08T08:56:41Z</time>
      </trkpt>
      <trkpt lat="43.38972" lon="5.48352">
        <ele>357</ele>
        <time>2015-05-08T08:56:51Z</time>
      </trkpt>
      <trkpt lat="43.38977" lon="5.48333">
        <ele>356</ele>
        <time>2015-05-08T08:57:00Z</time>
      </trkpt>
      <trkpt lat="43.3898" lon="5.48316">
        <ele>351</ele>
        <time>2015-05-08T08:57:09Z</time>
      </trkpt>
      <trkpt lat="43.38981" lon="5.48302">
        <ele>350</ele>
        <time>2015-05-08T08:57:18Z</time>
      </trkpt>
      <trkpt lat="43.38985" lon="5.4829">
        <ele>350</ele>
        <time>2015-05-08T08:57:29Z</time>
      </trkpt>
      <trkpt lat="43.38983" lon="5.48289">
        <ele>350</ele>
        <time>2015-05-08T08:57:40Z</time>
      </trkpt>
      <trkpt lat="43.38972" lon="5.48289">
        <ele>358</ele>
        <time>2015-05-08T08:57:49Z</time>
      </trkpt>
      <trkpt lat="43.38964" lon="5.48289">
        <ele>358</ele>
        <time>2015-05-08T08:57:58Z</time>
      </trkpt>
      <trkpt lat="43.38957" lon="5.48294">
        <ele>357</ele>
        <time>2015-05-08T08:58:07Z</time>
      </trkpt>
      <trkpt lat="43.38946" lon="5.48298">
        <ele>352</ele>
        <time>2015-05-08T08:58:19Z</time>
      </trkpt>
      <trkpt lat="43.38937" lon="5.48303">
        <ele>348</ele>
        <time>2015-05-08T08:58:29Z</time>
      </trkpt>
      <trkpt lat="43.38931" lon="5.48311">
        <ele>351</ele>
        <time>2015-05-08T08:58:39Z</time>
      </trkpt>
      <trkpt lat="43.38926" lon="5.48317">
        <ele>356</ele>
        <time>2015-05-08T08:58:48Z</time>
      </trkpt>
      <trkpt lat="43.38917" lon="5.48323">
        <ele>357</ele>
        <time>2015-05-08T08:58:58Z</time>
      </trkpt>
      <trkpt lat="43.38911" lon="5.48329">
        <ele>360</ele>
        <time>2015-05-08T08:59:07Z</time>
      </trkpt>
      <trkpt lat="43.38903" lon="5.48334">
        <ele>362</ele>
        <time>2015-05-08T08:59:18Z</time>
      </trkpt>
      <trkpt lat="43.38893" lon="5.48342">
        <ele>363</ele>
        <time>2015-05-08T08:59:27Z</time>
      </trkpt>
      <trkpt lat="43.38884" lon="5.4835">
        <ele>363</ele>
        <time>2015-05-08T08:59:38Z</time>
      </trkpt>
      <trkpt lat="43.38876" lon="5.48357">
        <ele>364</ele>
        <time>2015-05-08T08:59:47Z</time>
      </trkpt>
      <trkpt lat="43.3887" lon="5.48368">
        <ele>364</ele>
        <time>2015-05-08T08:59:56Z</time>
      </trkpt>
      <trkpt lat="43.38863" lon="5.48376">
        <ele>364</ele>
        <time>2015-05-08T09:00:05Z</time>
      </trkpt>
      <trkpt lat="43.38857" lon="5.48385">
        <ele>364</ele>
        <time>2015-05-08T09:00:14Z</time>
      </trkpt>
      <trkpt lat="43.3885" lon="5.48392">
        <ele>366</ele>
        <time>2015-05-08T09:00:28Z</time>
      </trkpt>
      <trkpt lat="43.38849" lon="5.4839">
        <ele>367</ele>
        <time>2015-05-08T09:00:40Z</time>
      </trkpt>
      <trkpt lat="43.38846" lon="5.48386">
        <ele>365</ele>
        <time>2015-05-08T09:00:50Z</time>
      </trkpt>
      <trkpt lat="43.38844" lon="5.48381">
        <ele>364</ele>
        <time>2015-05-08T09:01:01Z</time>
      </trkpt>
      <trkpt lat="43.38843" lon="5.48387">
        <ele>364</ele>
        <time>2015-05-08T09:01:17Z</time>
      </trkpt>
      <trkpt lat="43.38843" lon="5.48388">
        <ele>364</ele>
        <time>2015-05-08T09:01:27Z</time>
      </trkpt>
      <trkpt lat="43.38843" lon="5.4839">
        <ele>364</ele>
        <time>2015-05-08T09:01:37Z</time>
      </trkpt>
      <trkpt lat="43.38841" lon="5.48392">
        <ele>365</ele>
        <time>2015-05-08T09:01:53Z</time>
      </trkpt>
      <trkpt lat="43.3884" lon="5.48392">
        <ele>366</ele>
        <time>2015-05-08T09:02:06Z</time>
      </trkpt>
      <trkpt lat="43.38843" lon="5.48393">
        <ele>366</ele>
        <time>2015-05-08T09:02:19Z</time>
      </trkpt>
      <trkpt lat="43.38844" lon="5.48395">
        <ele>366</ele>
        <time>2015-05-08T09:02:28Z</time>
      </trkpt>
      <trkpt lat="43.38845" lon="5.48395">
        <ele>366</ele>
        <time>2015-05-08T09:02:38Z</time>
      </trkpt>
      <trkpt lat="43.38843" lon="5.48396">
        <ele>366</ele>
        <time>2015-05-08T09:02:59Z</time>
      </trkpt>
      <trkpt lat="43.38841" lon="5.48397">
        <ele>366</ele>
        <time>2015-05-08T09:03:16Z</time>
      </trkpt>
      <trkpt lat="43.38836" lon="5.48394">
        <ele>366</ele>
        <time>2015-05-08T09:03:25Z</time>
      </trkpt>
      <trkpt lat="43.3883" lon="5.48393">
        <ele>366</ele>
        <time>2015-05-08T09:03:36Z</time>
      </trkpt>
      <trkpt lat="43.38822" lon="5.48392">
        <ele>373</ele>
        <time>2015-05-08T09:03:46Z</time>
      </trkpt>
      <trkpt lat="43.38814" lon="5.48389">
        <ele>377</ele>
        <time>2015-05-08T09:03:56Z</time>
      </trkpt>
      <trkpt lat="43.38807" lon="5.48386">
        <ele>378</ele>
        <time>2015-05-08T09:04:06Z</time>
      </trkpt>
      <trkpt lat="43.388" lon="5.48381">
        <ele>380</ele>
        <time>2015-05-08T09:04:15Z</time>
      </trkpt>
      <trkpt lat="43.38783" lon="5.48379">
        <ele>380</ele>
        <time>2015-05-08T09:04:25Z</time>
      </trkpt>
      <trkpt lat="43.3877" lon="5.4838">
        <ele>380</ele>
        <time>2015-05-08T09:04:34Z</time>
      </trkpt>
      <trkpt lat="43.38763" lon="5.48385">
        <ele>380</ele>
        <time>2015-05-08T09:04:43Z</time>
      </trkpt>
      <trkpt lat="43.3876" lon="5.48395">
        <ele>381</ele>
        <time>2015-05-08T09:04:53Z</time>
      </trkpt>
      <trkpt lat="43.38756" lon="5.48407">
        <ele>390</ele>
        <time>2015-05-08T09:05:03Z</time>
      </trkpt>
      <trkpt lat="43.38752" lon="5.48416">
        <ele>392</ele>
        <time>2015-05-08T09:05:12Z</time>
      </trkpt>
      <trkpt lat="43.38745" lon="5.48427">
        <ele>392</ele>
        <time>2015-05-08T09:05:22Z</time>
      </trkpt>
      <trkpt lat="43.38736" lon="5.48433">
        <ele>392</ele>
        <time>2015-05-08T09:05:31Z</time>
      </trkpt>
      <trkpt lat="43.38729" lon="5.48439">
        <ele>391</ele>
        <time>2015-05-08T09:05:42Z</time>
      </trkpt>
      <trkpt lat="43.38724" lon="5.48438">
        <ele>388</ele>
        <time>2015-05-08T09:05:52Z</time>
      </trkpt>
      <trkpt lat="43.38717" lon="5.48434">
        <ele>380</ele>
        <time>2015-05-08T09:06:06Z</time>
      </trkpt>
      <trkpt lat="43.38712" lon="5.48432">
        <ele>380</ele>
        <time>2015-05-08T09:06:16Z</time>
      </trkpt>
      <trkpt lat="43.38709" lon="5.4843">
        <ele>380</ele>
        <time>2015-05-08T09:06:26Z</time>
      </trkpt>
      <trkpt lat="43.38703" lon="5.48426">
        <ele>378</ele>
        <time>2015-05-08T09:06:35Z</time>
      </trkpt>
      <trkpt lat="43.38695" lon="5.48418">
        <ele>372</ele>
        <time>2015-05-08T09:06:45Z</time>
      </trkpt>
      <trkpt lat="43.38687" lon="5.48411">
        <ele>369</ele>
        <time>2015-05-08T09:06:54Z</time>
      </trkpt>
      <trkpt lat="43.38675" lon="5.48402">
        <ele>366</ele>
        <time>2015-05-08T09:07:05Z</time>
      </trkpt>
      <trkpt lat="43.38665" lon="5.48394">
        <ele>364</ele>
        <time>2015-05-08T09:07:14Z</time>
      </trkpt>
      <trkpt lat="43.38655" lon="5.48385">
        <ele>361</ele>
        <time>2015-05-08T09:07:23Z</time>
      </trkpt>
      <trkpt lat="43.38643" lon="5.48373">
        <ele>361</ele>
        <time>2015-05-08T09:07:33Z</time>
      </trkpt>
      <trkpt lat="43.38632" lon="5.4837">
        <ele>361</ele>
        <time>2015-05-08T09:07:43Z</time>
      </trkpt>
      <trkpt lat="43.38626" lon="5.48358">
        <ele>361</ele>
        <time>2015-05-08T09:07:53Z</time>
      </trkpt>
      <trkpt lat="43.38622" lon="5.48347">
        <ele>361</ele>
        <time>2015-05-08T09:08:02Z</time>
      </trkpt>
      <trkpt lat="43.38622" lon="5.48335">
        <ele>361</ele>
        <time>2015-05-08T09:08:11Z</time>
      </trkpt>
      <trkpt lat="43.38625" lon="5.4832">
        <ele>361</ele>
        <time>2015-05-08T09:08:20Z</time>
      </trkpt>
      <trkpt lat="43.3863" lon="5.48304">
        <ele>361</ele>
        <time>2015-05-08T09:08:29Z</time>
      </trkpt>
      <trkpt lat="43.38633" lon="5.48291">
        <ele>361</ele>
        <time>2015-05-08T09:08:39Z</time>
      </trkpt>
      <trkpt lat="43.38631" lon="5.48281">
        <ele>361</ele>
        <time>2015-05-08T09:08:48Z</time>
      </trkpt>
      <trkpt lat="43.38629" lon="5.48267">
        <ele>361</ele>
        <time>2015-05-08T09:08:57Z</time>
      </trkpt>
      <trkpt lat="43.38628" lon="5.48253">
        <ele>361</ele>
        <time>2015-05-08T09:09:06Z</time>
      </trkpt>
      <trkpt lat="43.38628" lon="5.48238">
        <ele>361</ele>
        <time>2015-05-08T09:09:15Z</time>
      </trkpt>
      <trkpt lat="43.38629" lon="5.48225">
        <ele>361</ele>
        <time>2015-05-08T09:09:24Z</time>
      </trkpt>
      <trkpt lat="43.3863" lon="5.48208">
        <ele>361</ele>
        <time>2015-05-08T09:09:34Z</time>
      </trkpt>
      <trkpt lat="43.38625" lon="5.48196">
        <ele>355</ele>
        <time>2015-05-08T09:09:44Z</time>
      </trkpt>
      <trkpt lat="43.3862" lon="5.48192">
        <ele>353</ele>
        <time>2015-05-08T09:09:53Z</time>
      </trkpt>
      <trkpt lat="43.38618" lon="5.48189">
        <ele>353</ele>
        <time>2015-05-08T09:10:06Z</time>
      </trkpt>
      <trkpt lat="43.38613" lon="5.48189">
        <ele>353</ele>
        <time>2015-05-08T09:10:17Z</time>
      </trkpt>
      <trkpt lat="43.38606" lon="5.48187">
        <ele>353</ele>
        <time>2015-05-08T09:10:27Z</time>
      </trkpt>
      <trkpt lat="43.38599" lon="5.48184">
        <ele>353</ele>
        <time>2015-05-08T09:10:36Z</time>
      </trkpt>
      <trkpt lat="43.38589" lon="5.48178">
        <ele>353</ele>
        <time>2015-05-08T09:10:46Z</time>
      </trkpt>
      <trkpt lat="43.38578" lon="5.48168">
        <ele>350</ele>
        <time>2015-05-08T09:10:56Z</time>
      </trkpt>
      <trkpt lat="43.38569" lon="5.48159">
        <ele>349</ele>
        <time>2015-05-08T09:11:06Z</time>
      </trkpt>
      <trkpt lat="43.38563" lon="5.48148">
        <ele>349</ele>
        <time>2015-05-08T09:11:15Z</time>
      </trkpt>
      <trkpt lat="43.38556" lon="5.48136">
        <ele>347</ele>
        <time>2015-05-08T09:11:24Z</time>
      </trkpt>
      <trkpt lat="43.38547" lon="5.4813">
        <ele>345</ele>
        <time>2015-05-08T09:11:35Z</time>
      </trkpt>
      <trkpt lat="43.38538" lon="5.48124">
        <ele>344</ele>
        <time>2015-05-08T09:11:44Z</time>
      </trkpt>
      <trkpt lat="43.38526" lon="5.48119">
        <ele>344</ele>
        <time>2015-05-08T09:11:54Z</time>
      </trkpt>
      <trkpt lat="43.38516" lon="5.48115">
        <ele>344</ele>
        <time>2015-05-08T09:12:04Z</time>
      </trkpt>
      <trkpt lat="43.38509" lon="5.48108">
        <ele>344</ele>
        <time>2015-05-08T09:12:15Z</time>
      </trkpt>
      <trkpt lat="43.38498" lon="5.48101">
        <ele>344</ele>
        <time>2015-05-08T09:12:25Z</time>
      </trkpt>
      <trkpt lat="43.38486" lon="5.48095">
        <ele>342</ele>
        <time>2015-05-08T09:12:36Z</time>
      </trkpt>
      <trkpt lat="43.38472" lon="5.48089">
        <ele>342</ele>
        <time>2015-05-08T09:12:45Z</time>
      </trkpt>
      <trkpt lat="43.38467" lon="5.48087">
        <ele>342</ele>
        <time>2015-05-08T09:12:54Z</time>
      </trkpt>
      <trkpt lat="43.38458" lon="5.48078">
        <ele>342</ele>
        <time>2015-05-08T09:13:03Z</time>
      </trkpt>
      <trkpt lat="43.38451" lon="5.48071">
        <ele>342</ele>
        <time>2015-05-08T09:13:12Z</time>
      </trkpt>
      <trkpt lat="43.38441" lon="5.48063">
        <ele>342</ele>
        <time>2015-05-08T09:13:21Z</time>
      </trkpt>
      <trkpt lat="43.38426" lon="5.48054">
        <ele>342</ele>
        <time>2015-05-08T09:13:30Z</time>
      </trkpt>
      <trkpt lat="43.38418" lon="5.48045">
        <ele>334</ele>
        <time>2015-05-08T09:13:39Z</time>
      </trkpt>
      <trkpt lat="43.38411" lon="5.48031">
        <ele>333</ele>
        <time>2015-05-08T09:13:49Z</time>
      </trkpt>
      <trkpt lat="43.38413" lon="5.48019">
        <ele>333</ele>
        <time>2015-05-08T09:13:58Z</time>
      </trkpt>
      <trkpt lat="43.38422" lon="5.4801">
        <ele>333</ele>
        <time>2015-05-08T09:14:07Z</time>
      </trkpt>
      <trkpt lat="43.38428" lon="5.48002">
        <ele>333</ele>
        <time>2015-05-08T09:14:16Z</time>
      </trkpt>
      <trkpt lat="43.38439" lon="5.47995">
        <ele>333</ele>
        <time>2015-05-08T09:14:26Z</time>
      </trkpt>
      <trkpt lat="43.38451" lon="5.47987">
        <ele>333</ele>
        <time>2015-05-08T09:14:36Z</time>
      </trkpt>
      <trkpt lat="43.38462" lon="5.47981">
        <ele>333</ele>
        <time>2015-05-08T09:14:46Z</time>
      </trkpt>
      <trkpt lat="43.38471" lon="5.47974">
        <ele>333</ele>
        <time>2015-05-08T09:14:55Z</time>
      </trkpt>
      <trkpt lat="43.3848" lon="5.47963">
        <ele>333</ele>
        <time>2015-05-08T09:15:05Z</time>
      </trkpt>
      <trkpt lat="43.38488" lon="5.4795">
        <ele>334</ele>
        <time>2015-05-08T09:15:16Z</time>
      </trkpt>
      <trkpt lat="43.38493" lon="5.47935">
        <ele>336</ele>
        <time>2015-05-08T09:15:25Z</time>
      </trkpt>
      <trkpt lat="43.38499" lon="5.47921">
        <ele>336</ele>
        <time>2015-05-08T09:15:34Z</time>
      </trkpt>
      <trkpt lat="43.38504" lon="5.47905">
        <ele>336</ele>
        <time>2015-05-08T09:15:44Z</time>
      </trkpt>
      <trkpt lat="43.38509" lon="5.4789">
        <ele>336</ele>
        <time>2015-05-08T09:15:53Z</time>
      </trkpt>
      <trkpt lat="43.38514" lon="5.47875">
        <ele>336</ele>
        <time>2015-05-08T09:16:03Z</time>
      </trkpt>
      <trkpt lat="43.3852" lon="5.47861">
        <ele>336</ele>
        <time>2015-05-08T09:16:12Z</time>
      </trkpt>
      <trkpt lat="43.38525" lon="5.47845">
        <ele>336</ele>
        <time>2015-05-08T09:16:21Z</time>
      </trkpt>
      <trkpt lat="43.38528" lon="5.4783">
        <ele>336</ele>
        <time>2015-05-08T09:16:30Z</time>
      </trkpt>
      <trkpt lat="43.38533" lon="5.47816">
        <ele>336</ele>
        <time>2015-05-08T09:16:39Z</time>
      </trkpt>
      <trkpt lat="43.38541" lon="5.47806">
        <ele>335</ele>
        <time>2015-05-08T09:16:48Z</time>
      </trkpt>
      <trkpt lat="43.38549" lon="5.47803">
        <ele>334</ele>
        <time>2015-05-08T09:16:59Z</time>
      </trkpt>
      <trkpt lat="43.38558" lon="5.47801">
        <ele>334</ele>
        <time>2015-05-08T09:17:08Z</time>
      </trkpt>
      <trkpt lat="43.38568" lon="5.47797">
        <ele>334</ele>
        <time>2015-05-08T09:17:17Z</time>
      </trkpt>
      <trkpt lat="43.38578" lon="5.47794">
        <ele>334</ele>
        <time>2015-05-08T09:17:26Z</time>
      </trkpt>
      <trkpt lat="43.38586" lon="5.47788">
        <ele>334</ele>
        <time>2015-05-08T09:17:35Z</time>
      </trkpt>
      <trkpt lat="43.38596" lon="5.47782">
        <ele>333</ele>
        <time>2015-05-08T09:17:44Z</time>
      </trkpt>
      <trkpt lat="43.38608" lon="5.47776">
        <ele>333</ele>
        <time>2015-05-08T09:17:54Z</time>
      </trkpt>
      <trkpt lat="43.38619" lon="5.47772">
        <ele>331</ele>
        <time>2015-05-08T09:18:03Z</time>
      </trkpt>
      <trkpt lat="43.38629" lon="5.47769">
        <ele>331</ele>
        <time>2015-05-08T09:18:12Z</time>
      </trkpt>
      <trkpt lat="43.3864" lon="5.47764">
        <ele>331</ele>
        <time>2015-05-08T09:18:21Z</time>
      </trkpt>
      <trkpt lat="43.38649" lon="5.47753">
        <ele>331</ele>
        <time>2015-05-08T09:18:32Z</time>
      </trkpt>
      <trkpt lat="43.38653" lon="5.47741">
        <ele>331</ele>
        <time>2015-05-08T09:18:41Z</time>
      </trkpt>
      <trkpt lat="43.38654" lon="5.47726">
        <ele>331</ele>
        <time>2015-05-08T09:18:51Z</time>
      </trkpt>
      <trkpt lat="43.38652" lon="5.47712">
        <ele>331</ele>
        <time>2015-05-08T09:19:00Z</time>
      </trkpt>
      <trkpt lat="43.38652" lon="5.47697">
        <ele>330</ele>
        <time>2015-05-08T09:19:10Z</time>
      </trkpt>
      <trkpt lat="43.3865" lon="5.47683">
        <ele>328</ele>
        <time>2015-05-08T09:19:19Z</time>
      </trkpt>
      <trkpt lat="43.38649" lon="5.47667">
        <ele>325</ele>
        <time>2015-05-08T09:19:29Z</time>
      </trkpt>
      <trkpt lat="43.38648" lon="5.4765">
        <ele>324</ele>
        <time>2015-05-08T09:19:38Z</time>
      </trkpt>
      <trkpt lat="43.38646" lon="5.47634">
        <ele>322</ele>
        <time>2015-05-08T09:19:47Z</time>
      </trkpt>
      <trkpt lat="43.38643" lon="5.47619">
        <ele>319</ele>
        <time>2015-05-08T09:19:57Z</time>
      </trkpt>
      <trkpt lat="43.38632" lon="5.47619">
        <ele>319</ele>
        <time>2015-05-08T09:20:06Z</time>
      </trkpt>
      <trkpt lat="43.38621" lon="5.47625">
        <ele>319</ele>
        <time>2015-05-08T09:20:15Z</time>
      </trkpt>
      <trkpt lat="43.38611" lon="5.47636">
        <ele>318</ele>
        <time>2015-05-08T09:20:25Z</time>
      </trkpt>
      <trkpt lat="43.38603" lon="5.47648">
        <ele>315</ele>
        <time>2015-05-08T09:20:35Z</time>
      </trkpt>
      <trkpt lat="43.38598" lon="5.4766">
        <ele>315</ele>
        <time>2015-05-08T09:20:44Z</time>
      </trkpt>
      <trkpt lat="43.38593" lon="5.47674">
        <ele>315</ele>
        <time>2015-05-08T09:20:53Z</time>
      </trkpt>
      <trkpt lat="43.38588" lon="5.47686">
        <ele>315</ele>
        <time>2015-05-08T09:21:02Z</time>
      </trkpt>
      <trkpt lat="43.38578" lon="5.47692">
        <ele>316</ele>
        <time>2015-05-08T09:21:12Z</time>
      </trkpt>
      <trkpt lat="43.3857" lon="5.47692">
        <ele>319</ele>
        <time>2015-05-08T09:21:22Z</time>
      </trkpt>
      <trkpt lat="43.38561" lon="5.47691">
        <ele>319</ele>
        <time>2015-05-08T09:21:32Z</time>
      </trkpt>
      <trkpt lat="43.38553" lon="5.4769">
        <ele>321</ele>
        <time>2015-05-08T09:21:41Z</time>
      </trkpt>
      <trkpt lat="43.38545" lon="5.47686">
        <ele>325</ele>
        <time>2015-05-08T09:21:50Z</time>
      </trkpt>
      <trkpt lat="43.38537" lon="5.47682">
        <ele>329</ele>
        <time>2015-05-08T09:22:00Z</time>
      </trkpt>
      <trkpt lat="43.38525" lon="5.47678">
        <ele>330</ele>
        <time>2015-05-08T09:22:09Z</time>
      </trkpt>
      <trkpt lat="43.38512" lon="5.47674">
        <ele>330</ele>
        <time>2015-05-08T09:22:18Z</time>
      </trkpt>
      <trkpt lat="43.38501" lon="5.47671">
        <ele>330</ele>
        <time>2015-05-08T09:22:27Z</time>
      </trkpt>
      <trkpt lat="43.3849" lon="5.47675">
        <ele>330</ele>
        <time>2015-05-08T09:22:36Z</time>
      </trkpt>
      <trkpt lat="43.38476" lon="5.4768">
        <ele>328</ele>
        <time>2015-05-08T09:22:46Z</time>
      </trkpt>
      <trkpt lat="43.38471" lon="5.47689">
        <ele>327</ele>
        <time>2015-05-08T09:22:55Z</time>
      </trkpt>
      <trkpt lat="43.38459" lon="5.47701">
        <ele>323</ele>
        <time>2015-05-08T09:23:05Z</time>
      </trkpt>
      <trkpt lat="43.38454" lon="5.47713">
        <ele>322</ele>
        <time>2015-05-08T09:23:14Z</time>
      </trkpt>
      <trkpt lat="43.38448" lon="5.47726">
        <ele>322</ele>
        <time>2015-05-08T09:23:23Z</time>
      </trkpt>
      <trkpt lat="43.38439" lon="5.4774">
        <ele>322</ele>
        <time>2015-05-08T09:23:33Z</time>
      </trkpt>
      <trkpt lat="43.38432" lon="5.47751">
        <ele>322</ele>
        <time>2015-05-08T09:23:42Z</time>
      </trkpt>
      <trkpt lat="43.38422" lon="5.47762">
        <ele>322</ele>
        <time>2015-05-08T09:23:52Z</time>
      </trkpt>
      <trkpt lat="43.38412" lon="5.47766">
        <ele>324</ele>
        <time>2015-05-08T09:24:02Z</time>
      </trkpt>
      <trkpt lat="43.38403" lon="5.47766">
        <ele>331</ele>
        <time>2015-05-08T09:24:12Z</time>
      </trkpt>
      <trkpt lat="43.38396" lon="5.47764">
        <ele>337</ele>
        <time>2015-05-08T09:24:23Z</time>
      </trkpt>
      <trkpt lat="43.38394" lon="5.47762">
        <ele>337</ele>
        <time>2015-05-08T09:24:32Z</time>
      </trkpt>
      <trkpt lat="43.38387" lon="5.47755">
        <ele>337</ele>
        <time>2015-05-08T09:24:42Z</time>
      </trkpt>
      <trkpt lat="43.3838" lon="5.47751">
        <ele>340</ele>
        <time>2015-05-08T09:24:52Z</time>
      </trkpt>
      <trkpt lat="43.38374" lon="5.47745">
        <ele>345</ele>
        <time>2015-05-08T09:25:01Z</time>
      </trkpt>
      <trkpt lat="43.38365" lon="5.4774">
        <ele>350</ele>
        <time>2015-05-08T09:25:12Z</time>
      </trkpt>
      <trkpt lat="43.38356" lon="5.47735">
        <ele>353</ele>
        <time>2015-05-08T09:25:21Z</time>
      </trkpt>
      <trkpt lat="43.38348" lon="5.4773">
        <ele>353</ele>
        <time>2015-05-08T09:25:30Z</time>
      </trkpt>
      <trkpt lat="43.38336" lon="5.47722">
        <ele>354</ele>
        <time>2015-05-08T09:25:40Z</time>
      </trkpt>
      <trkpt lat="43.38326" lon="5.47711">
        <ele>354</ele>
        <time>2015-05-08T09:25:50Z</time>
      </trkpt>
      <trkpt lat="43.38319" lon="5.47698">
        <ele>354</ele>
        <time>2015-05-08T09:25:59Z</time>
      </trkpt>
      <trkpt lat="43.38319" lon="5.47686">
        <ele>355</ele>
        <time>2015-05-08T09:26:08Z</time>
      </trkpt>
      <trkpt lat="43.3832" lon="5.47673">
        <ele>357</ele>
        <time>2015-05-08T09:26:17Z</time>
      </trkpt>
      <trkpt lat="43.38325" lon="5.47661">
        <ele>357</ele>
        <time>2015-05-08T09:26:26Z</time>
      </trkpt>
      <trkpt lat="43.38332" lon="5.4765">
        <ele>357</ele>
        <time>2015-05-08T09:26:35Z</time>
      </trkpt>
      <trkpt lat="43.38335" lon="5.47642">
        <ele>357</ele>
        <time>2015-05-08T09:26:46Z</time>
      </trkpt>
      <trkpt lat="43.38339" lon="5.47637">
        <ele>357</ele>
        <time>2015-05-08T09:26:55Z</time>
      </trkpt>
      <trkpt lat="43.38348" lon="5.47624">
        <ele>357</ele>
        <time>2015-05-08T09:27:06Z</time>
      </trkpt>
      <trkpt lat="43.38354" lon="5.47613">
        <ele>357</ele>
        <time>2015-05-08T09:27:16Z</time>
      </trkpt>
      <trkpt lat="43.38361" lon="5.47604">
        <ele>357</ele>
        <time>2015-05-08T09:27:25Z</time>
      </trkpt>
      <trkpt lat="43.38367" lon="5.47595">
        <ele>357</ele>
        <time>2015-05-08T09:27:35Z</time>
      </trkpt>
      <trkpt lat="43.38374" lon="5.47589">
        <ele>357</ele>
        <time>2015-05-08T09:27:45Z</time>
      </trkpt>
      <trkpt lat="43.38382" lon="5.47582">
        <ele>357</ele>
        <time>2015-05-08T09:27:55Z</time>
      </trkpt>
      <trkpt lat="43.3839" lon="5.47576">
        <ele>357</ele>
        <time>2015-05-08T09:28:05Z</time>
      </trkpt>
      <trkpt lat="43.38399" lon="5.47571">
        <ele>357</ele>
        <time>2015-05-08T09:28:15Z</time>
      </trkpt>
      <trkpt lat="43.38411" lon="5.47564">
        <ele>357</ele>
        <time>2015-05-08T09:28:26Z</time>
      </trkpt>
      <trkpt lat="43.3842" lon="5.47555">
        <ele>358</ele>
        <time>2015-05-08T09:28:36Z</time>
      </trkpt>
      <trkpt lat="43.3843" lon="5.47548">
        <ele>362</ele>
        <time>2015-05-08T09:28:45Z</time>
      </trkpt>
      <trkpt lat="43.38436" lon="5.47541">
        <ele>364</ele>
        <time>2015-05-08T09:28:54Z</time>
      </trkpt>
      <trkpt lat="43.38444" lon="5.47533">
        <ele>364</ele>
        <time>2015-05-08T09:29:04Z</time>
      </trkpt>
      <trkpt lat="43.38452" lon="5.47524">
        <ele>369</ele>
        <time>2015-05-08T09:29:13Z</time>
      </trkpt>
      <trkpt lat="43.38456" lon="5.47513">
        <ele>374</ele>
        <time>2015-05-08T09:29:22Z</time>
      </trkpt>
      <trkpt lat="43.38459" lon="5.47498">
        <ele>374</ele>
        <time>2015-05-08T09:29:31Z</time>
      </trkpt>
      <trkpt lat="43.38459" lon="5.47482">
        <ele>374</ele>
        <time>2015-05-08T09:29:40Z</time>
      </trkpt>
      <trkpt lat="43.38453" lon="5.47472">
        <ele>374</ele>
        <time>2015-05-08T09:29:49Z</time>
      </trkpt>
      <trkpt lat="43.38446" lon="5.47465">
        <ele>374</ele>
        <time>2015-05-08T09:30:00Z</time>
      </trkpt>
      <trkpt lat="43.38437" lon="5.47465">
        <ele>375</ele>
        <time>2015-05-08T09:30:10Z</time>
      </trkpt>
      <trkpt lat="43.38425" lon="5.47464">
        <ele>375</ele>
        <time>2015-05-08T09:30:20Z</time>
      </trkpt>
      <trkpt lat="43.3841" lon="5.47462">
        <ele>375</ele>
        <time>2015-05-08T09:30:30Z</time>
      </trkpt>
      <trkpt lat="43.38399" lon="5.4746">
        <ele>375</ele>
        <time>2015-05-08T09:30:40Z</time>
      </trkpt>
      <trkpt lat="43.38388" lon="5.47456">
        <ele>375</ele>
        <time>2015-05-08T09:30:49Z</time>
      </trkpt>
      <trkpt lat="43.38378" lon="5.47451">
        <ele>375</ele>
        <time>2015-05-08T09:30:58Z</time>
      </trkpt>
      <trkpt lat="43.38365" lon="5.47445">
        <ele>375</ele>
        <time>2015-05-08T09:31:08Z</time>
      </trkpt>
      <trkpt lat="43.38353" lon="5.47439">
        <ele>375</ele>
        <time>2015-05-08T09:31:17Z</time>
      </trkpt>
      <trkpt lat="43.38344" lon="5.47433">
        <ele>375</ele>
        <time>2015-05-08T09:31:27Z</time>
      </trkpt>
      <trkpt lat="43.38333" lon="5.47426">
        <ele>375</ele>
        <time>2015-05-08T09:31:37Z</time>
      </trkpt>
      <trkpt lat="43.38323" lon="5.47421">
        <ele>375</ele>
        <time>2015-05-08T09:31:46Z</time>
      </trkpt>
      <trkpt lat="43.38314" lon="5.47418">
        <ele>375</ele>
        <time>2015-05-08T09:31:56Z</time>
      </trkpt>
      <trkpt lat="43.38303" lon="5.47417">
        <ele>375</ele>
        <time>2015-05-08T09:32:06Z</time>
      </trkpt>
      <trkpt lat="43.38292" lon="5.47416">
        <ele>376</ele>
        <time>2015-05-08T09:32:15Z</time>
      </trkpt>
      <trkpt lat="43.38281" lon="5.47415">
        <ele>377</ele>
        <time>2015-05-08T09:32:24Z</time>
      </trkpt>
      <trkpt lat="43.38271" lon="5.47409">
        <ele>377</ele>
        <time>2015-05-08T09:32:34Z</time>
      </trkpt>
      <trkpt lat="43.38263" lon="5.47405">
        <ele>377</ele>
        <time>2015-05-08T09:32:44Z</time>
      </trkpt>
      <trkpt lat="43.38258" lon="5.474">
        <ele>377</ele>
        <time>2015-05-08T09:32:57Z</time>
      </trkpt>
      <trkpt lat="43.38259" lon="5.47391">
        <ele>377</ele>
        <time>2015-05-08T09:33:07Z</time>
      </trkpt>
      <trkpt lat="43.38258" lon="5.47388">
        <ele>377</ele>
        <time>2015-05-08T09:33:17Z</time>
      </trkpt>
      <trkpt lat="43.38258" lon="5.47389">
        <ele>377</ele>
        <time>2015-05-08T09:33:29Z</time>
      </trkpt>
      <trkpt lat="43.38257" lon="5.47393">
        <ele>377</ele>
        <time>2015-05-08T09:33:42Z</time>
      </trkpt>
      <trkpt lat="43.38257" lon="5.47392">
        <ele>377</ele>
        <time>2015-05-08T09:33:51Z</time>
      </trkpt>
      <trkpt lat="43.3826" lon="5.47387">
        <ele>377</ele>
        <time>2015-05-08T09:34:12Z</time>
      </trkpt>
      <trkpt lat="43.38265" lon="5.47384">
        <ele>377</ele>
        <time>2015-05-08T09:34:34Z</time>
      </trkpt>
      <trkpt lat="43.38271" lon="5.47374">
        <ele>378</ele>
        <time>2015-05-08T09:34:45Z</time>
      </trkpt>
      <trkpt lat="43.38278" lon="5.47367">
        <ele>379</ele>
        <time>2015-05-08T09:34:55Z</time>
      </trkpt>
      <trkpt lat="43.38284" lon="5.47362">
        <ele>380</ele>
        <time>2015-05-08T09:35:10Z</time>
      </trkpt>
      <trkpt lat="43.38286" lon="5.4736">
        <ele>380</ele>
        <time>2015-05-08T09:35:27Z</time>
      </trkpt>
      <trkpt lat="43.38292" lon="5.47354">
        <ele>380</ele>
        <time>2015-05-08T09:35:36Z</time>
      </trkpt>
      <trkpt lat="43.38301" lon="5.47348">
        <ele>380</ele>
        <time>2015-05-08T09:35:46Z</time>
      </trkpt>
      <trkpt lat="43.38309" lon="5.47343">
        <ele>380</ele>
        <time>2015-05-08T09:35:55Z</time>
      </trkpt>
      <trkpt lat="43.38319" lon="5.47338">
        <ele>382</ele>
        <time>2015-05-08T09:36:04Z</time>
      </trkpt>
      <trkpt lat="43.38329" lon="5.47336">
        <ele>385</ele>
        <time>2015-05-08T09:36:13Z</time>
      </trkpt>
      <trkpt lat="43.38341" lon="5.4733">
        <ele>387</ele>
        <time>2015-05-08T09:36:23Z</time>
      </trkpt>
      <trkpt lat="43.38352" lon="5.47326">
        <ele>387</ele>
        <time>2015-05-08T09:36:33Z</time>
      </trkpt>
      <trkpt lat="43.38357" lon="5.47325">
        <ele>389</ele>
        <time>2015-05-08T09:36:43Z</time>
      </trkpt>
      <trkpt lat="43.38365" lon="5.47322">
        <ele>389</ele>
        <time>2015-05-08T09:36:53Z</time>
      </trkpt>
      <trkpt lat="43.38374" lon="5.4732">
        <ele>390</ele>
        <time>2015-05-08T09:37:02Z</time>
      </trkpt>
      <trkpt lat="43.38384" lon="5.47316">
        <ele>391</ele>
        <time>2015-05-08T09:37:11Z</time>
      </trkpt>
      <trkpt lat="43.38393" lon="5.47318">
        <ele>392</ele>
        <time>2015-05-08T09:37:21Z</time>
      </trkpt>
      <trkpt lat="43.38403" lon="5.47322">
        <ele>392</ele>
        <time>2015-05-08T09:37:31Z</time>
      </trkpt>
      <trkpt lat="43.38414" lon="5.47326">
        <ele>394</ele>
        <time>2015-05-08T09:37:40Z</time>
      </trkpt>
      <trkpt lat="43.38426" lon="5.47327">
        <ele>396</ele>
        <time>2015-05-08T09:37:50Z</time>
      </trkpt>
      <trkpt lat="43.38436" lon="5.4733">
        <ele>397</ele>
        <time>2015-05-08T09:37:59Z</time>
      </trkpt>
      <trkpt lat="43.38447" lon="5.47333">
        <ele>397</ele>
        <time>2015-05-08T09:38:08Z</time>
      </trkpt>
      <trkpt lat="43.38459" lon="5.47335">
        <ele>397</ele>
        <time>2015-05-08T09:38:17Z</time>
      </trkpt>
      <trkpt lat="43.38469" lon="5.47336">
        <ele>397</ele>
        <time>2015-05-08T09:38:26Z</time>
      </trkpt>
      <trkpt lat="43.3848" lon="5.47336">
        <ele>397</ele>
        <time>2015-05-08T09:38:35Z</time>
      </trkpt>
      <trkpt lat="43.3849" lon="5.47337">
        <ele>397</ele>
        <time>2015-05-08T09:38:44Z</time>
      </trkpt>
      <trkpt lat="43.38501" lon="5.47335">
        <ele>397</ele>
        <time>2015-05-08T09:38:53Z</time>
      </trkpt>
      <trkpt lat="43.38512" lon="5.47332">
        <ele>397</ele>
        <time>2015-05-08T09:39:03Z</time>
      </trkpt>
      <trkpt lat="43.38523" lon="5.4733">
        <ele>398</ele>
        <time>2015-05-08T09:39:12Z</time>
      </trkpt>
      <trkpt lat="43.38534" lon="5.47327">
        <ele>399</ele>
        <time>2015-05-08T09:39:21Z</time>
      </trkpt>
      <trkpt lat="43.38544" lon="5.47323">
        <ele>400</ele>
        <time>2015-05-08T09:39:31Z</time>
      </trkpt>
      <trkpt lat="43.38553" lon="5.4732">
        <ele>400</ele>
        <time>2015-05-08T09:39:40Z</time>
      </trkpt>
      <trkpt lat="43.38565" lon="5.47319">
        <ele>400</ele>
        <time>2015-05-08T09:39:49Z</time>
      </trkpt>
      <trkpt lat="43.38573" lon="5.47321">
        <ele>401</ele>
        <time>2015-05-08T09:39:58Z</time>
      </trkpt>
      <trkpt lat="43.38581" lon="5.47327">
        <ele>407</ele>
        <time>2015-05-08T09:40:07Z</time>
      </trkpt>
      <trkpt lat="43.3859" lon="5.47329">
        <ele>407</ele>
        <time>2015-05-08T09:40:18Z</time>
      </trkpt>
      <trkpt lat="43.38592" lon="5.47319">
        <ele>407</ele>
        <time>2015-05-08T09:40:27Z</time>
      </trkpt>
      <trkpt lat="43.38595" lon="5.47312">
        <ele>410</ele>
        <time>2015-05-08T09:40:42Z</time>
      </trkpt>
      <trkpt lat="43.38593" lon="5.47311">
        <ele>416</ele>
        <time>2015-05-08T09:40:52Z</time>
      </trkpt>
      <trkpt lat="43.38592" lon="5.47308">
        <ele>419</ele>
        <time>2015-05-08T09:41:05Z</time>
      </trkpt>
      <trkpt lat="43.38592" lon="5.47306">
        <ele>419</ele>
        <time>2015-05-08T09:41:17Z</time>
      </trkpt>
      <trkpt lat="43.38601" lon="5.47296">
        <ele>416</ele>
        <time>2015-05-08T09:41:28Z</time>
      </trkpt>
      <trkpt lat="43.38609" lon="5.4729">
        <ele>414</ele>
        <time>2015-05-08T09:41:39Z</time>
      </trkpt>
      <trkpt lat="43.38616" lon="5.47276">
        <ele>414</ele>
        <time>2015-05-08T09:41:49Z</time>
      </trkpt>
      <trkpt lat="43.3862" lon="5.47267">
        <ele>414</ele>
        <time>2015-05-08T09:41:59Z</time>
      </trkpt>
      <trkpt lat="43.38622" lon="5.47262">
        <ele>414</ele>
        <time>2015-05-08T09:42:08Z</time>
      </trkpt>
      <trkpt lat="43.38629" lon="5.47248">
        <ele>410</ele>
        <time>2015-05-08T09:42:18Z</time>
      </trkpt>
      <trkpt lat="43.38635" lon="5.47235">
        <ele>410</ele>
        <time>2015-05-08T09:42:27Z</time>
      </trkpt>
      <trkpt lat="43.38641" lon="5.47224">
        <ele>409</ele>
        <time>2015-05-08T09:42:37Z</time>
      </trkpt>
      <trkpt lat="43.38649" lon="5.47216">
        <ele>409</ele>
        <time>2015-05-08T09:42:47Z</time>
      </trkpt>
      <trkpt lat="43.38657" lon="5.47212">
        <ele>408</ele>
        <time>2015-05-08T09:42:56Z</time>
      </trkpt>
      <trkpt lat="43.38666" lon="5.47206">
        <ele>408</ele>
        <time>2015-05-08T09:43:05Z</time>
      </trkpt>
      <trkpt lat="43.38676" lon="5.47201">
        <ele>408</ele>
        <time>2015-05-08T09:43:14Z</time>
      </trkpt>
      <trkpt lat="43.38685" lon="5.47196">
        <ele>408</ele>
        <time>2015-05-08T09:43:23Z</time>
      </trkpt>
      <trkpt lat="43.38695" lon="5.47192">
        <ele>407</ele>
        <time>2015-05-08T09:43:32Z</time>
      </trkpt>
      <trkpt lat="43.38706" lon="5.47189">
        <ele>407</ele>
        <time>2015-05-08T09:43:42Z</time>
      </trkpt>
      <trkpt lat="43.38715" lon="5.47184">
        <ele>407</ele>
        <time>2015-05-08T09:43:51Z</time>
      </trkpt>
      <trkpt lat="43.38724" lon="5.47175">
        <ele>407</ele>
        <time>2015-05-08T09:44:00Z</time>
      </trkpt>
      <trkpt lat="43.38729" lon="5.47162">
        <ele>407</ele>
        <time>2015-05-08T09:44:10Z</time>
      </trkpt>
      <trkpt lat="43.38731" lon="5.47144">
        <ele>407</ele>
        <time>2015-05-08T09:44:19Z</time>
      </trkpt>
      <trkpt lat="43.38729" lon="5.4713">
        <ele>407</ele>
        <time>2015-05-08T09:44:29Z</time>
      </trkpt>
      <trkpt lat="43.38726" lon="5.47119">
        <ele>408</ele>
        <time>2015-05-08T09:44:39Z</time>
      </trkpt>
      <trkpt lat="43.38725" lon="5.47107">
        <ele>411</ele>
        <time>2015-05-08T09:44:49Z</time>
      </trkpt>
      <trkpt lat="43.38724" lon="5.47094">
        <ele>413</ele>
        <time>2015-05-08T09:44:59Z</time>
      </trkpt>
      <trkpt lat="43.38719" lon="5.4708">
        <ele>414</ele>
        <time>2015-05-08T09:45:10Z</time>
      </trkpt>
      <trkpt lat="43.38714" lon="5.47071">
        <ele>416</ele>
        <time>2015-05-08T09:45:20Z</time>
      </trkpt>
      <trkpt lat="43.3871" lon="5.4706">
        <ele>419</ele>
        <time>2015-05-08T09:45:30Z</time>
      </trkpt>
      <trkpt lat="43.38715" lon="5.47049">
        <ele>421</ele>
        <time>2015-05-08T09:45:40Z</time>
      </trkpt>
      <trkpt lat="43.38723" lon="5.47041">
        <ele>421</ele>
        <time>2015-05-08T09:45:50Z</time>
      </trkpt>
      <trkpt lat="43.38732" lon="5.47035">
        <ele>422</ele>
        <time>2015-05-08T09:46:00Z</time>
      </trkpt>
      <trkpt lat="43.38741" lon="5.47029">
        <ele>422</ele>
        <time>2015-05-08T09:46:09Z</time>
      </trkpt>
      <trkpt lat="43.3875" lon="5.47023">
        <ele>423</ele>
        <time>2015-05-08T09:46:18Z</time>
      </trkpt>
      <trkpt lat="43.38759" lon="5.47013">
        <ele>423</ele>
        <time>2015-05-08T09:46:28Z</time>
      </trkpt>
      <trkpt lat="43.38769" lon="5.47">
        <ele>423</ele>
        <time>2015-05-08T09:46:38Z</time>
      </trkpt>
      <trkpt lat="43.38778" lon="5.46987">
        <ele>423</ele>
        <time>2015-05-08T09:46:48Z</time>
      </trkpt>
      <trkpt lat="43.38787" lon="5.46978">
        <ele>423</ele>
        <time>2015-05-08T09:46:58Z</time>
      </trkpt>
      <trkpt lat="43.38797" lon="5.4697">
        <ele>423</ele>
        <time>2015-05-08T09:47:08Z</time>
      </trkpt>
      <trkpt lat="43.38806" lon="5.46959">
        <ele>424</ele>
        <time>2015-05-08T09:47:18Z</time>
      </trkpt>
      <trkpt lat="43.38815" lon="5.46946">
        <ele>425</ele>
        <time>2015-05-08T09:47:28Z</time>
      </trkpt>
      <trkpt lat="43.3882" lon="5.46934">
        <ele>427</ele>
        <time>2015-05-08T09:47:38Z</time>
      </trkpt>
      <trkpt lat="43.38829" lon="5.46921">
        <ele>429</ele>
        <time>2015-05-08T09:47:48Z</time>
      </trkpt>
      <trkpt lat="43.38838" lon="5.46911">
        <ele>429</ele>
        <time>2015-05-08T09:47:58Z</time>
      </trkpt>
      <trkpt lat="43.38846" lon="5.46903">
        <ele>429</ele>
        <time>2015-05-08T09:48:08Z</time>
      </trkpt>
      <trkpt lat="43.38855" lon="5.46896">
        <ele>430</ele>
        <time>2015-05-08T09:48:18Z</time>
      </trkpt>
      <trkpt lat="43.38863" lon="5.46887">
        <ele>431</ele>
        <time>2015-05-08T09:48:28Z</time>
      </trkpt>
      <trkpt lat="43.38871" lon="5.46876">
        <ele>432</ele>
        <time>2015-05-08T09:48:38Z</time>
      </trkpt>
      <trkpt lat="43.38877" lon="5.46865">
        <ele>433</ele>
        <time>2015-05-08T09:48:47Z</time>
      </trkpt>
      <trkpt lat="43.38883" lon="5.46853">
        <ele>434</ele>
        <time>2015-05-08T09:48:56Z</time>
      </trkpt>
      <trkpt lat="43.38885" lon="5.4684">
        <ele>435</ele>
        <time>2015-05-08T09:49:05Z</time>
      </trkpt>
      <trkpt lat="43.38885" lon="5.46826">
        <ele>436</ele>
        <time>2015-05-08T09:49:14Z</time>
      </trkpt>
      <trkpt lat="43.38883" lon="5.46819">
        <ele>436</ele>
        <time>2015-05-08T09:49:23Z</time>
      </trkpt>
      <trkpt lat="43.38881" lon="5.46809">
        <ele>436</ele>
        <time>2015-05-08T09:49:32Z</time>
      </trkpt>
      <trkpt lat="43.38877" lon="5.468">
        <ele>436</ele>
        <time>2015-05-08T09:49:42Z</time>
      </trkpt>
      <trkpt lat="43.38874" lon="5.46791">
        <ele>436</ele>
        <time>2015-05-08T09:49:52Z</time>
      </trkpt>
      <trkpt lat="43.38871" lon="5.46787">
        <ele>436</ele>
        <time>2015-05-08T09:50:01Z</time>
      </trkpt>
      <trkpt lat="43.38867" lon="5.46777">
        <ele>436</ele>
        <time>2015-05-08T09:50:11Z</time>
      </trkpt>
      <trkpt lat="43.38866" lon="5.46775">
        <ele>436</ele>
        <time>2015-05-08T09:50:20Z</time>
      </trkpt>
      <trkpt lat="43.38865" lon="5.46774">
        <ele>436</ele>
        <time>2015-05-08T09:50:37Z</time>
      </trkpt>
      <trkpt lat="43.38862" lon="5.46766">
        <ele>434</ele>
        <time>2015-05-08T09:50:47Z</time>
      </trkpt>
      <trkpt lat="43.38858" lon="5.46755">
        <ele>434</ele>
        <time>2015-05-08T09:50:57Z</time>
      </trkpt>
      <trkpt lat="43.38851" lon="5.46743">
        <ele>434</ele>
        <time>2015-05-08T09:51:07Z</time>
      </trkpt>
      <trkpt lat="43.38849" lon="5.4673">
        <ele>434</ele>
        <time>2015-05-08T09:51:16Z</time>
      </trkpt>
      <trkpt lat="43.38854" lon="5.46722">
        <ele>434</ele>
        <time>2015-05-08T09:51:26Z</time>
      </trkpt>
      <trkpt lat="43.38852" lon="5.46722">
        <ele>434</ele>
        <time>2015-05-08T09:51:38Z</time>
      </trkpt>
      <trkpt lat="43.38856" lon="5.46709">
        <ele>434</ele>
        <time>2015-05-08T09:51:47Z</time>
      </trkpt>
      <trkpt lat="43.38862" lon="5.46697">
        <ele>434</ele>
        <time>2015-05-08T09:51:56Z</time>
      </trkpt>
      <trkpt lat="43.38869" lon="5.46683">
        <ele>434</ele>
        <time>2015-05-08T09:52:05Z</time>
      </trkpt>
      <trkpt lat="43.3888" lon="5.46676">
        <ele>434</ele>
        <time>2015-05-08T09:52:15Z</time>
      </trkpt>
      <trkpt lat="43.38889" lon="5.46676">
        <ele>434</ele>
        <time>2015-05-08T09:52:25Z</time>
      </trkpt>
      <trkpt lat="43.38898" lon="5.46679">
        <ele>434</ele>
        <time>2015-05-08T09:52:35Z</time>
      </trkpt>
      <trkpt lat="43.38906" lon="5.46681">
        <ele>434</ele>
        <time>2015-05-08T09:52:44Z</time>
      </trkpt>
      <trkpt lat="43.38916" lon="5.46683">
        <ele>434</ele>
        <time>2015-05-08T09:52:54Z</time>
      </trkpt>
      <trkpt lat="43.38927" lon="5.46682">
        <ele>434</ele>
        <time>2015-05-08T09:53:04Z</time>
      </trkpt>
      <trkpt lat="43.38937" lon="5.46682">
        <ele>434</ele>
        <time>2015-05-08T09:53:14Z</time>
      </trkpt>
      <trkpt lat="43.38947" lon="5.46682">
        <ele>435</ele>
        <time>2015-05-08T09:53:23Z</time>
      </trkpt>
      <trkpt lat="43.38956" lon="5.46682">
        <ele>436</ele>
        <time>2015-05-08T09:53:32Z</time>
      </trkpt>
      <trkpt lat="43.38965" lon="5.46683">
        <ele>438</ele>
        <time>2015-05-08T09:53:42Z</time>
      </trkpt>
      <trkpt lat="43.38974" lon="5.46684">
        <ele>439</ele>
        <time>2015-05-08T09:53:52Z</time>
      </trkpt>
      <trkpt lat="43.38984" lon="5.46684">
        <ele>441</ele>
        <time>2015-05-08T09:54:01Z</time>
      </trkpt>
      <trkpt lat="43.38993" lon="5.46685">
        <ele>442</ele>
        <time>2015-05-08T09:54:11Z</time>
      </trkpt>
      <trkpt lat="43.39002" lon="5.46688">
        <ele>443</ele>
        <time>2015-05-08T09:54:21Z</time>
      </trkpt>
      <trkpt lat="43.39011" lon="5.4669">
        <ele>444</ele>
        <time>2015-05-08T09:54:31Z</time>
      </trkpt>
      <trkpt lat="43.39022" lon="5.46692">
        <ele>446</ele>
        <time>2015-05-08T09:54:40Z</time>
      </trkpt>
      <trkpt lat="43.39032" lon="5.46692">
        <ele>446</ele>
        <time>2015-05-08T09:54:50Z</time>
      </trkpt>
      <trkpt lat="43.39043" lon="5.46689">
        <ele>446</ele>
        <time>2015-05-08T09:55:00Z</time>
      </trkpt>
      <trkpt lat="43.39053" lon="5.46687">
        <ele>447</ele>
        <time>2015-05-08T09:55:09Z</time>
      </trkpt>
      <trkpt lat="43.39064" lon="5.4668">
        <ele>448</ele>
        <time>2015-05-08T09:55:18Z</time>
      </trkpt>
      <trkpt lat="43.39076" lon="5.4667">
        <ele>451</ele>
        <time>2015-05-08T09:55:27Z</time>
      </trkpt>
      <trkpt lat="43.39081" lon="5.46655">
        <ele>456</ele>
        <time>2015-05-08T09:55:37Z</time>
      </trkpt>
      <trkpt lat="43.39078" lon="5.46643">
        <ele>458</ele>
        <time>2015-05-08T09:55:47Z</time>
      </trkpt>
      <trkpt lat="43.39074" lon="5.46631">
        <ele>458</ele>
        <time>2015-05-08T09:55:56Z</time>
      </trkpt>
      <trkpt lat="43.3907" lon="5.46618">
        <ele>458</ele>
        <time>2015-05-08T09:56:06Z</time>
      </trkpt>
      <trkpt lat="43.39065" lon="5.46604">
        <ele>458</ele>
        <time>2015-05-08T09:56:16Z</time>
      </trkpt>
      <trkpt lat="43.39062" lon="5.46591">
        <ele>458</ele>
        <time>2015-05-08T09:56:25Z</time>
      </trkpt>
      <trkpt lat="43.39059" lon="5.46578">
        <ele>458</ele>
        <time>2015-05-08T09:56:34Z</time>
      </trkpt>
      <trkpt lat="43.39056" lon="5.46565">
        <ele>458</ele>
        <time>2015-05-08T09:56:43Z</time>
      </trkpt>
      <trkpt lat="43.39055" lon="5.46552">
        <ele>458</ele>
        <time>2015-05-08T09:56:52Z</time>
      </trkpt>
      <trkpt lat="43.39061" lon="5.46545">
        <ele>460</ele>
        <time>2015-05-08T09:57:01Z</time>
      </trkpt>
      <trkpt lat="43.39069" lon="5.46542">
        <ele>461</ele>
        <time>2015-05-08T09:57:10Z</time>
      </trkpt>
      <trkpt lat="43.39078" lon="5.4654">
        <ele>462</ele>
        <time>2015-05-08T09:57:19Z</time>
      </trkpt>
      <trkpt lat="43.39086" lon="5.4654">
        <ele>465</ele>
        <time>2015-05-08T09:57:29Z</time>
      </trkpt>
      <trkpt lat="43.39095" lon="5.46541">
        <ele>467</ele>
        <time>2015-05-08T09:57:38Z</time>
      </trkpt>
      <trkpt lat="43.39103" lon="5.46544">
        <ele>468</ele>
        <time>2015-05-08T09:57:48Z</time>
      </trkpt>
      <trkpt lat="43.39113" lon="5.46547">
        <ele>468</ele>
        <time>2015-05-08T09:57:57Z</time>
      </trkpt>
      <trkpt lat="43.39123" lon="5.46551">
        <ele>468</ele>
        <time>2015-05-08T09:58:07Z</time>
      </trkpt>
      <trkpt lat="43.39133" lon="5.46554">
        <ele>468</ele>
        <time>2015-05-08T09:58:16Z</time>
      </trkpt>
      <trkpt lat="43.39143" lon="5.46556">
        <ele>469</ele>
        <time>2015-05-08T09:58:25Z</time>
      </trkpt>
      <trkpt lat="43.39152" lon="5.46559">
        <ele>470</ele>
        <time>2015-05-08T09:58:34Z</time>
      </trkpt>
      <trkpt lat="43.39162" lon="5.46559">
        <ele>471</ele>
        <time>2015-05-08T09:58:44Z</time>
      </trkpt>
      <trkpt lat="43.39171" lon="5.46558">
        <ele>471</ele>
        <time>2015-05-08T09:58:53Z</time>
      </trkpt>
      <trkpt lat="43.39183" lon="5.46553">
        <ele>473</ele>
        <time>2015-05-08T09:59:03Z</time>
      </trkpt>
      <trkpt lat="43.39191" lon="5.46543">
        <ele>475</ele>
        <time>2015-05-08T09:59:12Z</time>
      </trkpt>
      <trkpt lat="43.39196" lon="5.46533">
        <ele>478</ele>
        <time>2015-05-08T09:59:21Z</time>
      </trkpt>
      <trkpt lat="43.39198" lon="5.46522">
        <ele>481</ele>
        <time>2015-05-08T09:59:30Z</time>
      </trkpt>
      <trkpt lat="43.39199" lon="5.46509">
        <ele>483</ele>
        <time>2015-05-08T09:59:39Z</time>
      </trkpt>
      <trkpt lat="43.39201" lon="5.46495">
        <ele>484</ele>
        <time>2015-05-08T09:59:48Z</time>
      </trkpt>
      <trkpt lat="43.39204" lon="5.46481">
        <ele>485</ele>
        <time>2015-05-08T09:59:57Z</time>
      </trkpt>
      <trkpt lat="43.39207" lon="5.46468">
        <ele>487</ele>
        <time>2015-05-08T10:00:06Z</time>
      </trkpt>
      <trkpt lat="43.39211" lon="5.46456">
        <ele>488</ele>
        <time>2015-05-08T10:00:15Z</time>
      </trkpt>
      <trkpt lat="43.39217" lon="5.46443">
        <ele>489</ele>
        <time>2015-05-08T10:00:25Z</time>
      </trkpt>
      <trkpt lat="43.39226" lon="5.4643">
        <ele>489</ele>
        <time>2015-05-08T10:00:35Z</time>
      </trkpt>
      <trkpt lat="43.39234" lon="5.46421">
        <ele>491</ele>
        <time>2015-05-08T10:00:44Z</time>
      </trkpt>
      <trkpt lat="43.39244" lon="5.46408">
        <ele>491</ele>
        <time>2015-05-08T10:00:53Z</time>
      </trkpt>
      <trkpt lat="43.39253" lon="5.46397">
        <ele>491</ele>
        <time>2015-05-08T10:01:02Z</time>
      </trkpt>
      <trkpt lat="43.39261" lon="5.46386">
        <ele>491</ele>
        <time>2015-05-08T10:01:11Z</time>
      </trkpt>
      <trkpt lat="43.39268" lon="5.46377">
        <ele>491</ele>
        <time>2015-05-08T10:01:21Z</time>
      </trkpt>
      <trkpt lat="43.39273" lon="5.46365">
        <ele>494</ele>
        <time>2015-05-08T10:01:31Z</time>
      </trkpt>
      <trkpt lat="43.3928" lon="5.46354">
        <ele>497</ele>
        <time>2015-05-08T10:01:41Z</time>
      </trkpt>
      <trkpt lat="43.39285" lon="5.46342">
        <ele>500</ele>
        <time>2015-05-08T10:01:51Z</time>
      </trkpt>
      <trkpt lat="43.39288" lon="5.46329">
        <ele>501</ele>
        <time>2015-05-08T10:02:00Z</time>
      </trkpt>
      <trkpt lat="43.3929" lon="5.4631">
        <ele>501</ele>
        <time>2015-05-08T10:02:09Z</time>
      </trkpt>
      <trkpt lat="43.39286" lon="5.46297">
        <ele>501</ele>
        <time>2015-05-08T10:02:18Z</time>
      </trkpt>
      <trkpt lat="43.3928" lon="5.46287">
        <ele>499</ele>
        <time>2015-05-08T10:02:28Z</time>
      </trkpt>
      <trkpt lat="43.39273" lon="5.46278">
        <ele>498</ele>
        <time>2015-05-08T10:02:37Z</time>
      </trkpt>
      <trkpt lat="43.39263" lon="5.4627">
        <ele>498</ele>
        <time>2015-05-08T10:02:46Z</time>
      </trkpt>
      <trkpt lat="43.39252" lon="5.46261">
        <ele>498</ele>
        <time>2015-05-08T10:02:56Z</time>
      </trkpt>
      <trkpt lat="43.3924" lon="5.46252">
        <ele>498</ele>
        <time>2015-05-08T10:03:07Z</time>
      </trkpt>
      <trkpt lat="43.39231" lon="5.46242">
        <ele>498</ele>
        <time>2015-05-08T10:03:16Z</time>
      </trkpt>
      <trkpt lat="43.39222" lon="5.46233">
        <ele>498</ele>
        <time>2015-05-08T10:03:26Z</time>
      </trkpt>
      <trkpt lat="43.39215" lon="5.46222">
        <ele>496</ele>
        <time>2015-05-08T10:03:36Z</time>
      </trkpt>
      <trkpt lat="43.39209" lon="5.4621">
        <ele>494</ele>
        <time>2015-05-08T10:03:45Z</time>
      </trkpt>
      <trkpt lat="43.39203" lon="5.46195">
        <ele>494</ele>
        <time>2015-05-08T10:03:54Z</time>
      </trkpt>
      <trkpt lat="43.39203" lon="5.46181">
        <ele>494</ele>
        <time>2015-05-08T10:04:03Z</time>
      </trkpt>
      <trkpt lat="43.39204" lon="5.46167">
        <ele>494</ele>
        <time>2015-05-08T10:04:12Z</time>
      </trkpt>
      <trkpt lat="43.39204" lon="5.46152">
        <ele>494</ele>
        <time>2015-05-08T10:04:21Z</time>
      </trkpt>
      <trkpt lat="43.39205" lon="5.46138">
        <ele>494</ele>
        <time>2015-05-08T10:04:30Z</time>
      </trkpt>
      <trkpt lat="43.39206" lon="5.46125">
        <ele>494</ele>
        <time>2015-05-08T10:04:39Z</time>
      </trkpt>
      <trkpt lat="43.39207" lon="5.46111">
        <ele>494</ele>
        <time>2015-05-08T10:04:48Z</time>
      </trkpt>
      <trkpt lat="43.39208" lon="5.46098">
        <ele>494</ele>
        <time>2015-05-08T10:04:57Z</time>
      </trkpt>
      <trkpt lat="43.39211" lon="5.46086">
        <ele>494</ele>
        <time>2015-05-08T10:05:06Z</time>
      </trkpt>
      <trkpt lat="43.39219" lon="5.46073">
        <ele>494</ele>
        <time>2015-05-08T10:05:16Z</time>
      </trkpt>
      <trkpt lat="43.39229" lon="5.46063">
        <ele>494</ele>
        <time>2015-05-08T10:05:26Z</time>
      </trkpt>
      <trkpt lat="43.39239" lon="5.46055">
        <ele>494</ele>
        <time>2015-05-08T10:05:36Z</time>
      </trkpt>
      <trkpt lat="43.39248" lon="5.46049">
        <ele>494</ele>
        <time>2015-05-08T10:05:45Z</time>
      </trkpt>
      <trkpt lat="43.39258" lon="5.46044">
        <ele>494</ele>
        <time>2015-05-08T10:05:54Z</time>
      </trkpt>
      <trkpt lat="43.39268" lon="5.46037">
        <ele>494</ele>
        <time>2015-05-08T10:06:04Z</time>
      </trkpt>
      <trkpt lat="43.39278" lon="5.46031">
        <ele>494</ele>
        <time>2015-05-08T10:06:13Z</time>
      </trkpt>
      <trkpt lat="43.39288" lon="5.46024">
        <ele>494</ele>
        <time>2015-05-08T10:06:22Z</time>
      </trkpt>
      <trkpt lat="43.39299" lon="5.46016">
        <ele>494</ele>
        <time>2015-05-08T10:06:32Z</time>
      </trkpt>
      <trkpt lat="43.39309" lon="5.46007">
        <ele>494</ele>
        <time>2015-05-08T10:06:42Z</time>
      </trkpt>
      <trkpt lat="43.39317" lon="5.45998">
        <ele>494</ele>
        <time>2015-05-08T10:06:52Z</time>
      </trkpt>
      <trkpt lat="43.39325" lon="5.45989">
        <ele>496</ele>
        <time>2015-05-08T10:07:02Z</time>
      </trkpt>
      <trkpt lat="43.39329" lon="5.45974">
        <ele>497</ele>
        <time>2015-05-08T10:07:12Z</time>
      </trkpt>
      <trkpt lat="43.39327" lon="5.45959">
        <ele>497</ele>
        <time>2015-05-08T10:07:22Z</time>
      </trkpt>
      <trkpt lat="43.39322" lon="5.45948">
        <ele>497</ele>
        <time>2015-05-08T10:07:31Z</time>
      </trkpt>
      <trkpt lat="43.39319" lon="5.45942">
        <ele>497</ele>
        <time>2015-05-08T10:07:40Z</time>
      </trkpt>
      <trkpt lat="43.39314" lon="5.45934">
        <ele>495</ele>
        <time>2015-05-08T10:07:50Z</time>
      </trkpt>
      <trkpt lat="43.39308" lon="5.45927">
        <ele>495</ele>
        <time>2015-05-08T10:07:59Z</time>
      </trkpt>
      <trkpt lat="43.39297" lon="5.45917">
        <ele>494</ele>
        <time>2015-05-08T10:08:09Z</time>
      </trkpt>
      <trkpt lat="43.3929" lon="5.4591">
        <ele>494</ele>
        <time>2015-05-08T10:08:18Z</time>
      </trkpt>
      <trkpt lat="43.3928" lon="5.459">
        <ele>492</ele>
        <time>2015-05-08T10:08:28Z</time>
      </trkpt>
      <trkpt lat="43.3927" lon="5.4589">
        <ele>492</ele>
        <time>2015-05-08T10:08:37Z</time>
      </trkpt>
      <trkpt lat="43.3926" lon="5.45878">
        <ele>492</ele>
        <time>2015-05-08T10:08:48Z</time>
      </trkpt>
      <trkpt lat="43.39256" lon="5.45866">
        <ele>492</ele>
        <time>2015-05-08T10:08:57Z</time>
      </trkpt>
      <trkpt lat="43.39251" lon="5.45854">
        <ele>492</ele>
        <time>2015-05-08T10:09:06Z</time>
      </trkpt>
      <trkpt lat="43.39248" lon="5.4584">
        <ele>492</ele>
        <time>2015-05-08T10:09:15Z</time>
      </trkpt>
      <trkpt lat="43.39247" lon="5.45826">
        <ele>492</ele>
        <time>2015-05-08T10:09:24Z</time>
      </trkpt>
      <trkpt lat="43.39248" lon="5.45812">
        <ele>492</ele>
        <time>2015-05-08T10:09:33Z</time>
      </trkpt>
      <trkpt lat="43.39252" lon="5.45799">
        <ele>492</ele>
        <time>2015-05-08T10:09:43Z</time>
      </trkpt>
      <trkpt lat="43.39257" lon="5.45787">
        <ele>492</ele>
        <time>2015-05-08T10:09:52Z</time>
      </trkpt>
      <trkpt lat="43.39264" lon="5.45776">
        <ele>492</ele>
        <time>2015-05-08T10:10:01Z</time>
      </trkpt>
      <trkpt lat="43.39273" lon="5.45767">
        <ele>494</ele>
        <time>2015-05-08T10:10:11Z</time>
      </trkpt>
      <trkpt lat="43.39282" lon="5.45759">
        <ele>496</ele>
        <time>2015-05-08T10:10:20Z</time>
      </trkpt>
      <trkpt lat="43.39292" lon="5.4575">
        <ele>496</ele>
        <time>2015-05-08T10:10:29Z</time>
      </trkpt>
      <trkpt lat="43.39301" lon="5.45742">
        <ele>496</ele>
        <time>2015-05-08T10:10:38Z</time>
      </trkpt>
      <trkpt lat="43.3931" lon="5.45735">
        <ele>496</ele>
        <time>2015-05-08T10:10:47Z</time>
      </trkpt>
      <trkpt lat="43.3932" lon="5.45727">
        <ele>496</ele>
        <time>2015-05-08T10:10:57Z</time>
      </trkpt>
      <trkpt lat="43.3933" lon="5.45718">
        <ele>496</ele>
        <time>2015-05-08T10:11:07Z</time>
      </trkpt>
      <trkpt lat="43.3934" lon="5.4571">
        <ele>497</ele>
        <time>2015-05-08T10:11:17Z</time>
      </trkpt>
      <trkpt lat="43.39351" lon="5.457">
        <ele>499</ele>
        <time>2015-05-08T10:11:27Z</time>
      </trkpt>
      <trkpt lat="43.39359" lon="5.4569">
        <ele>501</ele>
        <time>2015-05-08T10:11:37Z</time>
      </trkpt>
      <trkpt lat="43.39368" lon="5.45681">
        <ele>504</ele>
        <time>2015-05-08T10:11:47Z</time>
      </trkpt>
      <trkpt lat="43.39378" lon="5.45671">
        <ele>505</ele>
        <time>2015-05-08T10:11:57Z</time>
      </trkpt>
      <trkpt lat="43.39388" lon="5.45662">
        <ele>506</ele>
        <time>2015-05-08T10:12:07Z</time>
      </trkpt>
      <trkpt lat="43.39399" lon="5.45651">
        <ele>507</ele>
        <time>2015-05-08T10:12:17Z</time>
      </trkpt>
      <trkpt lat="43.39412" lon="5.45641">
        <ele>507</ele>
        <time>2015-05-08T10:12:27Z</time>
      </trkpt>
      <trkpt lat="43.3942" lon="5.45632">
        <ele>506</ele>
        <time>2015-05-08T10:12:36Z</time>
      </trkpt>
      <trkpt lat="43.3943" lon="5.45622">
        <ele>506</ele>
        <time>2015-05-08T10:12:46Z</time>
      </trkpt>
      <trkpt lat="43.39439" lon="5.45614">
        <ele>506</ele>
        <time>2015-05-08T10:12:56Z</time>
      </trkpt>
      <trkpt lat="43.39449" lon="5.45606">
        <ele>506</ele>
        <time>2015-05-08T10:13:06Z</time>
      </trkpt>
      <trkpt lat="43.39458" lon="5.45601">
        <ele>506</ele>
        <time>2015-05-08T10:13:15Z</time>
      </trkpt>
      <trkpt lat="43.39467" lon="5.45594">
        <ele>506</ele>
        <time>2015-05-08T10:13:24Z</time>
      </trkpt>
      <trkpt lat="43.39472" lon="5.45582">
        <ele>506</ele>
        <time>2015-05-08T10:13:33Z</time>
      </trkpt>
      <trkpt lat="43.39468" lon="5.4557">
        <ele>506</ele>
        <time>2015-05-08T10:13:43Z</time>
      </trkpt>
      <trkpt lat="43.39473" lon="5.45571">
        <ele>506</ele>
        <time>2015-05-08T10:13:52Z</time>
      </trkpt>
      <trkpt lat="43.39477" lon="5.45575">
        <ele>506</ele>
        <time>2015-05-08T10:14:01Z</time>
      </trkpt>
      <trkpt lat="43.3948" lon="5.45578">
        <ele>508</ele>
        <time>2015-05-08T10:14:12Z</time>
      </trkpt>
      <trkpt lat="43.39485" lon="5.45573">
        <ele>508</ele>
        <time>2015-05-08T10:15:00Z</time>
      </trkpt>
      <trkpt lat="43.39484" lon="5.45574">
        <ele>508</ele>
        <time>2015-05-08T10:15:17Z</time>
      </trkpt>
      <trkpt lat="43.39484" lon="5.45576">
        <ele>509</ele>
        <time>2015-05-08T10:15:26Z</time>
      </trkpt>
      <trkpt lat="43.39484" lon="5.45575">
        <ele>511</ele>
        <time>2015-05-08T10:15:44Z</time>
      </trkpt>
      <trkpt lat="43.39481" lon="5.45577">
        <ele>515</ele>
        <time>2015-05-08T10:15:59Z</time>
      </trkpt>
      <trkpt lat="43.39478" lon="5.45578">
        <ele>515</ele>
        <time>2015-05-08T10:16:09Z</time>
      </trkpt>
      <trkpt lat="43.39476" lon="5.45579">
        <ele>515</ele>
        <time>2015-05-08T10:16:24Z</time>
      </trkpt>
      <trkpt lat="43.3948" lon="5.45579">
        <ele>515</ele>
        <time>2015-05-08T10:16:38Z</time>
      </trkpt>
      <trkpt lat="43.39481" lon="5.45582">
        <ele>512</ele>
        <time>2015-05-08T10:16:50Z</time>
      </trkpt>
      <trkpt lat="43.39481" lon="5.45581">
        <ele>508</ele>
        <time>2015-05-08T10:17:02Z</time>
      </trkpt>
      <trkpt lat="43.39479" lon="5.45582">
        <ele>505</ele>
        <time>2015-05-08T10:17:23Z</time>
      </trkpt>
      <trkpt lat="43.39475" lon="5.45584">
        <ele>505</ele>
        <time>2015-05-08T10:17:33Z</time>
      </trkpt>
      <trkpt lat="43.39478" lon="5.45585">
        <ele>505</ele>
        <time>2015-05-08T10:17:49Z</time>
      </trkpt>
      <trkpt lat="43.39478" lon="5.45584">
        <ele>505</ele>
        <time>2015-05-08T10:18:07Z</time>
      </trkpt>
      <trkpt lat="43.39481" lon="5.45583">
        <ele>505</ele>
        <time>2015-05-08T10:18:18Z</time>
      </trkpt>
      <trkpt lat="43.39479" lon="5.4558">
        <ele>505</ele>
        <time>2015-05-08T10:18:29Z</time>
      </trkpt>
      <trkpt lat="43.39474" lon="5.45579">
        <ele>512</ele>
        <time>2015-05-08T10:18:40Z</time>
      </trkpt>
      <trkpt lat="43.39481" lon="5.45576">
        <ele>513</ele>
        <time>2015-05-08T10:18:51Z</time>
      </trkpt>
      <trkpt lat="43.39486" lon="5.45575">
        <ele>509</ele>
        <time>2015-05-08T10:19:04Z</time>
      </trkpt>
      <trkpt lat="43.39488" lon="5.45572">
        <ele>503</ele>
        <time>2015-05-08T10:19:18Z</time>
      </trkpt>
      <trkpt lat="43.39489" lon="5.45571">
        <ele>503</ele>
        <time>2015-05-08T10:19:45Z</time>
      </trkpt>
      <trkpt lat="43.39492" lon="5.45573">
        <ele>503</ele>
        <time>2015-05-08T10:19:56Z</time>
      </trkpt>
      <trkpt lat="43.39498" lon="5.4557">
        <ele>503</ele>
        <time>2015-05-08T10:20:06Z</time>
      </trkpt>
      <trkpt lat="43.39504" lon="5.45568">
        <ele>503</ele>
        <time>2015-05-08T10:20:16Z</time>
      </trkpt>
      <trkpt lat="43.3951" lon="5.45567">
        <ele>504</ele>
        <time>2015-05-08T10:20:27Z</time>
      </trkpt>
      <trkpt lat="43.39516" lon="5.4557">
        <ele>505</ele>
        <time>2015-05-08T10:20:36Z</time>
      </trkpt>
      <trkpt lat="43.39521" lon="5.45571">
        <ele>506</ele>
        <time>2015-05-08T10:20:46Z</time>
      </trkpt>
      <trkpt lat="43.39524" lon="5.4557">
        <ele>508</ele>
        <time>2015-05-08T10:20:55Z</time>
      </trkpt>
      <trkpt lat="43.3953" lon="5.45569">
        <ele>509</ele>
        <time>2015-05-08T10:21:04Z</time>
      </trkpt>
      <trkpt lat="43.39537" lon="5.45569">
        <ele>510</ele>
        <time>2015-05-08T10:21:15Z</time>
      </trkpt>
      <trkpt lat="43.39539" lon="5.45575">
        <ele>513</ele>
        <time>2015-05-08T10:21:26Z</time>
      </trkpt>
      <trkpt lat="43.39543" lon="5.45578">
        <ele>515</ele>
        <time>2015-05-08T10:21:37Z</time>
      </trkpt>
      <trkpt lat="43.39545" lon="5.45585">
        <ele>518</ele>
        <time>2015-05-08T10:21:48Z</time>
      </trkpt>
      <trkpt lat="43.3955" lon="5.45584">
        <ele>519</ele>
        <time>2015-05-08T10:21:59Z</time>
      </trkpt>
      <trkpt lat="43.39553" lon="5.45584">
        <ele>524</ele>
        <time>2015-05-08T10:22:08Z</time>
      </trkpt>
      <trkpt lat="43.39556" lon="5.45591">
        <ele>525</ele>
        <time>2015-05-08T10:22:21Z</time>
      </trkpt>
      <trkpt lat="43.3956" lon="5.45595">
        <ele>525</ele>
        <time>2015-05-08T10:22:34Z</time>
      </trkpt>
      <trkpt lat="43.39563" lon="5.45602">
        <ele>528</ele>
        <time>2015-05-08T10:22:47Z</time>
      </trkpt>
      <trkpt lat="43.39566" lon="5.45608">
        <ele>529</ele>
        <time>2015-05-08T10:22:58Z</time>
      </trkpt>
      <trkpt lat="43.39572" lon="5.45607">
        <ele>529</ele>
        <time>2015-05-08T10:23:09Z</time>
      </trkpt>
      <trkpt lat="43.39576" lon="5.45612">
        <ele>530</ele>
        <time>2015-05-08T10:23:20Z</time>
      </trkpt>
      <trkpt lat="43.39576" lon="5.45616">
        <ele>532</ele>
        <time>2015-05-08T10:23:34Z</time>
      </trkpt>
      <trkpt lat="43.39579" lon="5.45619">
        <ele>536</ele>
        <time>2015-05-08T10:23:47Z</time>
      </trkpt>
      <trkpt lat="43.39581" lon="5.45617">
        <ele>536</ele>
        <time>2015-05-08T10:23:58Z</time>
      </trkpt>
      <trkpt lat="43.39581" lon="5.45614">
        <ele>536</ele>
        <time>2015-05-08T10:24:08Z</time>
      </trkpt>
      <trkpt lat="43.39581" lon="5.45612">
        <ele>540</ele>
        <time>2015-05-08T10:24:22Z</time>
      </trkpt>
      <trkpt lat="43.39586" lon="5.45617">
        <ele>536</ele>
        <time>2015-05-08T10:24:32Z</time>
      </trkpt>
      <trkpt lat="43.39587" lon="5.45613">
        <ele>535</ele>
        <time>2015-05-08T10:24:44Z</time>
      </trkpt>
      <trkpt lat="43.39591" lon="5.45616">
        <ele>531</ele>
        <time>2015-05-08T10:24:56Z</time>
      </trkpt>
      <trkpt lat="43.39589" lon="5.45616">
        <ele>529</ele>
        <time>2015-05-08T10:25:15Z</time>
      </trkpt>
      <trkpt lat="43.39586" lon="5.45615">
        <ele>529</ele>
        <time>2015-05-08T10:25:25Z</time>
      </trkpt>
      <trkpt lat="43.39591" lon="5.45614">
        <ele>531</ele>
        <time>2015-05-08T10:25:35Z</time>
      </trkpt>
      <trkpt lat="43.39595" lon="5.45613">
        <ele>531</ele>
        <time>2015-05-08T10:25:45Z</time>
      </trkpt>
      <trkpt lat="43.39601" lon="5.45611">
        <ele>531</ele>
        <time>2015-05-08T10:25:57Z</time>
      </trkpt>
      <trkpt lat="43.39605" lon="5.45608">
        <ele>531</ele>
        <time>2015-05-08T10:26:09Z</time>
      </trkpt>
      <trkpt lat="43.39607" lon="5.45605">
        <ele>531</ele>
        <time>2015-05-08T10:26:19Z</time>
      </trkpt>
      <trkpt lat="43.39608" lon="5.45602">
        <ele>531</ele>
        <time>2015-05-08T10:26:31Z</time>
      </trkpt>
      <trkpt lat="43.39609" lon="5.456">
        <ele>531</ele>
        <time>2015-05-08T10:26:44Z</time>
      </trkpt>
      <trkpt lat="43.39608" lon="5.45599">
        <ele>531</ele>
        <time>2015-05-08T10:27:05Z</time>
      </trkpt>
      <trkpt lat="43.39607" lon="5.45601">
        <ele>531</ele>
        <time>2015-05-08T10:27:14Z</time>
      </trkpt>
      <trkpt lat="43.39606" lon="5.45601">
        <ele>531</ele>
        <time>2015-05-08T10:27:24Z</time>
      </trkpt>
      <trkpt lat="43.39607" lon="5.456">
        <ele>531</ele>
        <time>2015-05-08T10:27:34Z</time>
      </trkpt>
      <trkpt lat="43.39609" lon="5.45593">
        <ele>531</ele>
        <time>2015-05-08T10:27:46Z</time>
      </trkpt>
      <trkpt lat="43.39607" lon="5.45589">
        <ele>531</ele>
        <time>2015-05-08T10:27:57Z</time>
      </trkpt>
      <trkpt lat="43.39608" lon="5.45584">
        <ele>527</ele>
        <time>2015-05-08T10:28:08Z</time>
      </trkpt>
      <trkpt lat="43.39606" lon="5.45578">
        <ele>525</ele>
        <time>2015-05-08T10:28:19Z</time>
      </trkpt>
      <trkpt lat="43.39604" lon="5.45575">
        <ele>522</ele>
        <time>2015-05-08T10:28:32Z</time>
      </trkpt>
      <trkpt lat="43.39603" lon="5.4557">
        <ele>520</ele>
        <time>2015-05-08T10:28:42Z</time>
      </trkpt>
      <trkpt lat="43.39602" lon="5.45569">
        <ele>520</ele>
        <time>2015-05-08T10:28:51Z</time>
      </trkpt>
      <trkpt lat="43.396" lon="5.45567">
        <ele>520</ele>
        <time>2015-05-08T10:29:00Z</time>
      </trkpt>
      <trkpt lat="43.39597" lon="5.45566">
        <ele>520</ele>
        <time>2015-05-08T10:29:09Z</time>
      </trkpt>
      <trkpt lat="43.39595" lon="5.45566">
        <ele>520</ele>
        <time>2015-05-08T10:29:23Z</time>
      </trkpt>
      <trkpt lat="43.39596" lon="5.45566">
        <ele>521</ele>
        <time>2015-05-08T10:29:33Z</time>
      </trkpt>
      <trkpt lat="43.39597" lon="5.45566">
        <ele>521</ele>
        <time>2015-05-08T10:29:43Z</time>
      </trkpt>
      <trkpt lat="43.39601" lon="5.45568">
        <ele>523</ele>
        <time>2015-05-08T10:29:52Z</time>
      </trkpt>
      <trkpt lat="43.39604" lon="5.45571">
        <ele>525</ele>
        <time>2015-05-08T10:30:02Z</time>
      </trkpt>
      <trkpt lat="43.39605" lon="5.45576">
        <ele>529</ele>
        <time>2015-05-08T10:30:11Z</time>
      </trkpt>
      <trkpt lat="43.39609" lon="5.45578">
        <ele>531</ele>
        <time>2015-05-08T10:30:20Z</time>
      </trkpt>
      <trkpt lat="43.39614" lon="5.4558">
        <ele>531</ele>
        <time>2015-05-08T10:30:30Z</time>
      </trkpt>
      <trkpt lat="43.39622" lon="5.4558">
        <ele>532</ele>
        <time>2015-05-08T10:30:40Z</time>
      </trkpt>
      <trkpt lat="43.39625" lon="5.45584">
        <ele>533</ele>
        <time>2015-05-08T10:30:49Z</time>
      </trkpt>
      <trkpt lat="43.39629" lon="5.45587">
        <ele>535</ele>
        <time>2015-05-08T10:31:01Z</time>
      </trkpt>
      <trkpt lat="43.39632" lon="5.45589">
        <ele>538</ele>
        <time>2015-05-08T10:31:10Z</time>
      </trkpt>
      <trkpt lat="43.39637" lon="5.45592">
        <ele>539</ele>
        <time>2015-05-08T10:31:22Z</time>
      </trkpt>
      <trkpt lat="43.39642" lon="5.45595">
        <ele>540</ele>
        <time>2015-05-08T10:31:33Z</time>
      </trkpt>
      <trkpt lat="43.39647" lon="5.45597">
        <ele>541</ele>
        <time>2015-05-08T10:31:43Z</time>
      </trkpt>
      <trkpt lat="43.3965" lon="5.456">
        <ele>542</ele>
        <time>2015-05-08T10:31:52Z</time>
      </trkpt>
      <trkpt lat="43.39653" lon="5.45603">
        <ele>545</ele>
        <time>2015-05-08T10:32:02Z</time>
      </trkpt>
      <trkpt lat="43.39658" lon="5.45607">
        <ele>546</ele>
        <time>2015-05-08T10:32:13Z</time>
      </trkpt>
      <trkpt lat="43.39663" lon="5.45611">
        <ele>548</ele>
        <time>2015-05-08T10:32:24Z</time>
      </trkpt>
      <trkpt lat="43.39671" lon="5.45613">
        <ele>550</ele>
        <time>2015-05-08T10:32:35Z</time>
      </trkpt>
      <trkpt lat="43.39675" lon="5.45617">
        <ele>551</ele>
        <time>2015-05-08T10:32:44Z</time>
      </trkpt>
      <trkpt lat="43.39679" lon="5.4562">
        <ele>552</ele>
        <time>2015-05-08T10:32:53Z</time>
      </trkpt>
      <trkpt lat="43.39686" lon="5.45626">
        <ele>552</ele>
        <time>2015-05-08T10:33:03Z</time>
      </trkpt>
      <trkpt lat="43.39692" lon="5.45628">
        <ele>554</ele>
        <time>2015-05-08T10:33:12Z</time>
      </trkpt>
      <trkpt lat="43.39696" lon="5.45633">
        <ele>556</ele>
        <time>2015-05-08T10:33:21Z</time>
      </trkpt>
      <trkpt lat="43.39703" lon="5.45634">
        <ele>557</ele>
        <time>2015-05-08T10:33:31Z</time>
      </trkpt>
      <trkpt lat="43.3971" lon="5.45636">
        <ele>557</ele>
        <time>2015-05-08T10:33:41Z</time>
      </trkpt>
      <trkpt lat="43.39715" lon="5.45637">
        <ele>557</ele>
        <time>2015-05-08T10:33:50Z</time>
      </trkpt>
      <trkpt lat="43.3972" lon="5.4564">
        <ele>560</ele>
        <time>2015-05-08T10:33:59Z</time>
      </trkpt>
      <trkpt lat="43.39722" lon="5.45643">
        <ele>560</ele>
        <time>2015-05-08T10:34:08Z</time>
      </trkpt>
      <trkpt lat="43.39725" lon="5.45652">
        <ele>560</ele>
        <time>2015-05-08T10:34:18Z</time>
      </trkpt>
      <trkpt lat="43.39727" lon="5.45659">
        <ele>561</ele>
        <time>2015-05-08T10:34:27Z</time>
      </trkpt>
      <trkpt lat="43.39731" lon="5.45664">
        <ele>565</ele>
        <time>2015-05-08T10:34:36Z</time>
      </trkpt>
      <trkpt lat="43.3973" lon="5.45665">
        <ele>565</ele>
        <time>2015-05-08T10:34:54Z</time>
      </trkpt>
      <trkpt lat="43.39732" lon="5.45667">
        <ele>566</ele>
        <time>2015-05-08T10:35:03Z</time>
      </trkpt>
      <trkpt lat="43.39738" lon="5.45672">
        <ele>566</ele>
        <time>2015-05-08T10:35:14Z</time>
      </trkpt>
      <trkpt lat="43.39744" lon="5.45678">
        <ele>566</ele>
        <time>2015-05-08T10:35:23Z</time>
      </trkpt>
      <trkpt lat="43.39751" lon="5.45681">
        <ele>566</ele>
        <time>2015-05-08T10:35:35Z</time>
      </trkpt>
      <trkpt lat="43.39755" lon="5.45684">
        <ele>566</ele>
        <time>2015-05-08T10:35:45Z</time>
      </trkpt>
      <trkpt lat="43.39756" lon="5.45686">
        <ele>568</ele>
        <time>2015-05-08T10:35:57Z</time>
      </trkpt>
      <trkpt lat="43.3976" lon="5.45689">
        <ele>570</ele>
        <time>2015-05-08T10:36:06Z</time>
      </trkpt>
      <trkpt lat="43.39762" lon="5.4569">
        <ele>574</ele>
        <time>2015-05-08T10:36:19Z</time>
      </trkpt>
      <trkpt lat="43.39765" lon="5.4569">
        <ele>575</ele>
        <time>2015-05-08T10:36:35Z</time>
      </trkpt>
      <trkpt lat="43.39766" lon="5.45693">
        <ele>579</ele>
        <time>2015-05-08T10:36:46Z</time>
      </trkpt>
      <trkpt lat="43.3977" lon="5.45696">
        <ele>579</ele>
        <time>2015-05-08T10:36:57Z</time>
      </trkpt>
      <trkpt lat="43.39774" lon="5.45697">
        <ele>578</ele>
        <time>2015-05-08T10:37:07Z</time>
      </trkpt>
      <trkpt lat="43.39775" lon="5.45698">
        <ele>578</ele>
        <time>2015-05-08T10:37:17Z</time>
      </trkpt>
      <trkpt lat="43.39777" lon="5.45701">
        <ele>578</ele>
        <time>2015-05-08T10:37:31Z</time>
      </trkpt>
      <trkpt lat="43.39779" lon="5.45701">
        <ele>579</ele>
        <time>2015-05-08T10:37:45Z</time>
      </trkpt>
      <trkpt lat="43.3978" lon="5.45701">
        <ele>579</ele>
        <time>2015-05-08T10:37:56Z</time>
      </trkpt>
      <trkpt lat="43.3978" lon="5.45703">
        <ele>579</ele>
        <time>2015-05-08T10:38:10Z</time>
      </trkpt>
      <trkpt lat="43.39778" lon="5.45699">
        <ele>581</ele>
        <time>2015-05-08T10:38:20Z</time>
      </trkpt>
      <trkpt lat="43.39778" lon="5.45699">
        <ele>582</ele>
        <time>2015-05-08T10:38:35Z</time>
      </trkpt>
      <trkpt lat="43.39778" lon="5.45698">
        <ele>581</ele>
        <time>2015-05-08T10:39:11Z</time>
      </trkpt>
      <trkpt lat="43.39777" lon="5.45696">
        <ele>580</ele>
        <time>2015-05-08T10:40:13Z</time>
      </trkpt>
      <trkpt lat="43.39778" lon="5.45697">
        <ele>579</ele>
        <time>2015-05-08T10:40:42Z</time>
      </trkpt>
      <trkpt lat="43.39778" lon="5.45695">
        <ele>579</ele>
        <time>2015-05-08T10:40:57Z</time>
      </trkpt>
      <trkpt lat="43.39779" lon="5.45697">
        <ele>579</ele>
        <time>2015-05-08T10:41:12Z</time>
      </trkpt>
      <trkpt lat="43.39781" lon="5.45701">
        <ele>579</ele>
        <time>2015-05-08T10:41:24Z</time>
      </trkpt>
      <trkpt lat="43.39785" lon="5.45709">
        <ele>579</ele>
        <time>2015-05-08T10:41:34Z</time>
      </trkpt>
      <trkpt lat="43.39785" lon="5.45715">
        <ele>579</ele>
        <time>2015-05-08T10:41:44Z</time>
      </trkpt>
      <trkpt lat="43.39788" lon="5.45721">
        <ele>579</ele>
        <time>2015-05-08T10:41:54Z</time>
      </trkpt>
      <trkpt lat="43.39791" lon="5.45723">
        <ele>579</ele>
        <time>2015-05-08T10:42:05Z</time>
      </trkpt>
      <trkpt lat="43.39796" lon="5.45727">
        <ele>579</ele>
        <time>2015-05-08T10:42:16Z</time>
      </trkpt>
      <trkpt lat="43.39801" lon="5.45733">
        <ele>579</ele>
        <time>2015-05-08T10:42:25Z</time>
      </trkpt>
      <trkpt lat="43.39802" lon="5.45741">
        <ele>579</ele>
        <time>2015-05-08T10:42:36Z</time>
      </trkpt>
      <trkpt lat="43.39803" lon="5.45751">
        <ele>579</ele>
        <time>2015-05-08T10:42:47Z</time>
      </trkpt>
      <trkpt lat="43.39802" lon="5.45754">
        <ele>579</ele>
        <time>2015-05-08T10:42:57Z</time>
      </trkpt>
      <trkpt lat="43.39802" lon="5.45756">
        <ele>579</ele>
        <time>2015-05-08T10:43:06Z</time>
      </trkpt>
      <trkpt lat="43.39805" lon="5.45759">
        <ele>579</ele>
        <time>2015-05-08T10:43:17Z</time>
      </trkpt>
      <trkpt lat="43.39806" lon="5.45763">
        <ele>579</ele>
        <time>2015-05-08T10:43:26Z</time>
      </trkpt>
      <trkpt lat="43.39808" lon="5.45767">
        <ele>581</ele>
        <time>2015-05-08T10:43:36Z</time>
      </trkpt>
      <trkpt lat="43.39807" lon="5.45773">
        <ele>586</ele>
        <time>2015-05-08T10:43:47Z</time>
      </trkpt>
      <trkpt lat="43.3981" lon="5.45782">
        <ele>587</ele>
        <time>2015-05-08T10:43:57Z</time>
      </trkpt>
      <trkpt lat="43.39812" lon="5.4579">
        <ele>587</ele>
        <time>2015-05-08T10:44:06Z</time>
      </trkpt>
      <trkpt lat="43.39818" lon="5.45794">
        <ele>586</ele>
        <time>2015-05-08T10:44:16Z</time>
      </trkpt>
      <trkpt lat="43.39819" lon="5.45798">
        <ele>585</ele>
        <time>2015-05-08T10:44:27Z</time>
      </trkpt>
      <trkpt lat="43.39822" lon="5.45808">
        <ele>585</ele>
        <time>2015-05-08T10:44:37Z</time>
      </trkpt>
      <trkpt lat="43.39824" lon="5.45816">
        <ele>585</ele>
        <time>2015-05-08T10:44:46Z</time>
      </trkpt>
      <trkpt lat="43.39828" lon="5.45828">
        <ele>583</ele>
        <time>2015-05-08T10:44:56Z</time>
      </trkpt>
      <trkpt lat="43.3983" lon="5.45836">
        <ele>582</ele>
        <time>2015-05-08T10:45:05Z</time>
      </trkpt>
      <trkpt lat="43.39833" lon="5.45842">
        <ele>579</ele>
        <time>2015-05-08T10:45:14Z</time>
      </trkpt>
      <trkpt lat="43.39833" lon="5.45853">
        <ele>579</ele>
        <time>2015-05-08T10:45:24Z</time>
      </trkpt>
      <trkpt lat="43.39838" lon="5.45862">
        <ele>579</ele>
        <time>2015-05-08T10:45:35Z</time>
      </trkpt>
      <trkpt lat="43.39846" lon="5.45868">
        <ele>579</ele>
        <time>2015-05-08T10:45:45Z</time>
      </trkpt>
      <trkpt lat="43.39848" lon="5.45871">
        <ele>578</ele>
        <time>2015-05-08T10:45:54Z</time>
      </trkpt>
      <trkpt lat="43.39854" lon="5.4588">
        <ele>578</ele>
        <time>2015-05-08T10:46:04Z</time>
      </trkpt>
      <trkpt lat="43.39859" lon="5.45884">
        <ele>578</ele>
        <time>2015-05-08T10:46:13Z</time>
      </trkpt>
      <trkpt lat="43.39868" lon="5.4589">
        <ele>577</ele>
        <time>2015-05-08T10:46:24Z</time>
      </trkpt>
      <trkpt lat="43.39877" lon="5.45895">
        <ele>577</ele>
        <time>2015-05-08T10:46:34Z</time>
      </trkpt>
      <trkpt lat="43.39883" lon="5.45902">
        <ele>574</ele>
        <time>2015-05-08T10:46:45Z</time>
      </trkpt>
      <trkpt lat="43.3989" lon="5.45908">
        <ele>574</ele>
        <time>2015-05-08T10:46:55Z</time>
      </trkpt>
      <trkpt lat="43.39894" lon="5.45905">
        <ele>574</ele>
        <time>2015-05-08T10:47:07Z</time>
      </trkpt>
      <trkpt lat="43.39905" lon="5.45912">
        <ele>574</ele>
        <time>2015-05-08T10:47:16Z</time>
      </trkpt>
      <trkpt lat="43.39912" lon="5.45912">
        <ele>574</ele>
        <time>2015-05-08T10:47:25Z</time>
      </trkpt>
      <trkpt lat="43.3992" lon="5.45908">
        <ele>574</ele>
        <time>2015-05-08T10:47:36Z</time>
      </trkpt>
      <trkpt lat="43.39925" lon="5.45909">
        <ele>574</ele>
        <time>2015-05-08T10:47:45Z</time>
      </trkpt>
      <trkpt lat="43.39931" lon="5.45912">
        <ele>573</ele>
        <time>2015-05-08T10:48:01Z</time>
      </trkpt>
      <trkpt lat="43.39938" lon="5.45914">
        <ele>573</ele>
        <time>2015-05-08T10:48:11Z</time>
      </trkpt>
      <trkpt lat="43.3995" lon="5.4592">
        <ele>573</ele>
        <time>2015-05-08T10:48:23Z</time>
      </trkpt>
      <trkpt lat="43.39965" lon="5.45928">
        <ele>573</ele>
        <time>2015-05-08T10:48:34Z</time>
      </trkpt>
      <trkpt lat="43.39965" lon="5.45939">
        <ele>568</ele>
        <time>2015-05-08T10:48:44Z</time>
      </trkpt>
      <trkpt lat="43.39969" lon="5.45948">
        <ele>563</ele>
        <time>2015-05-08T10:48:54Z</time>
      </trkpt>
      <trkpt lat="43.39972" lon="5.45953">
        <ele>560</ele>
        <time>2015-05-08T10:49:03Z</time>
      </trkpt>
      <trkpt lat="43.39976" lon="5.45961">
        <ele>560</ele>
        <time>2015-05-08T10:49:12Z</time>
      </trkpt>
      <trkpt lat="43.3998" lon="5.45964">
        <ele>560</ele>
        <time>2015-05-08T10:49:22Z</time>
      </trkpt>
      <trkpt lat="43.39988" lon="5.45962">
        <ele>560</ele>
        <time>2015-05-08T10:49:33Z</time>
      </trkpt>
      <trkpt lat="43.3999" lon="5.4596">
        <ele>560</ele>
        <time>2015-05-08T10:49:43Z</time>
      </trkpt>
      <trkpt lat="43.39991" lon="5.45959">
        <ele>560</ele>
        <time>2015-05-08T10:49:57Z</time>
      </trkpt>
      <trkpt lat="43.39992" lon="5.45961">
        <ele>560</ele>
        <time>2015-05-08T10:50:11Z</time>
      </trkpt>
      <trkpt lat="43.39996" lon="5.45971">
        <ele>560</ele>
        <time>2015-05-08T10:50:21Z</time>
      </trkpt>
      <trkpt lat="43.39999" lon="5.45976">
        <ele>559</ele>
        <time>2015-05-08T10:50:35Z</time>
      </trkpt>
      <trkpt lat="43.40001" lon="5.45983">
        <ele>557</ele>
        <time>2015-05-08T10:50:44Z</time>
      </trkpt>
      <trkpt lat="43.40004" lon="5.45989">
        <ele>556</ele>
        <time>2015-05-08T10:50:55Z</time>
      </trkpt>
      <trkpt lat="43.40009" lon="5.45995">
        <ele>556</ele>
        <time>2015-05-08T10:51:05Z</time>
      </trkpt>
      <trkpt lat="43.40008" lon="5.46003">
        <ele>556</ele>
        <time>2015-05-08T10:51:14Z</time>
      </trkpt>
      <trkpt lat="43.40007" lon="5.4601">
        <ele>556</ele>
        <time>2015-05-08T10:51:28Z</time>
      </trkpt>
      <trkpt lat="43.40009" lon="5.46013">
        <ele>556</ele>
        <time>2015-05-08T10:51:46Z</time>
      </trkpt>
      <trkpt lat="43.4001" lon="5.46014">
        <ele>555</ele>
        <time>2015-05-08T10:52:05Z</time>
      </trkpt>
      <trkpt lat="43.40011" lon="5.46013">
        <ele>553</ele>
        <time>2015-05-08T10:52:16Z</time>
      </trkpt>
      <trkpt lat="43.40012" lon="5.46008">
        <ele>553</ele>
        <time>2015-05-08T10:52:28Z</time>
      </trkpt>
      <trkpt lat="43.40013" lon="5.46006">
        <ele>553</ele>
        <time>2015-05-08T10:52:37Z</time>
      </trkpt>
      <trkpt lat="43.40015" lon="5.46003">
        <ele>553</ele>
        <time>2015-05-08T10:52:56Z</time>
      </trkpt>
      <trkpt lat="43.40015" lon="5.46002">
        <ele>553</ele>
        <time>2015-05-08T10:53:08Z</time>
      </trkpt>
      <trkpt lat="43.40014" lon="5.46">
        <ele>553</ele>
        <time>2015-05-08T10:53:19Z</time>
      </trkpt>
      <trkpt lat="43.40017" lon="5.46003">
        <ele>553</ele>
        <time>2015-05-08T10:53:39Z</time>
      </trkpt>
      <trkpt lat="43.40022" lon="5.46003">
        <ele>553</ele>
        <time>2015-05-08T10:53:48Z</time>
      </trkpt>
      <trkpt lat="43.40025" lon="5.46004">
        <ele>553</ele>
        <time>2015-05-08T10:54:01Z</time>
      </trkpt>
      <trkpt lat="43.40031" lon="5.46003">
        <ele>553</ele>
        <time>2015-05-08T10:54:11Z</time>
      </trkpt>
      <trkpt lat="43.40033" lon="5.46">
        <ele>553</ele>
        <time>2015-05-08T10:54:20Z</time>
      </trkpt>
      <trkpt lat="43.40035" lon="5.45992">
        <ele>553</ele>
        <time>2015-05-08T10:54:32Z</time>
      </trkpt>
      <trkpt lat="43.40035" lon="5.4599">
        <ele>553</ele>
        <time>2015-05-08T10:54:42Z</time>
      </trkpt>
      <trkpt lat="43.40036" lon="5.45991">
        <ele>553</ele>
        <time>2015-05-08T10:54:59Z</time>
      </trkpt>
      <trkpt lat="43.40036" lon="5.45994">
        <ele>553</ele>
        <time>2015-05-08T10:55:10Z</time>
      </trkpt>
      <trkpt lat="43.40033" lon="5.45993">
        <ele>553</ele>
        <time>2015-05-08T10:55:21Z</time>
      </trkpt>
      <trkpt lat="43.40031" lon="5.45994">
        <ele>552</ele>
        <time>2015-05-08T10:55:32Z</time>
      </trkpt>
      <trkpt lat="43.40034" lon="5.45999">
        <ele>550</ele>
        <time>2015-05-08T10:55:42Z</time>
      </trkpt>
      <trkpt lat="43.40044" lon="5.46004">
        <ele>550</ele>
        <time>2015-05-08T10:55:53Z</time>
      </trkpt>
      <trkpt lat="43.40054" lon="5.46002">
        <ele>550</ele>
        <time>2015-05-08T10:56:03Z</time>
      </trkpt>
      <trkpt lat="43.40061" lon="5.45999">
        <ele>550</ele>
        <time>2015-05-08T10:56:13Z</time>
      </trkpt>
      <trkpt lat="43.40069" lon="5.45998">
        <ele>551</ele>
        <time>2015-05-08T10:56:23Z</time>
      </trkpt>
      <trkpt lat="43.40076" lon="5.45995">
        <ele>553</ele>
        <time>2015-05-08T10:56:33Z</time>
      </trkpt>
      <trkpt lat="43.40084" lon="5.45993">
        <ele>554</ele>
        <time>2015-05-08T10:56:43Z</time>
      </trkpt>
      <trkpt lat="43.40093" lon="5.45991">
        <ele>555</ele>
        <time>2015-05-08T10:56:53Z</time>
      </trkpt>
      <trkpt lat="43.40102" lon="5.45991">
        <ele>555</ele>
        <time>2015-05-08T10:57:03Z</time>
      </trkpt>
      <trkpt lat="43.40111" lon="5.45992">
        <ele>556</ele>
        <time>2015-05-08T10:57:13Z</time>
      </trkpt>
      <trkpt lat="43.4012" lon="5.45994">
        <ele>556</ele>
        <time>2015-05-08T10:57:23Z</time>
      </trkpt>
      <trkpt lat="43.4013" lon="5.45997">
        <ele>556</ele>
        <time>2015-05-08T10:57:33Z</time>
      </trkpt>
      <trkpt lat="43.40136" lon="5.46">
        <ele>556</ele>
        <time>2015-05-08T10:57:42Z</time>
      </trkpt>
      <trkpt lat="43.40144" lon="5.46005">
        <ele>558</ele>
        <time>2015-05-08T10:57:52Z</time>
      </trkpt>
      <trkpt lat="43.40151" lon="5.46008">
        <ele>560</ele>
        <time>2015-05-08T10:58:02Z</time>
      </trkpt>
      <trkpt lat="43.40157" lon="5.46011">
        <ele>563</ele>
        <time>2015-05-08T10:58:13Z</time>
      </trkpt>
      <trkpt lat="43.40162" lon="5.46013">
        <ele>565</ele>
        <time>2015-05-08T10:58:24Z</time>
      </trkpt>
      <trkpt lat="43.40164" lon="5.46014">
        <ele>569</ele>
        <time>2015-05-08T10:58:33Z</time>
      </trkpt>
      <trkpt lat="43.40167" lon="5.46014">
        <ele>571</ele>
        <time>2015-05-08T10:58:45Z</time>
      </trkpt>
      <trkpt lat="43.40169" lon="5.46017">
        <ele>576</ele>
        <time>2015-05-08T10:58:54Z</time>
      </trkpt>
      <trkpt lat="43.40175" lon="5.46022">
        <ele>576</ele>
        <time>2015-05-08T10:59:04Z</time>
      </trkpt>
      <trkpt lat="43.40182" lon="5.46024">
        <ele>576</ele>
        <time>2015-05-08T10:59:14Z</time>
      </trkpt>
      <trkpt lat="43.40188" lon="5.46025">
        <ele>576</ele>
        <time>2015-05-08T10:59:23Z</time>
      </trkpt>
      <trkpt lat="43.40189" lon="5.46027">
        <ele>580</ele>
        <time>2015-05-08T10:59:37Z</time>
      </trkpt>
      <trkpt lat="43.40195" lon="5.46032">
        <ele>580</ele>
        <time>2015-05-08T10:59:46Z</time>
      </trkpt>
      <trkpt lat="43.40202" lon="5.46034">
        <ele>580</ele>
        <time>2015-05-08T10:59:56Z</time>
      </trkpt>
      <trkpt lat="43.4021" lon="5.46032">
        <ele>580</ele>
        <time>2015-05-08T11:00:06Z</time>
      </trkpt>
      <trkpt lat="43.40217" lon="5.46028">
        <ele>580</ele>
        <time>2015-05-08T11:00:16Z</time>
      </trkpt>
      <trkpt lat="43.40223" lon="5.46024">
        <ele>580</ele>
        <time>2015-05-08T11:00:25Z</time>
      </trkpt>
      <trkpt lat="43.40229" lon="5.4602">
        <ele>580</ele>
        <time>2015-05-08T11:00:35Z</time>
      </trkpt>
      <trkpt lat="43.40234" lon="5.46018">
        <ele>580</ele>
        <time>2015-05-08T11:00:45Z</time>
      </trkpt>
      <trkpt lat="43.40239" lon="5.46016">
        <ele>580</ele>
        <time>2015-05-08T11:00:55Z</time>
      </trkpt>
      <trkpt lat="43.40243" lon="5.46015">
        <ele>581</ele>
        <time>2015-05-08T11:01:04Z</time>
      </trkpt>
      <trkpt lat="43.40247" lon="5.46012">
        <ele>582</ele>
        <time>2015-05-08T11:01:13Z</time>
      </trkpt>
      <trkpt lat="43.40248" lon="5.4601">
        <ele>586</ele>
        <time>2015-05-08T11:01:23Z</time>
      </trkpt>
      <trkpt lat="43.40249" lon="5.46007">
        <ele>589</ele>
        <time>2015-05-08T11:01:32Z</time>
      </trkpt>
      <trkpt lat="43.4025" lon="5.46008">
        <ele>590</ele>
        <time>2015-05-08T11:01:44Z</time>
      </trkpt>
      <trkpt lat="43.40252" lon="5.46008">
        <ele>593</ele>
        <time>2015-05-08T11:02:00Z</time>
      </trkpt>
      <trkpt lat="43.40254" lon="5.46005">
        <ele>595</ele>
        <time>2015-05-08T11:02:12Z</time>
      </trkpt>
      <trkpt lat="43.40254" lon="5.46005">
        <ele>598</ele>
        <time>2015-05-08T11:02:22Z</time>
      </trkpt>
      <trkpt lat="43.40256" lon="5.46002">
        <ele>598</ele>
        <time>2015-05-08T11:02:32Z</time>
      </trkpt>
      <trkpt lat="43.4026" lon="5.46004">
        <ele>598</ele>
        <time>2015-05-08T11:02:44Z</time>
      </trkpt>
      <trkpt lat="43.40262" lon="5.46005">
        <ele>598</ele>
        <time>2015-05-08T11:02:54Z</time>
      </trkpt>
      <trkpt lat="43.40264" lon="5.46003">
        <ele>599</ele>
        <time>2015-05-08T11:03:10Z</time>
      </trkpt>
      <trkpt lat="43.40266" lon="5.46003">
        <ele>599</ele>
        <time>2015-05-08T11:03:26Z</time>
      </trkpt>
      <trkpt lat="43.40267" lon="5.46006">
        <ele>599</ele>
        <time>2015-05-08T11:03:45Z</time>
      </trkpt>
      <trkpt lat="43.40267" lon="5.46007">
        <ele>602</ele>
        <time>2015-05-08T11:04:16Z</time>
      </trkpt>
      <trkpt lat="43.40266" lon="5.46007">
        <ele>603</ele>
        <time>2015-05-08T11:04:33Z</time>
      </trkpt>
      <trkpt lat="43.40266" lon="5.46005">
        <ele>606</ele>
        <time>2015-05-08T11:04:55Z</time>
      </trkpt>
      <trkpt lat="43.40268" lon="5.46005">
        <ele>606</ele>
        <time>2015-05-08T11:05:04Z</time>
      </trkpt>
      <trkpt lat="43.40269" lon="5.46007">
        <ele>606</ele>
        <time>2015-05-08T11:05:20Z</time>
      </trkpt>
      <trkpt lat="43.40271" lon="5.46007">
        <ele>606</ele>
        <time>2015-05-08T11:05:40Z</time>
      </trkpt>
      <trkpt lat="43.40271" lon="5.46009">
        <ele>606</ele>
        <time>2015-05-08T11:06:08Z</time>
      </trkpt>
      <trkpt lat="43.40272" lon="5.4601">
        <ele>606</ele>
        <time>2015-05-08T11:06:19Z</time>
      </trkpt>
      <trkpt lat="43.40272" lon="5.46013">
        <ele>610</ele>
        <time>2015-05-08T11:06:31Z</time>
      </trkpt>
      <trkpt lat="43.40272" lon="5.46013">
        <ele>613</ele>
        <time>2015-05-08T11:06:40Z</time>
      </trkpt>
      <trkpt lat="43.40274" lon="5.46014">
        <ele>613</ele>
        <time>2015-05-08T11:06:49Z</time>
      </trkpt>
      <trkpt lat="43.40273" lon="5.46013">
        <ele>613</ele>
        <time>2015-05-08T11:07:06Z</time>
      </trkpt>
      <trkpt lat="43.40272" lon="5.46011">
        <ele>613</ele>
        <time>2015-05-08T11:07:18Z</time>
      </trkpt>
      <trkpt lat="43.40271" lon="5.4601">
        <ele>612</ele>
        <time>2015-05-08T11:07:29Z</time>
      </trkpt>
      <trkpt lat="43.4027" lon="5.46011">
        <ele>612</ele>
        <time>2015-05-08T11:07:47Z</time>
      </trkpt>
      <trkpt lat="43.4027" lon="5.46012">
        <ele>612</ele>
        <time>2015-05-08T11:07:56Z</time>
      </trkpt>
      <trkpt lat="43.4027" lon="5.46009">
        <ele>612</ele>
        <time>2015-05-08T11:08:08Z</time>
      </trkpt>
      <trkpt lat="43.40272" lon="5.46009">
        <ele>609</ele>
        <time>2015-05-08T11:08:24Z</time>
      </trkpt>
      <trkpt lat="43.40274" lon="5.4601">
        <ele>609</ele>
        <time>2015-05-08T11:08:35Z</time>
      </trkpt>
      <trkpt lat="43.40273" lon="5.46008">
        <ele>609</ele>
        <time>2015-05-08T11:08:46Z</time>
      </trkpt>
      <trkpt lat="43.4027" lon="5.46008">
        <ele>609</ele>
        <time>2015-05-08T11:08:57Z</time>
      </trkpt>
      <trkpt lat="43.40272" lon="5.4601">
        <ele>609</ele>
        <time>2015-05-08T11:09:06Z</time>
      </trkpt>
      <trkpt lat="43.40275" lon="5.46014">
        <ele>609</ele>
        <time>2015-05-08T11:09:18Z</time>
      </trkpt>
      <trkpt lat="43.40279" lon="5.46015">
        <ele>609</ele>
        <time>2015-05-08T11:09:30Z</time>
      </trkpt>
      <trkpt lat="43.40282" lon="5.46015">
        <ele>610</ele>
        <time>2015-05-08T11:09:44Z</time>
      </trkpt>
      <trkpt lat="43.40283" lon="5.46013">
        <ele>610</ele>
        <time>2015-05-08T11:09:53Z</time>
      </trkpt>
      <trkpt lat="43.40285" lon="5.46012">
        <ele>610</ele>
        <time>2015-05-08T11:10:03Z</time>
      </trkpt>
      <trkpt lat="43.40287" lon="5.46013">
        <ele>610</ele>
        <time>2015-05-08T11:10:15Z</time>
      </trkpt>
      <trkpt lat="43.4029" lon="5.46012">
        <ele>610</ele>
        <time>2015-05-08T11:10:30Z</time>
      </trkpt>
      <trkpt lat="43.40285" lon="5.4601">
        <ele>618</ele>
        <time>2015-05-08T11:10:40Z</time>
      </trkpt>
      <trkpt lat="43.40281" lon="5.46009">
        <ele>632</ele>
        <time>2015-05-08T11:10:55Z</time>
      </trkpt>
      <trkpt lat="43.40287" lon="5.46014">
        <ele>632</ele>
        <time>2015-05-08T11:11:04Z</time>
      </trkpt>
      <trkpt lat="43.40294" lon="5.46014">
        <ele>628</ele>
        <time>2015-05-08T11:11:13Z</time>
      </trkpt>
      <trkpt lat="43.40295" lon="5.46015">
        <ele>626</ele>
        <time>2015-05-08T11:11:26Z</time>
      </trkpt>
      <trkpt lat="43.40295" lon="5.46017">
        <ele>629</ele>
        <time>2015-05-08T11:11:39Z</time>
      </trkpt>
      <trkpt lat="43.40302" lon="5.46022">
        <ele>628</ele>
        <time>2015-05-08T11:11:52Z</time>
      </trkpt>
      <trkpt lat="43.40304" lon="5.46028">
        <ele>628</ele>
        <time>2015-05-08T11:12:03Z</time>
      </trkpt>
      <trkpt lat="43.40308" lon="5.46035">
        <ele>626</ele>
        <time>2015-05-08T11:12:13Z</time>
      </trkpt>
      <trkpt lat="43.4031" lon="5.4604">
        <ele>626</ele>
        <time>2015-05-08T11:12:22Z</time>
      </trkpt>
      <trkpt lat="43.40311" lon="5.46045">
        <ele>626</ele>
        <time>2015-05-08T11:12:32Z</time>
      </trkpt>
      <trkpt lat="43.40312" lon="5.46045">
        <ele>626</ele>
        <time>2015-05-08T11:12:41Z</time>
      </trkpt>
      <trkpt lat="43.40312" lon="5.46044">
        <ele>625</ele>
        <time>2015-05-08T11:12:54Z</time>
      </trkpt>
      <trkpt lat="43.4031" lon="5.46041">
        <ele>625</ele>
        <time>2015-05-08T11:13:06Z</time>
      </trkpt>
      <trkpt lat="43.4031" lon="5.4604">
        <ele>629</ele>
        <time>2015-05-08T11:13:15Z</time>
      </trkpt>
      <trkpt lat="43.40311" lon="5.46041">
        <ele>629</ele>
        <time>2015-05-08T11:13:25Z</time>
      </trkpt>
      <trkpt lat="43.40314" lon="5.46048">
        <ele>629</ele>
        <time>2015-05-08T11:13:34Z</time>
      </trkpt>
      <trkpt lat="43.40318" lon="5.46057">
        <ele>629</ele>
        <time>2015-05-08T11:13:44Z</time>
      </trkpt>
      <trkpt lat="43.4032" lon="5.46063">
        <ele>628</ele>
        <time>2015-05-08T11:13:54Z</time>
      </trkpt>
      <trkpt lat="43.40322" lon="5.46068">
        <ele>628</ele>
        <time>2015-05-08T11:14:03Z</time>
      </trkpt>
      <trkpt lat="43.40322" lon="5.46074">
        <ele>628</ele>
        <time>2015-05-08T11:14:16Z</time>
      </trkpt>
      <trkpt lat="43.40322" lon="5.46077">
        <ele>628</ele>
        <time>2015-05-08T11:14:27Z</time>
      </trkpt>
      <trkpt lat="43.40321" lon="5.4608">
        <ele>628</ele>
        <time>2015-05-08T11:14:55Z</time>
      </trkpt>
      <trkpt lat="43.40324" lon="5.46083">
        <ele>628</ele>
        <time>2015-05-08T11:15:10Z</time>
      </trkpt>
      <trkpt lat="43.40326" lon="5.46084">
        <ele>628</ele>
        <time>2015-05-08T11:15:20Z</time>
      </trkpt>
      <trkpt lat="43.40327" lon="5.46083">
        <ele>628</ele>
        <time>2015-05-08T11:15:30Z</time>
      </trkpt>
      <trkpt lat="43.40328" lon="5.46082">
        <ele>627</ele>
        <time>2015-05-08T11:16:10Z</time>
      </trkpt>
      <trkpt lat="43.40329" lon="5.46083">
        <ele>627</ele>
        <time>2015-05-08T11:16:21Z</time>
      </trkpt>
      <trkpt lat="43.40331" lon="5.46089">
        <ele>627</ele>
        <time>2015-05-08T11:16:31Z</time>
      </trkpt>
      <trkpt lat="43.40335" lon="5.46095">
        <ele>627</ele>
        <time>2015-05-08T11:16:40Z</time>
      </trkpt>
      <trkpt lat="43.40339" lon="5.461">
        <ele>627</ele>
        <time>2015-05-08T11:16:49Z</time>
      </trkpt>
      <trkpt lat="43.40341" lon="5.46102">
        <ele>628</ele>
        <time>2015-05-08T11:16:59Z</time>
      </trkpt>
      <trkpt lat="43.40347" lon="5.46104">
        <ele>628</ele>
        <time>2015-05-08T11:17:08Z</time>
      </trkpt>
      <trkpt lat="43.40353" lon="5.46104">
        <ele>630</ele>
        <time>2015-05-08T11:17:19Z</time>
      </trkpt>
      <trkpt lat="43.40357" lon="5.46105">
        <ele>632</ele>
        <time>2015-05-08T11:17:29Z</time>
      </trkpt>
      <trkpt lat="43.40362" lon="5.46104">
        <ele>632</ele>
        <time>2015-05-08T11:17:41Z</time>
      </trkpt>
      <trkpt lat="43.40365" lon="5.46106">
        <ele>633</ele>
        <time>2015-05-08T11:17:51Z</time>
      </trkpt>
      <trkpt lat="43.40369" lon="5.46107">
        <ele>634</ele>
        <time>2015-05-08T11:18:00Z</time>
      </trkpt>
      <trkpt lat="43.40376" lon="5.46109">
        <ele>634</ele>
        <time>2015-05-08T11:18:09Z</time>
      </trkpt>
      <trkpt lat="43.40381" lon="5.46111">
        <ele>635</ele>
        <time>2015-05-08T11:18:18Z</time>
      </trkpt>
      <trkpt lat="43.40387" lon="5.46114">
        <ele>636</ele>
        <time>2015-05-08T11:18:29Z</time>
      </trkpt>
      <trkpt lat="43.40394" lon="5.46116">
        <ele>639</ele>
        <time>2015-05-08T11:18:42Z</time>
      </trkpt>
      <trkpt lat="43.40397" lon="5.46118">
        <ele>640</ele>
        <time>2015-05-08T11:18:52Z</time>
      </trkpt>
      <trkpt lat="43.40401" lon="5.46121">
        <ele>640</ele>
        <time>2015-05-08T11:19:03Z</time>
      </trkpt>
      <trkpt lat="43.40405" lon="5.46121">
        <ele>640</ele>
        <time>2015-05-08T11:19:12Z</time>
      </trkpt>
      <trkpt lat="43.40407" lon="5.46122">
        <ele>640</ele>
        <time>2015-05-08T11:19:24Z</time>
      </trkpt>
      <trkpt lat="43.40408" lon="5.46123">
        <ele>640</ele>
        <time>2015-05-08T11:19:38Z</time>
      </trkpt>
      <trkpt lat="43.40409" lon="5.46125">
        <ele>644</ele>
        <time>2015-05-08T11:20:04Z</time>
      </trkpt>
      <trkpt lat="43.40408" lon="5.46126">
        <ele>638</ele>
        <time>2015-05-08T11:20:18Z</time>
      </trkpt>
      <trkpt lat="43.40408" lon="5.46129">
        <ele>636</ele>
        <time>2015-05-08T11:20:37Z</time>
      </trkpt>
      <trkpt lat="43.40411" lon="5.46132">
        <ele>636</ele>
        <time>2015-05-08T11:20:47Z</time>
      </trkpt>
      <trkpt lat="43.40414" lon="5.46137">
        <ele>637</ele>
        <time>2015-05-08T11:20:58Z</time>
      </trkpt>
      <trkpt lat="43.40415" lon="5.46144">
        <ele>642</ele>
        <time>2015-05-08T11:21:09Z</time>
      </trkpt>
      <trkpt lat="43.40419" lon="5.46154">
        <ele>643</ele>
        <time>2015-05-08T11:21:19Z</time>
      </trkpt>
      <trkpt lat="43.40421" lon="5.46159">
        <ele>644</ele>
        <time>2015-05-08T11:21:28Z</time>
      </trkpt>
      <trkpt lat="43.40425" lon="5.46163">
        <ele>645</ele>
        <time>2015-05-08T11:21:38Z</time>
      </trkpt>
      <trkpt lat="43.40428" lon="5.46168">
        <ele>645</ele>
        <time>2015-05-08T11:21:47Z</time>
      </trkpt>
      <trkpt lat="43.40435" lon="5.46173">
        <ele>645</ele>
        <time>2015-05-08T11:21:57Z</time>
      </trkpt>
      <trkpt lat="43.4044" lon="5.4618">
        <ele>645</ele>
        <time>2015-05-08T11:22:07Z</time>
      </trkpt>
      <trkpt lat="43.40446" lon="5.46184">
        <ele>645</ele>
        <time>2015-05-08T11:22:16Z</time>
      </trkpt>
      <trkpt lat="43.40449" lon="5.46188">
        <ele>645</ele>
        <time>2015-05-08T11:22:25Z</time>
      </trkpt>
      <trkpt lat="43.40453" lon="5.46193">
        <ele>645</ele>
        <time>2015-05-08T11:22:35Z</time>
      </trkpt>
      <trkpt lat="43.40461" lon="5.46197">
        <ele>645</ele>
        <time>2015-05-08T11:22:46Z</time>
      </trkpt>
      <trkpt lat="43.40467" lon="5.46201">
        <ele>645</ele>
        <time>2015-05-08T11:22:59Z</time>
      </trkpt>
      <trkpt lat="43.40471" lon="5.46204">
        <ele>647</ele>
        <time>2015-05-08T11:23:10Z</time>
      </trkpt>
      <trkpt lat="43.40476" lon="5.46209">
        <ele>650</ele>
        <time>2015-05-08T11:23:20Z</time>
      </trkpt>
      <trkpt lat="43.4048" lon="5.46215">
        <ele>651</ele>
        <time>2015-05-08T11:23:31Z</time>
      </trkpt>
      <trkpt lat="43.40488" lon="5.46226">
        <ele>652</ele>
        <time>2015-05-08T11:23:42Z</time>
      </trkpt>
      <trkpt lat="43.40493" lon="5.46232">
        <ele>652</ele>
        <time>2015-05-08T11:23:51Z</time>
      </trkpt>
      <trkpt lat="43.40497" lon="5.46234">
        <ele>652</ele>
        <time>2015-05-08T11:24:01Z</time>
      </trkpt>
      <trkpt lat="43.40498" lon="5.46236">
        <ele>655</ele>
        <time>2015-05-08T11:24:18Z</time>
      </trkpt>
      <trkpt lat="43.40495" lon="5.46235">
        <ele>656</ele>
        <time>2015-05-08T11:24:33Z</time>
      </trkpt>
      <trkpt lat="43.40495" lon="5.46236">
        <ele>659</ele>
        <time>2015-05-08T11:24:43Z</time>
      </trkpt>
      <trkpt lat="43.40495" lon="5.46235">
        <ele>659</ele>
        <time>2015-05-08T11:24:55Z</time>
      </trkpt>
      <trkpt lat="43.40494" lon="5.46233">
        <ele>659</ele>
        <time>2015-05-08T11:25:09Z</time>
      </trkpt>
      <trkpt lat="43.40502" lon="5.46231">
        <ele>658</ele>
        <time>2015-05-08T11:25:18Z</time>
      </trkpt>
      <trkpt lat="43.40501" lon="5.46232">
        <ele>656</ele>
        <time>2015-05-08T11:25:27Z</time>
      </trkpt>
      <trkpt lat="43.40498" lon="5.46232">
        <ele>656</ele>
        <time>2015-05-08T11:25:38Z</time>
      </trkpt>
      <trkpt lat="43.40502" lon="5.46233">
        <ele>656</ele>
        <time>2015-05-08T11:25:48Z</time>
      </trkpt>
      <trkpt lat="43.40504" lon="5.46232">
        <ele>656</ele>
        <time>2015-05-08T11:25:58Z</time>
      </trkpt>
      <trkpt lat="43.40507" lon="5.46236">
        <ele>656</ele>
        <time>2015-05-08T11:26:08Z</time>
      </trkpt>
      <trkpt lat="43.4051" lon="5.46237">
        <ele>656</ele>
        <time>2015-05-08T11:26:17Z</time>
      </trkpt>
      <trkpt lat="43.40514" lon="5.46241">
        <ele>659</ele>
        <time>2015-05-08T11:26:28Z</time>
      </trkpt>
      <trkpt lat="43.40517" lon="5.46246">
        <ele>659</ele>
        <time>2015-05-08T11:26:38Z</time>
      </trkpt>
      <trkpt lat="43.4052" lon="5.46249">
        <ele>661</ele>
        <time>2015-05-08T11:26:47Z</time>
      </trkpt>
      <trkpt lat="43.40523" lon="5.46251">
        <ele>662</ele>
        <time>2015-05-08T11:26:56Z</time>
      </trkpt>
      <trkpt lat="43.40525" lon="5.46252">
        <ele>663</ele>
        <time>2015-05-08T11:27:09Z</time>
      </trkpt>
      <trkpt lat="43.40525" lon="5.4625">
        <ele>666</ele>
        <time>2015-05-08T11:27:25Z</time>
      </trkpt>
      <trkpt lat="43.40524" lon="5.46248">
        <ele>673</ele>
        <time>2015-05-08T11:28:02Z</time>
      </trkpt>
      <trkpt lat="43.4052" lon="5.4625">
        <ele>676</ele>
        <time>2015-05-08T11:28:13Z</time>
      </trkpt>
      <trkpt lat="43.40517" lon="5.46252">
        <ele>678</ele>
        <time>2015-05-08T11:28:22Z</time>
      </trkpt>
      <trkpt lat="43.40518" lon="5.46252">
        <ele>681</ele>
        <time>2015-05-08T11:28:32Z</time>
      </trkpt>
      <trkpt lat="43.4052" lon="5.46248">
        <ele>681</ele>
        <time>2015-05-08T11:28:42Z</time>
      </trkpt>
      <trkpt lat="43.40521" lon="5.46252">
        <ele>682</ele>
        <time>2015-05-08T11:28:52Z</time>
      </trkpt>
      <trkpt lat="43.40527" lon="5.46257">
        <ele>683</ele>
        <time>2015-05-08T11:29:02Z</time>
      </trkpt>
      <trkpt lat="43.40535" lon="5.46264">
        <ele>683</ele>
        <time>2015-05-08T11:29:11Z</time>
      </trkpt>
      <trkpt lat="43.40537" lon="5.46266">
        <ele>681</ele>
        <time>2015-05-08T11:29:20Z</time>
      </trkpt>
      <trkpt lat="43.40535" lon="5.46263">
        <ele>676</ele>
        <time>2015-05-08T11:29:31Z</time>
      </trkpt>
      <trkpt lat="43.40532" lon="5.46262">
        <ele>675</ele>
        <time>2015-05-08T11:29:57Z</time>
      </trkpt>
      <trkpt lat="43.40533" lon="5.46267">
        <ele>674</ele>
        <time>2015-05-08T11:30:12Z</time>
      </trkpt>
      <trkpt lat="43.40532" lon="5.46269">
        <ele>672</ele>
        <time>2015-05-08T11:30:24Z</time>
      </trkpt>
      <trkpt lat="43.40534" lon="5.46269">
        <ele>671</ele>
        <time>2015-05-08T11:30:34Z</time>
      </trkpt>
      <trkpt lat="43.40534" lon="5.46277">
        <ele>669</ele>
        <time>2015-05-08T11:30:43Z</time>
      </trkpt>
      <trkpt lat="43.40533" lon="5.46283">
        <ele>669</ele>
        <time>2015-05-08T11:30:52Z</time>
      </trkpt>
      <trkpt lat="43.40536" lon="5.46278">
        <ele>669</ele>
        <time>2015-05-08T11:31:06Z</time>
      </trkpt>
      <trkpt lat="43.40535" lon="5.4628">
        <ele>670</ele>
        <time>2015-05-08T11:31:17Z</time>
      </trkpt>
      <trkpt lat="43.40535" lon="5.46278">
        <ele>670</ele>
        <time>2015-05-08T11:31:28Z</time>
      </trkpt>
      <trkpt lat="43.40535" lon="5.46275">
        <ele>670</ele>
        <time>2015-05-08T11:31:47Z</time>
      </trkpt>
      <trkpt lat="43.40534" lon="5.46271">
        <ele>670</ele>
        <time>2015-05-08T11:31:57Z</time>
      </trkpt>
      <trkpt lat="43.40535" lon="5.46271">
        <ele>671</ele>
        <time>2015-05-08T11:32:06Z</time>
      </trkpt>
      <trkpt lat="43.40535" lon="5.46274">
        <ele>674</ele>
        <time>2015-05-08T11:32:15Z</time>
      </trkpt>
      <trkpt lat="43.40536" lon="5.46277">
        <ele>674</ele>
        <time>2015-05-08T11:32:29Z</time>
      </trkpt>
      <trkpt lat="43.40537" lon="5.4628">
        <ele>674</ele>
        <time>2015-05-08T11:32:38Z</time>
      </trkpt>
      <trkpt lat="43.40538" lon="5.4628">
        <ele>673</ele>
        <time>2015-05-08T11:33:01Z</time>
      </trkpt>
      <trkpt lat="43.40534" lon="5.46273">
        <ele>671</ele>
        <time>2015-05-08T11:33:10Z</time>
      </trkpt>
      <trkpt lat="43.4053" lon="5.46276">
        <ele>671</ele>
        <time>2015-05-08T11:33:19Z</time>
      </trkpt>
      <trkpt lat="43.40525" lon="5.46275">
        <ele>671</ele>
        <time>2015-05-08T11:34:09Z</time>
      </trkpt>
      <trkpt lat="43.40522" lon="5.46279">
        <ele>671</ele>
        <time>2015-05-08T11:34:19Z</time>
      </trkpt>
      <trkpt lat="43.40521" lon="5.46285">
        <ele>671</ele>
        <time>2015-05-08T11:34:28Z</time>
      </trkpt>
      <trkpt lat="43.40519" lon="5.46294">
        <ele>672</ele>
        <time>2015-05-08T11:34:38Z</time>
      </trkpt>
      <trkpt lat="43.40517" lon="5.46299">
        <ele>672</ele>
        <time>2015-05-08T11:34:48Z</time>
      </trkpt>
      <trkpt lat="43.4052" lon="5.46309">
        <ele>672</ele>
        <time>2015-05-08T11:34:58Z</time>
      </trkpt>
      <trkpt lat="43.40518" lon="5.46318">
        <ele>672</ele>
        <time>2015-05-08T11:35:09Z</time>
      </trkpt>
      <trkpt lat="43.40519" lon="5.46326">
        <ele>674</ele>
        <time>2015-05-08T11:35:19Z</time>
      </trkpt>
      <trkpt lat="43.40521" lon="5.46331">
        <ele>675</ele>
        <time>2015-05-08T11:35:43Z</time>
      </trkpt>
      <trkpt lat="43.40521" lon="5.46333">
        <ele>675</ele>
        <time>2015-05-08T11:35:53Z</time>
      </trkpt>
      <trkpt lat="43.4052" lon="5.46337">
        <ele>675</ele>
        <time>2015-05-08T11:36:03Z</time>
      </trkpt>
      <trkpt lat="43.4052" lon="5.46344">
        <ele>675</ele>
        <time>2015-05-08T11:36:14Z</time>
      </trkpt>
      <trkpt lat="43.40523" lon="5.46348">
        <ele>672</ele>
        <time>2015-05-08T11:36:25Z</time>
      </trkpt>
      <trkpt lat="43.40524" lon="5.46348">
        <ele>671</ele>
        <time>2015-05-08T11:36:44Z</time>
      </trkpt>
      <trkpt lat="43.40525" lon="5.46349">
        <ele>667</ele>
        <time>2015-05-08T11:37:03Z</time>
      </trkpt>
      <trkpt lat="43.40528" lon="5.4636">
        <ele>665</ele>
        <time>2015-05-08T11:37:13Z</time>
      </trkpt>
      <trkpt lat="43.40533" lon="5.46369">
        <ele>663</ele>
        <time>2015-05-08T11:37:23Z</time>
      </trkpt>
      <trkpt lat="43.40533" lon="5.46377">
        <ele>662</ele>
        <time>2015-05-08T11:37:32Z</time>
      </trkpt>
      <trkpt lat="43.40529" lon="5.46389">
        <ele>662</ele>
        <time>2015-05-08T11:37:43Z</time>
      </trkpt>
      <trkpt lat="43.40532" lon="5.46396">
        <ele>662</ele>
        <time>2015-05-08T11:37:53Z</time>
      </trkpt>
      <trkpt lat="43.40535" lon="5.46403">
        <ele>662</ele>
        <time>2015-05-08T11:38:02Z</time>
      </trkpt>
      <trkpt lat="43.40537" lon="5.4641">
        <ele>662</ele>
        <time>2015-05-08T11:38:11Z</time>
      </trkpt>
      <trkpt lat="43.40536" lon="5.46421">
        <ele>662</ele>
        <time>2015-05-08T11:38:21Z</time>
      </trkpt>
      <trkpt lat="43.4053" lon="5.4643">
        <ele>662</ele>
        <time>2015-05-08T11:38:31Z</time>
      </trkpt>
      <trkpt lat="43.4053" lon="5.46435">
        <ele>663</ele>
        <time>2015-05-08T11:38:41Z</time>
      </trkpt>
      <trkpt lat="43.40527" lon="5.46438">
        <ele>663</ele>
        <time>2015-05-08T11:38:50Z</time>
      </trkpt>
      <trkpt lat="43.40524" lon="5.46444">
        <ele>663</ele>
        <time>2015-05-08T11:39:01Z</time>
      </trkpt>
      <trkpt lat="43.40517" lon="5.46445">
        <ele>663</ele>
        <time>2015-05-08T11:39:11Z</time>
      </trkpt>
      <trkpt lat="43.40514" lon="5.46457">
        <ele>663</ele>
        <time>2015-05-08T11:39:21Z</time>
      </trkpt>
      <trkpt lat="43.40516" lon="5.46468">
        <ele>663</ele>
        <time>2015-05-08T11:39:30Z</time>
      </trkpt>
      <trkpt lat="43.40517" lon="5.46478">
        <ele>663</ele>
        <time>2015-05-08T11:39:40Z</time>
      </trkpt>
      <trkpt lat="43.40523" lon="5.46487">
        <ele>665</ele>
        <time>2015-05-08T11:39:50Z</time>
      </trkpt>
      <trkpt lat="43.40525" lon="5.46489">
        <ele>666</ele>
        <time>2015-05-08T11:40:13Z</time>
      </trkpt>
      <trkpt lat="43.40525" lon="5.46499">
        <ele>666</ele>
        <time>2015-05-08T11:40:22Z</time>
      </trkpt>
      <trkpt lat="43.40526" lon="5.46508">
        <ele>666</ele>
        <time>2015-05-08T11:40:32Z</time>
      </trkpt>
      <trkpt lat="43.40527" lon="5.46517">
        <ele>666</ele>
        <time>2015-05-08T11:40:42Z</time>
      </trkpt>
      <trkpt lat="43.4053" lon="5.46525">
        <ele>665</ele>
        <time>2015-05-08T11:40:51Z</time>
      </trkpt>
      <trkpt lat="43.40531" lon="5.46537">
        <ele>664</ele>
        <time>2015-05-08T11:41:00Z</time>
      </trkpt>
      <trkpt lat="43.40534" lon="5.46547">
        <ele>664</ele>
        <time>2015-05-08T11:41:09Z</time>
      </trkpt>
      <trkpt lat="43.40536" lon="5.46558">
        <ele>664</ele>
        <time>2015-05-08T11:41:19Z</time>
      </trkpt>
      <trkpt lat="43.40536" lon="5.46569">
        <ele>664</ele>
        <time>2015-05-08T11:41:29Z</time>
      </trkpt>
      <trkpt lat="43.4054" lon="5.46582">
        <ele>664</ele>
        <time>2015-05-08T11:41:39Z</time>
      </trkpt>
      <trkpt lat="43.40544" lon="5.46592">
        <ele>664</ele>
        <time>2015-05-08T11:41:49Z</time>
      </trkpt>
      <trkpt lat="43.40546" lon="5.46602">
        <ele>664</ele>
        <time>2015-05-08T11:41:59Z</time>
      </trkpt>
      <trkpt lat="43.40547" lon="5.46613">
        <ele>663</ele>
        <time>2015-05-08T11:42:08Z</time>
      </trkpt>
      <trkpt lat="43.40547" lon="5.46623">
        <ele>660</ele>
        <time>2015-05-08T11:42:18Z</time>
      </trkpt>
      <trkpt lat="43.40548" lon="5.46632">
        <ele>657</ele>
        <time>2015-05-08T11:42:28Z</time>
      </trkpt>
      <trkpt lat="43.40549" lon="5.46643">
        <ele>654</ele>
        <time>2015-05-08T11:42:38Z</time>
      </trkpt>
      <trkpt lat="43.40549" lon="5.46654">
        <ele>652</ele>
        <time>2015-05-08T11:42:48Z</time>
      </trkpt>
      <trkpt lat="43.40548" lon="5.46664">
        <ele>649</ele>
        <time>2015-05-08T11:42:58Z</time>
      </trkpt>
      <trkpt lat="43.40546" lon="5.46675">
        <ele>647</ele>
        <time>2015-05-08T11:43:07Z</time>
      </trkpt>
      <trkpt lat="43.40545" lon="5.4669">
        <ele>647</ele>
        <time>2015-05-08T11:43:17Z</time>
      </trkpt>
      <trkpt lat="43.40547" lon="5.46699">
        <ele>646</ele>
        <time>2015-05-08T11:43:26Z</time>
      </trkpt>
      <trkpt lat="43.40551" lon="5.4671">
        <ele>645</ele>
        <time>2015-05-08T11:43:36Z</time>
      </trkpt>
      <trkpt lat="43.40557" lon="5.46723">
        <ele>645</ele>
        <time>2015-05-08T11:43:45Z</time>
      </trkpt>
      <trkpt lat="43.40562" lon="5.46735">
        <ele>644</ele>
        <time>2015-05-08T11:43:55Z</time>
      </trkpt>
      <trkpt lat="43.40565" lon="5.46747">
        <ele>642</ele>
        <time>2015-05-08T11:44:04Z</time>
      </trkpt>
      <trkpt lat="43.4057" lon="5.46761">
        <ele>640</ele>
        <time>2015-05-08T11:44:14Z</time>
      </trkpt>
      <trkpt lat="43.40574" lon="5.46773">
        <ele>639</ele>
        <time>2015-05-08T11:44:23Z</time>
      </trkpt>
      <trkpt lat="43.40582" lon="5.46784">
        <ele>636</ele>
        <time>2015-05-08T11:44:33Z</time>
      </trkpt>
      <trkpt lat="43.40592" lon="5.46788">
        <ele>636</ele>
        <time>2015-05-08T11:44:42Z</time>
      </trkpt>
      <trkpt lat="43.40601" lon="5.46798">
        <ele>636</ele>
        <time>2015-05-08T11:44:51Z</time>
      </trkpt>
      <trkpt lat="43.40611" lon="5.4681">
        <ele>636</ele>
        <time>2015-05-08T11:45:01Z</time>
      </trkpt>
      <trkpt lat="43.40618" lon="5.46822">
        <ele>636</ele>
        <time>2015-05-08T11:45:11Z</time>
      </trkpt>
      <trkpt lat="43.40617" lon="5.46834">
        <ele>635</ele>
        <time>2015-05-08T11:45:21Z</time>
      </trkpt>
      <trkpt lat="43.40606" lon="5.46835">
        <ele>635</ele>
        <time>2015-05-08T11:45:30Z</time>
      </trkpt>
      <trkpt lat="43.40596" lon="5.46835">
        <ele>634</ele>
        <time>2015-05-08T11:45:39Z</time>
      </trkpt>
      <trkpt lat="43.40585" lon="5.46834">
        <ele>632</ele>
        <time>2015-05-08T11:45:49Z</time>
      </trkpt>
      <trkpt lat="43.40576" lon="5.46836">
        <ele>630</ele>
        <time>2015-05-08T11:45:58Z</time>
      </trkpt>
      <trkpt lat="43.40565" lon="5.46839">
        <ele>630</ele>
        <time>2015-05-08T11:46:07Z</time>
      </trkpt>
      <trkpt lat="43.40553" lon="5.46844">
        <ele>630</ele>
        <time>2015-05-08T11:46:17Z</time>
      </trkpt>
      <trkpt lat="43.40548" lon="5.46853">
        <ele>630</ele>
        <time>2015-05-08T11:46:26Z</time>
      </trkpt>
      <trkpt lat="43.40548" lon="5.46865">
        <ele>630</ele>
        <time>2015-05-08T11:46:35Z</time>
      </trkpt>
      <trkpt lat="43.40546" lon="5.46882">
        <ele>630</ele>
        <time>2015-05-08T11:46:44Z</time>
      </trkpt>
      <trkpt lat="43.40543" lon="5.46899">
        <ele>630</ele>
        <time>2015-05-08T11:46:53Z</time>
      </trkpt>
      <trkpt lat="43.4054" lon="5.46917">
        <ele>630</ele>
        <time>2015-05-08T11:47:03Z</time>
      </trkpt>
      <trkpt lat="43.40536" lon="5.46931">
        <ele>630</ele>
        <time>2015-05-08T11:47:12Z</time>
      </trkpt>
      <trkpt lat="43.40531" lon="5.46946">
        <ele>630</ele>
        <time>2015-05-08T11:47:22Z</time>
      </trkpt>
      <trkpt lat="43.40524" lon="5.46958">
        <ele>630</ele>
        <time>2015-05-08T11:47:31Z</time>
      </trkpt>
      <trkpt lat="43.4052" lon="5.46972">
        <ele>630</ele>
        <time>2015-05-08T11:47:40Z</time>
      </trkpt>
      <trkpt lat="43.4052" lon="5.46988">
        <ele>630</ele>
        <time>2015-05-08T11:47:49Z</time>
      </trkpt>
      <trkpt lat="43.4052" lon="5.47002">
        <ele>630</ele>
        <time>2015-05-08T11:47:59Z</time>
      </trkpt>
      <trkpt lat="43.40522" lon="5.47014">
        <ele>630</ele>
        <time>2015-05-08T11:48:08Z</time>
      </trkpt>
      <trkpt lat="43.40523" lon="5.47029">
        <ele>630</ele>
        <time>2015-05-08T11:48:17Z</time>
      </trkpt>
      <trkpt lat="43.40523" lon="5.47047">
        <ele>630</ele>
        <time>2015-05-08T11:48:27Z</time>
      </trkpt>
      <trkpt lat="43.40517" lon="5.47061">
        <ele>630</ele>
        <time>2015-05-08T11:48:37Z</time>
      </trkpt>
      <trkpt lat="43.40511" lon="5.47075">
        <ele>628</ele>
        <time>2015-05-08T11:48:47Z</time>
      </trkpt>
      <trkpt lat="43.40507" lon="5.4709">
        <ele>625</ele>
        <time>2015-05-08T11:48:56Z</time>
      </trkpt>
      <trkpt lat="43.40503" lon="5.47106">
        <ele>622</ele>
        <time>2015-05-08T11:49:05Z</time>
      </trkpt>
      <trkpt lat="43.40498" lon="5.47121">
        <ele>620</ele>
        <time>2015-05-08T11:49:15Z</time>
      </trkpt>
      <trkpt lat="43.40487" lon="5.47128">
        <ele>620</ele>
        <time>2015-05-08T11:49:24Z</time>
      </trkpt>
      <trkpt lat="43.40475" lon="5.47132">
        <ele>620</ele>
        <time>2015-05-08T11:49:33Z</time>
      </trkpt>
      <trkpt lat="43.40466" lon="5.47136">
        <ele>620</ele>
        <time>2015-05-08T11:49:42Z</time>
      </trkpt>
      <trkpt lat="43.40455" lon="5.47139">
        <ele>615</ele>
        <time>2015-05-08T11:49:52Z</time>
      </trkpt>
      <trkpt lat="43.40444" lon="5.47148">
        <ele>614</ele>
        <time>2015-05-08T11:50:02Z</time>
      </trkpt>
      <trkpt lat="43.40439" lon="5.47161">
        <ele>614</ele>
        <time>2015-05-08T11:50:11Z</time>
      </trkpt>
      <trkpt lat="43.40433" lon="5.47175">
        <ele>613</ele>
        <time>2015-05-08T11:50:21Z</time>
      </trkpt>
      <trkpt lat="43.40426" lon="5.47188">
        <ele>610</ele>
        <time>2015-05-08T11:50:30Z</time>
      </trkpt>
      <trkpt lat="43.40423" lon="5.472">
        <ele>610</ele>
        <time>2015-05-08T11:50:39Z</time>
      </trkpt>
      <trkpt lat="43.40424" lon="5.47216">
        <ele>610</ele>
        <time>2015-05-08T11:50:48Z</time>
      </trkpt>
      <trkpt lat="43.40425" lon="5.47234">
        <ele>610</ele>
        <time>2015-05-08T11:50:57Z</time>
      </trkpt>
      <trkpt lat="43.40428" lon="5.47251">
        <ele>610</ele>
        <time>2015-05-08T11:51:06Z</time>
      </trkpt>
      <trkpt lat="43.40433" lon="5.47265">
        <ele>609</ele>
        <time>2015-05-08T11:51:15Z</time>
      </trkpt>
      <trkpt lat="43.4044" lon="5.47279">
        <ele>609</ele>
        <time>2015-05-08T11:51:24Z</time>
      </trkpt>
      <trkpt lat="43.40446" lon="5.47293">
        <ele>609</ele>
        <time>2015-05-08T11:51:34Z</time>
      </trkpt>
      <trkpt lat="43.4045" lon="5.47306">
        <ele>609</ele>
        <time>2015-05-08T11:51:43Z</time>
      </trkpt>
      <trkpt lat="43.40453" lon="5.47321">
        <ele>609</ele>
        <time>2015-05-08T11:51:52Z</time>
      </trkpt>
      <trkpt lat="43.40458" lon="5.47335">
        <ele>610</ele>
        <time>2015-05-08T11:52:01Z</time>
      </trkpt>
      <trkpt lat="43.40461" lon="5.4735">
        <ele>610</ele>
        <time>2015-05-08T11:52:10Z</time>
      </trkpt>
      <trkpt lat="43.40466" lon="5.47365">
        <ele>610</ele>
        <time>2015-05-08T11:52:19Z</time>
      </trkpt>
      <trkpt lat="43.40471" lon="5.4738">
        <ele>610</ele>
        <time>2015-05-08T11:52:28Z</time>
      </trkpt>
      <trkpt lat="43.40473" lon="5.47395">
        <ele>610</ele>
        <time>2015-05-08T11:52:37Z</time>
      </trkpt>
      <trkpt lat="43.40475" lon="5.4741">
        <ele>611</ele>
        <time>2015-05-08T11:52:46Z</time>
      </trkpt>
      <trkpt lat="43.40482" lon="5.47422">
        <ele>611</ele>
        <time>2015-05-08T11:52:55Z</time>
      </trkpt>
      <trkpt lat="43.40495" lon="5.47428">
        <ele>611</ele>
        <time>2015-05-08T11:53:04Z</time>
      </trkpt>
      <trkpt lat="43.405" lon="5.47441">
        <ele>611</ele>
        <time>2015-05-08T11:53:13Z</time>
      </trkpt>
      <trkpt lat="43.40501" lon="5.47457">
        <ele>611</ele>
        <time>2015-05-08T11:53:22Z</time>
      </trkpt>
      <trkpt lat="43.40498" lon="5.47472">
        <ele>611</ele>
        <time>2015-05-08T11:53:31Z</time>
      </trkpt>
      <trkpt lat="43.40498" lon="5.47488">
        <ele>611</ele>
        <time>2015-05-08T11:53:40Z</time>
      </trkpt>
      <trkpt lat="43.40501" lon="5.47503">
        <ele>610</ele>
        <time>2015-05-08T11:53:49Z</time>
      </trkpt>
      <trkpt lat="43.40507" lon="5.47518">
        <ele>610</ele>
        <time>2015-05-08T11:53:59Z</time>
      </trkpt>
      <trkpt lat="43.40511" lon="5.47533">
        <ele>610</ele>
        <time>2015-05-08T11:54:09Z</time>
      </trkpt>
      <trkpt lat="43.40518" lon="5.47547">
        <ele>608</ele>
        <time>2015-05-08T11:54:19Z</time>
      </trkpt>
      <trkpt lat="43.40525" lon="5.4756">
        <ele>607</ele>
        <time>2015-05-08T11:54:28Z</time>
      </trkpt>
      <trkpt lat="43.40534" lon="5.47566">
        <ele>607</ele>
        <time>2015-05-08T11:54:37Z</time>
      </trkpt>
      <trkpt lat="43.40545" lon="5.47567">
        <ele>607</ele>
        <time>2015-05-08T11:54:47Z</time>
      </trkpt>
      <trkpt lat="43.40559" lon="5.47576">
        <ele>607</ele>
        <time>2015-05-08T11:54:57Z</time>
      </trkpt>
      <trkpt lat="43.40569" lon="5.47582">
        <ele>607</ele>
        <time>2015-05-08T11:55:06Z</time>
      </trkpt>
      <trkpt lat="43.40575" lon="5.47595">
        <ele>605</ele>
        <time>2015-05-08T11:55:15Z</time>
      </trkpt>
      <trkpt lat="43.40582" lon="5.47607">
        <ele>602</ele>
        <time>2015-05-08T11:55:24Z</time>
      </trkpt>
      <trkpt lat="43.4059" lon="5.47622">
        <ele>600</ele>
        <time>2015-05-08T11:55:34Z</time>
      </trkpt>
      <trkpt lat="43.40597" lon="5.47636">
        <ele>599</ele>
        <time>2015-05-08T11:55:44Z</time>
      </trkpt>
      <trkpt lat="43.40602" lon="5.47648">
        <ele>598</ele>
        <time>2015-05-08T11:55:53Z</time>
      </trkpt>
      <trkpt lat="43.4061" lon="5.47662">
        <ele>598</ele>
        <time>2015-05-08T11:56:03Z</time>
      </trkpt>
      <trkpt lat="43.40617" lon="5.47674">
        <ele>598</ele>
        <time>2015-05-08T11:56:12Z</time>
      </trkpt>
      <trkpt lat="43.40627" lon="5.47686">
        <ele>597</ele>
        <time>2015-05-08T11:56:22Z</time>
      </trkpt>
      <trkpt lat="43.40637" lon="5.47696">
        <ele>597</ele>
        <time>2015-05-08T11:56:32Z</time>
      </trkpt>
      <trkpt lat="43.40645" lon="5.47704">
        <ele>597</ele>
        <time>2015-05-08T11:56:41Z</time>
      </trkpt>
      <trkpt lat="43.40657" lon="5.47713">
        <ele>597</ele>
        <time>2015-05-08T11:56:52Z</time>
      </trkpt>
      <trkpt lat="43.40667" lon="5.47723">
        <ele>597</ele>
        <time>2015-05-08T11:57:02Z</time>
      </trkpt>
      <trkpt lat="43.40675" lon="5.47735">
        <ele>595</ele>
        <time>2015-05-08T11:57:11Z</time>
      </trkpt>
      <trkpt lat="43.40686" lon="5.47747">
        <ele>592</ele>
        <time>2015-05-08T11:57:21Z</time>
      </trkpt>
      <trkpt lat="43.40695" lon="5.47761">
        <ele>588</ele>
        <time>2015-05-08T11:57:31Z</time>
      </trkpt>
      <trkpt lat="43.40704" lon="5.47774">
        <ele>586</ele>
        <time>2015-05-08T11:57:41Z</time>
      </trkpt>
      <trkpt lat="43.4071" lon="5.47786">
        <ele>584</ele>
        <time>2015-05-08T11:57:50Z</time>
      </trkpt>
      <trkpt lat="43.40717" lon="5.478">
        <ele>582</ele>
        <time>2015-05-08T11:58:00Z</time>
      </trkpt>
      <trkpt lat="43.40722" lon="5.47813">
        <ele>582</ele>
        <time>2015-05-08T11:58:09Z</time>
      </trkpt>
      <trkpt lat="43.40729" lon="5.47826">
        <ele>581</ele>
        <time>2015-05-08T11:58:18Z</time>
      </trkpt>
      <trkpt lat="43.40736" lon="5.4784">
        <ele>581</ele>
        <time>2015-05-08T11:58:27Z</time>
      </trkpt>
      <trkpt lat="43.4074" lon="5.47854">
        <ele>581</ele>
        <time>2015-05-08T11:58:36Z</time>
      </trkpt>
      <trkpt lat="43.40745" lon="5.47868">
        <ele>581</ele>
        <time>2015-05-08T11:58:45Z</time>
      </trkpt>
      <trkpt lat="43.40749" lon="5.47883">
        <ele>581</ele>
        <time>2015-05-08T11:58:54Z</time>
      </trkpt>
      <trkpt lat="43.40753" lon="5.47897">
        <ele>581</ele>
        <time>2015-05-08T11:59:03Z</time>
      </trkpt>
      <trkpt lat="43.40757" lon="5.47911">
        <ele>581</ele>
        <time>2015-05-08T11:59:12Z</time>
      </trkpt>
      <trkpt lat="43.40762" lon="5.47927">
        <ele>581</ele>
        <time>2015-05-08T11:59:22Z</time>
      </trkpt>
      <trkpt lat="43.40766" lon="5.47941">
        <ele>581</ele>
        <time>2015-05-08T11:59:31Z</time>
      </trkpt>
      <trkpt lat="43.40771" lon="5.47957">
        <ele>581</ele>
        <time>2015-05-08T11:59:41Z</time>
      </trkpt>
      <trkpt lat="43.40776" lon="5.47971">
        <ele>581</ele>
        <time>2015-05-08T11:59:50Z</time>
      </trkpt>
      <trkpt lat="43.4078" lon="5.47986">
        <ele>581</ele>
        <time>2015-05-08T11:59:59Z</time>
      </trkpt>
      <trkpt lat="43.40784" lon="5.48001">
        <ele>582</ele>
        <time>2015-05-08T12:00:09Z</time>
      </trkpt>
      <trkpt lat="43.40788" lon="5.48017">
        <ele>582</ele>
        <time>2015-05-08T12:00:18Z</time>
      </trkpt>
      <trkpt lat="43.4079" lon="5.48032">
        <ele>582</ele>
        <time>2015-05-08T12:00:27Z</time>
      </trkpt>
      <trkpt lat="43.40792" lon="5.48051">
        <ele>582</ele>
        <time>2015-05-08T12:00:37Z</time>
      </trkpt>
      <trkpt lat="43.40794" lon="5.48069">
        <ele>582</ele>
        <time>2015-05-08T12:00:47Z</time>
      </trkpt>
      <trkpt lat="43.40794" lon="5.48085">
        <ele>583</ele>
        <time>2015-05-08T12:00:56Z</time>
      </trkpt>
      <trkpt lat="43.40793" lon="5.48101">
        <ele>583</ele>
        <time>2015-05-08T12:01:05Z</time>
      </trkpt>
      <trkpt lat="43.40793" lon="5.48117">
        <ele>584</ele>
        <time>2015-05-08T12:01:14Z</time>
      </trkpt>
      <trkpt lat="43.40792" lon="5.48136">
        <ele>584</ele>
        <time>2015-05-08T12:01:24Z</time>
      </trkpt>
      <trkpt lat="43.40792" lon="5.48152">
        <ele>584</ele>
        <time>2015-05-08T12:01:33Z</time>
      </trkpt>
      <trkpt lat="43.40791" lon="5.4817">
        <ele>584</ele>
        <time>2015-05-08T12:01:43Z</time>
      </trkpt>
      <trkpt lat="43.4079" lon="5.48187">
        <ele>584</ele>
        <time>2015-05-08T12:01:53Z</time>
      </trkpt>
      <trkpt lat="43.4079" lon="5.48204">
        <ele>585</ele>
        <time>2015-05-08T12:02:03Z</time>
      </trkpt>
      <trkpt lat="43.40792" lon="5.48218">
        <ele>585</ele>
        <time>2015-05-08T12:02:12Z</time>
      </trkpt>
      <trkpt lat="43.40794" lon="5.48233">
        <ele>585</ele>
        <time>2015-05-08T12:02:21Z</time>
      </trkpt>
      <trkpt lat="43.40796" lon="5.48247">
        <ele>585</ele>
        <time>2015-05-08T12:02:30Z</time>
      </trkpt>
      <trkpt lat="43.40797" lon="5.48261">
        <ele>586</ele>
        <time>2015-05-08T12:02:39Z</time>
      </trkpt>
      <trkpt lat="43.408" lon="5.48275">
        <ele>586</ele>
        <time>2015-05-08T12:02:48Z</time>
      </trkpt>
      <trkpt lat="43.40804" lon="5.48289">
        <ele>586</ele>
        <time>2015-05-08T12:02:57Z</time>
      </trkpt>
      <trkpt lat="43.40808" lon="5.48305">
        <ele>586</ele>
        <time>2015-05-08T12:03:07Z</time>
      </trkpt>
      <trkpt lat="43.40811" lon="5.4832">
        <ele>586</ele>
        <time>2015-05-08T12:03:16Z</time>
      </trkpt>
      <trkpt lat="43.40814" lon="5.48335">
        <ele>586</ele>
        <time>2015-05-08T12:03:25Z</time>
      </trkpt>
      <trkpt lat="43.4082" lon="5.4835">
        <ele>586</ele>
        <time>2015-05-08T12:03:35Z</time>
      </trkpt>
      <trkpt lat="43.40828" lon="5.48357">
        <ele>586</ele>
        <time>2015-05-08T12:03:44Z</time>
      </trkpt>
      <trkpt lat="43.40837" lon="5.48359">
        <ele>587</ele>
        <time>2015-05-08T12:03:54Z</time>
      </trkpt>
      <trkpt lat="43.40841" lon="5.48375">
        <ele>587</ele>
        <time>2015-05-08T12:04:04Z</time>
      </trkpt>
      <trkpt lat="43.40844" lon="5.48393">
        <ele>587</ele>
        <time>2015-05-08T12:04:14Z</time>
      </trkpt>
      <trkpt lat="43.40846" lon="5.48411">
        <ele>585</ele>
        <time>2015-05-08T12:04:24Z</time>
      </trkpt>
      <trkpt lat="43.40849" lon="5.48425">
        <ele>583</ele>
        <time>2015-05-08T12:04:34Z</time>
      </trkpt>
      <trkpt lat="43.40852" lon="5.48441">
        <ele>582</ele>
        <time>2015-05-08T12:04:45Z</time>
      </trkpt>
      <trkpt lat="43.40855" lon="5.48453">
        <ele>581</ele>
        <time>2015-05-08T12:04:54Z</time>
      </trkpt>
      <trkpt lat="43.40858" lon="5.48467">
        <ele>579</ele>
        <time>2015-05-08T12:05:03Z</time>
      </trkpt>
      <trkpt lat="43.40861" lon="5.48482">
        <ele>577</ele>
        <time>2015-05-08T12:05:14Z</time>
      </trkpt>
      <trkpt lat="43.40865" lon="5.48495">
        <ele>575</ele>
        <time>2015-05-08T12:05:24Z</time>
      </trkpt>
      <trkpt lat="43.40868" lon="5.48514">
        <ele>572</ele>
        <time>2015-05-08T12:05:34Z</time>
      </trkpt>
      <trkpt lat="43.4087" lon="5.48531">
        <ele>568</ele>
        <time>2015-05-08T12:05:44Z</time>
      </trkpt>
      <trkpt lat="43.40875" lon="5.48547">
        <ele>564</ele>
        <time>2015-05-08T12:05:54Z</time>
      </trkpt>
      <trkpt lat="43.40883" lon="5.4856">
        <ele>563</ele>
        <time>2015-05-08T12:06:04Z</time>
      </trkpt>
      <trkpt lat="43.4089" lon="5.48574">
        <ele>562</ele>
        <time>2015-05-08T12:06:14Z</time>
      </trkpt>
      <trkpt lat="43.40897" lon="5.4859">
        <ele>562</ele>
        <time>2015-05-08T12:06:24Z</time>
      </trkpt>
      <trkpt lat="43.40903" lon="5.48606">
        <ele>562</ele>
        <time>2015-05-08T12:06:35Z</time>
      </trkpt>
      <trkpt lat="43.40906" lon="5.48619">
        <ele>562</ele>
        <time>2015-05-08T12:06:44Z</time>
      </trkpt>
      <trkpt lat="43.40909" lon="5.48635">
        <ele>562</ele>
        <time>2015-05-08T12:06:54Z</time>
      </trkpt>
      <trkpt lat="43.40915" lon="5.48653">
        <ele>560</ele>
        <time>2015-05-08T12:07:05Z</time>
      </trkpt>
      <trkpt lat="43.40916" lon="5.48665">
        <ele>559</ele>
        <time>2015-05-08T12:07:14Z</time>
      </trkpt>
      <trkpt lat="43.40922" lon="5.48682">
        <ele>559</ele>
        <time>2015-05-08T12:07:24Z</time>
      </trkpt>
      <trkpt lat="43.40928" lon="5.48699">
        <ele>559</ele>
        <time>2015-05-08T12:07:35Z</time>
      </trkpt>
      <trkpt lat="43.40931" lon="5.48714">
        <ele>559</ele>
        <time>2015-05-08T12:07:44Z</time>
      </trkpt>
      <trkpt lat="43.40933" lon="5.48731">
        <ele>554</ele>
        <time>2015-05-08T12:07:54Z</time>
      </trkpt>
      <trkpt lat="43.40939" lon="5.48744">
        <ele>550</ele>
        <time>2015-05-08T12:08:04Z</time>
      </trkpt>
      <trkpt lat="43.40943" lon="5.4876">
        <ele>549</ele>
        <time>2015-05-08T12:08:14Z</time>
      </trkpt>
      <trkpt lat="43.4095" lon="5.48775">
        <ele>549</ele>
        <time>2015-05-08T12:08:24Z</time>
      </trkpt>
      <trkpt lat="43.4095" lon="5.48793">
        <ele>548</ele>
        <time>2015-05-08T12:08:34Z</time>
      </trkpt>
      <trkpt lat="43.4095" lon="5.48811">
        <ele>546</ele>
        <time>2015-05-08T12:08:44Z</time>
      </trkpt>
      <trkpt lat="43.40951" lon="5.48825">
        <ele>545</ele>
        <time>2015-05-08T12:08:55Z</time>
      </trkpt>
      <trkpt lat="43.40957" lon="5.48839">
        <ele>545</ele>
        <time>2015-05-08T12:09:04Z</time>
      </trkpt>
      <trkpt lat="43.40966" lon="5.48854">
        <ele>543</ele>
        <time>2015-05-08T12:09:15Z</time>
      </trkpt>
      <trkpt lat="43.40968" lon="5.48871">
        <ele>541</ele>
        <time>2015-05-08T12:09:24Z</time>
      </trkpt>
      <trkpt lat="43.40976" lon="5.48888">
        <ele>541</ele>
        <time>2015-05-08T12:09:34Z</time>
      </trkpt>
      <trkpt lat="43.4098" lon="5.48907">
        <ele>541</ele>
        <time>2015-05-08T12:09:44Z</time>
      </trkpt>
      <trkpt lat="43.40982" lon="5.48923">
        <ele>540</ele>
        <time>2015-05-08T12:09:54Z</time>
      </trkpt>
      <trkpt lat="43.40985" lon="5.48937">
        <ele>540</ele>
        <time>2015-05-08T12:10:04Z</time>
      </trkpt>
      <trkpt lat="43.40989" lon="5.4895">
        <ele>540</ele>
        <time>2015-05-08T12:10:14Z</time>
      </trkpt>
      <trkpt lat="43.40999" lon="5.48959">
        <ele>540</ele>
        <time>2015-05-08T12:10:24Z</time>
      </trkpt>
      <trkpt lat="43.41006" lon="5.48975">
        <ele>537</ele>
        <time>2015-05-08T12:10:35Z</time>
      </trkpt>
      <trkpt lat="43.41009" lon="5.4899">
        <ele>534</ele>
        <time>2015-05-08T12:10:44Z</time>
      </trkpt>
      <trkpt lat="43.4101" lon="5.49007">
        <ele>530</ele>
        <time>2015-05-08T12:10:54Z</time>
      </trkpt>
      <trkpt lat="43.41016" lon="5.49024">
        <ele>528</ele>
        <time>2015-05-08T12:11:04Z</time>
      </trkpt>
      <trkpt lat="43.41019" lon="5.4904">
        <ele>527</ele>
        <time>2015-05-08T12:11:15Z</time>
      </trkpt>
      <trkpt lat="43.41026" lon="5.49049">
        <ele>527</ele>
        <time>2015-05-08T12:11:24Z</time>
      </trkpt>
      <trkpt lat="43.41035" lon="5.49058">
        <ele>527</ele>
        <time>2015-05-08T12:11:34Z</time>
      </trkpt>
      <trkpt lat="43.41043" lon="5.49072">
        <ele>527</ele>
        <time>2015-05-08T12:11:45Z</time>
      </trkpt>
      <trkpt lat="43.41054" lon="5.49075">
        <ele>527</ele>
        <time>2015-05-08T12:11:54Z</time>
      </trkpt>
      <trkpt lat="43.4106" lon="5.49079">
        <ele>532</ele>
        <time>2015-05-08T12:12:04Z</time>
      </trkpt>
      <trkpt lat="43.41062" lon="5.49084">
        <ele>532</ele>
        <time>2015-05-08T12:12:15Z</time>
      </trkpt>
      <trkpt lat="43.41064" lon="5.49082">
        <ele>532</ele>
        <time>2015-05-08T12:12:32Z</time>
      </trkpt>
      <trkpt lat="43.41064" lon="5.49083">
        <ele>532</ele>
        <time>2015-05-08T12:12:43Z</time>
      </trkpt>
      <trkpt lat="43.41062" lon="5.49081">
        <ele>532</ele>
        <time>2015-05-08T12:12:55Z</time>
      </trkpt>
      <trkpt lat="43.41061" lon="5.49081">
        <ele>531</ele>
        <time>2015-05-08T12:13:02Z</time>
      </trkpt>
    </trkseg>
  </trk>
</gpx>